Provisional Data: West Creek near Weber City, PA


Please select a monitoring station.
Please select start date.
Please select start date.

Toggle Unit: C/F Toggle Unit: C/F
Sample Time Temperature (C) Temperature (F) Specific Conductivity (mS/cm) pH   Turbidity (NTU+) DO (mg/L)
10/20/2020 12:00:00 AM 10.09 50.162 0.13 7.11 1.45 10.38
10/20/2020 12:15:00 AM 10.1 50.18 0.13 7.12 1.41 10.38
10/20/2020 12:30:00 AM 10.1 50.18 0.13 7.12 1.37 10.37
10/20/2020 12:45:00 AM 10.11 50.198 0.13 7.12 1.38 10.37
10/20/2020 1:00:00 AM 10.11 50.198 0.13 7.12 1.94 10.38
10/20/2020 1:15:00 AM 10.12 50.216 0.13 7.12 1.49 10.38
10/20/2020 1:30:00 AM 10.13 50.234 0.13 7.12 1.65 10.37
10/20/2020 1:45:00 AM 10.14 50.252 0.13 7.12 1.5 10.38
10/20/2020 2:00:00 AM 10.15 50.27 0.13 7.12 1.48 10.37
10/20/2020 2:15:00 AM 10.16 50.288 0.13 7.12 1.4 10.37
10/20/2020 2:30:00 AM 10.17 50.306 0.13 7.12 1.42 10.37
10/20/2020 2:45:00 AM 10.18 50.324 0.13 7.12 1.36 10.37
10/20/2020 3:00:00 AM 10.19 50.342 0.13 7.12 1.43 10.36
10/20/2020 3:15:00 AM 10.2 50.36 0.13 7.13 1.42 10.36
10/20/2020 3:30:00 AM 10.21 50.378 0.13 7.12 1.34 10.36
10/20/2020 3:45:00 AM 10.22 50.396 0.13 7.13 1.39 10.36
10/20/2020 4:00:00 AM 10.23 50.414 0.13 7.13 1.38 10.36
10/20/2020 4:15:00 AM 10.24 50.432 0.13 7.13 1.51 10.36
10/20/2020 4:30:00 AM 10.25 50.45 0.13 7.12 1.41 10.36
10/20/2020 4:45:00 AM 10.26 50.468 0.13 7.12 1.4 10.36
10/20/2020 5:00:00 AM 10.28 50.504 0.13 7.12 1.37 10.36
10/20/2020 5:15:00 AM 10.29 50.522 0.129 7.12 1.46 10.36
10/20/2020 5:30:00 AM 10.3 50.54 0.129 7.12 1.55 10.37
10/20/2020 5:45:00 AM 10.33 50.594 0.128 7.12 1.94 10.38
10/20/2020 6:00:00 AM 10.34 50.612 0.128 7.11 1.81 10.38
10/20/2020 6:15:00 AM 10.36 50.648 0.127 7.12 1.75 10.39
10/20/2020 6:30:00 AM 10.37 50.666 0.126 7.12 1.75 10.39
10/20/2020 6:45:00 AM 10.38 50.684 0.125 7.11 1.8 10.39
10/20/2020 7:00:00 AM 10.4 50.72 0.125 7.11 1.87 10.38
10/20/2020 7:15:00 AM 10.4 50.72 0.125 7.1 1.98 10.37
10/20/2020 7:30:00 AM 10.41 50.738 0.125 7.1 1.81 10.37
10/20/2020 7:45:00 AM 10.42 50.756 0.125 7.1 1.73 10.36
10/20/2020 8:00:00 AM 10.43 50.774 0.126 7.11 2.11 10.37
10/20/2020 8:15:00 AM 10.43 50.774 0.126 7.11 1.66 10.37
10/20/2020 8:30:00 AM 10.44 50.792 0.126 7.11 1.82 10.38
10/20/2020 8:45:00 AM 10.46 50.828 0.126 7.11 1.86 10.38
10/20/2020 9:00:00 AM 10.47 50.846 0.126 7.12 1.94 10.4
10/20/2020 9:15:00 AM 10.5 50.9 0.127 7.11 1.88 10.41
10/20/2020 9:30:00 AM 10.53 50.954 0.126 7.11 1.82 10.44
10/20/2020 9:45:00 AM 10.57 51.026 0.126 7.11 1.71 10.45
10/20/2020 10:00:00 AM 10.66 51.188 0.126 7.12 1.94 10.5
10/20/2020 10:15:00 AM 10.71 51.278 0.126 7.13 1.95 10.51
10/20/2020 10:30:00 AM 10.78 51.404 0.126 7.14 1.94 10.53
10/20/2020 10:45:00 AM 10.83 51.494 0.126 7.15 2.04 10.53
10/20/2020 11:00:00 AM 10.87 51.566 0.126 7.16 2.21 10.52
10/20/2020 11:15:00 AM 10.89 51.602 0.126 7.15 2.01 10.51
10/20/2020 11:30:00 AM 10.9 51.62 0.125 7.15 2.03 10.5
10/20/2020 11:45:00 AM 10.92 51.656 0.125 7.14 2.14 10.48
10/20/2020 12:00:00 PM 10.93 51.674 0.125 7.15 2 10.48
10/20/2020 12:15:00 PM 10.95 51.71 0.124 7.15 2.16 10.49
10/20/2020 12:30:00 PM 10.99 51.782 0.124 7.16 2.15 10.5
10/20/2020 12:45:00 PM 11.03 51.854 0.124 7.17 2.29 10.51
10/20/2020 1:00:00 PM 11.07 51.926 0.124 7.18 2.17 10.52
10/20/2020 1:15:00 PM 11.11 51.998 0.124 7.19 2.28 10.53
10/20/2020 1:30:00 PM 11.16 52.088 0.124 7.19 2.54 10.53
10/20/2020 1:45:00 PM 11.19 52.142 0.125 7.19 2.58 10.52
10/20/2020 2:00:00 PM 11.22 52.196 0.125 7.2 2.55 10.51
10/20/2020 2:15:00 PM 11.24 52.232 0.125 7.2 2.42 10.5
10/20/2020 2:30:00 PM 11.26 52.268 0.125 7.2 2.73 10.49
10/20/2020 2:45:00 PM 11.29 52.322 0.125 7.21 2.99 10.48
10/20/2020 3:00:00 PM 11.33 52.394 0.125 7.21 3.11 10.47
10/20/2020 3:15:00 PM 11.36 52.448 0.125 7.21 3.08 10.47
10/20/2020 3:30:00 PM 11.39 52.502 0.125 7.21 3.3 10.47
10/20/2020 3:45:00 PM 11.43 52.574 0.125 7.21 3.44 10.46
10/20/2020 4:00:00 PM 11.46 52.628 0.125 7.21 3.31 10.45
10/20/2020 4:15:00 PM 11.48 52.664 0.125 7.2 3.92 10.44
10/20/2020 4:30:00 PM 11.5 52.7 0.125 7.2 4.47 10.43
10/20/2020 4:45:00 PM 11.51 52.718 0.125 7.2 4.97 10.41
10/20/2020 5:00:00 PM 11.53 52.754 0.125 7.2 5.19 10.4
10/20/2020 5:15:00 PM 11.55 52.79 0.125 7.19 6.01 10.4
10/20/2020 5:30:00 PM 11.57 52.826 0.125 7.17 8.27 10.39
10/20/2020 5:45:00 PM 11.58 52.844 0.125 7.15 9.14 10.36
10/20/2020 6:00:00 PM 11.6 52.88 0.125 7.14 8.46 10.34
10/20/2020 6:15:00 PM 11.6 52.88 0.126 7.14 8.73 10.34
10/20/2020 6:30:00 PM 11.59 52.862 0.126 7.14 8.65 10.34
10/20/2020 6:45:00 PM 11.59 52.862 0.126 7.14 9.74 10.34
10/20/2020 7:00:00 PM 11.58 52.844 0.126 7.14 9.89 10.35
10/20/2020 7:15:00 PM 11.57 52.826 0.126 7.15 9.57 10.35
10/20/2020 7:30:00 PM 11.57 52.826 0.126 7.16 8.89 10.35
10/20/2020 7:45:00 PM 11.57 52.826 0.126 7.16 8.71 10.35
10/20/2020 8:00:00 PM 11.57 52.826 0.125 7.17 8.29 10.34
10/20/2020 8:15:00 PM 11.57 52.826 0.125 7.17 8.67 10.34
10/20/2020 8:30:00 PM 11.57 52.826 0.125 7.16 8.26 10.34
10/20/2020 8:45:00 PM 11.56 52.808 0.125 7.16 9.11 10.34
10/20/2020 9:00:00 PM 11.55 52.79 0.125 7.16 8.39 10.34
10/20/2020 9:15:00 PM 11.54 52.772 0.125 7.17 8.3 10.34
10/20/2020 9:30:00 PM 11.54 52.772 0.125 7.16 7.7 10.35
10/20/2020 9:45:00 PM 11.52 52.736 0.125 7.17 7.27 10.36
10/20/2020 10:00:00 PM 11.51 52.718 0.125 7.18 6.85 10.37
10/20/2020 10:15:00 PM 11.5 52.7 0.125 7.18 6.37 10.38
10/20/2020 10:30:00 PM 11.49 52.682 0.125 7.19 6.41 10.38
10/20/2020 10:45:00 PM 11.48 52.664 0.125 7.19 5.86 10.39
10/20/2020 11:00:00 PM 11.47 52.646 0.125 7.2 5.43 10.4
10/20/2020 11:15:00 PM 11.45 52.61 0.125 7.2 5.2 10.41
10/20/2020 11:30:00 PM 11.44 52.592 0.125 7.2 5.09 10.42
10/20/2020 11:45:00 PM 11.43 52.574 0.125 7.19 4.79 10.42
10/21/2020 12:00:00 AM 11.42 52.556 0.125 7.19 4.54 10.42
10/21/2020 12:15:00 AM 11.41 52.538 0.125 7.19 4.36 10.43
10/21/2020 12:30:00 AM 11.4 52.52 0.125 7.2 4.34 10.43
10/21/2020 12:45:00 AM 11.39 52.502 0.125 7.2 4.12 10.43
10/21/2020 1:00:00 AM 11.39 52.502 0.125 7.2 3.96 10.44
10/21/2020 1:15:00 AM 11.38 52.484 0.124 7.21 4.22 10.44
10/21/2020 1:30:00 AM 11.38 52.484 0.124 7.21 3.8 10.44
10/21/2020 1:45:00 AM 11.37 52.466 0.124 7.2 3.39 10.44
10/21/2020 2:00:00 AM 11.37 52.466 0.124 7.2 3.48 10.44
10/21/2020 2:15:00 AM 11.36 52.448 0.124 7.19 3.43 10.44
10/21/2020 2:30:00 AM 11.35 52.43 0.124 7.19 3.37 10.44
10/21/2020 2:45:00 AM 11.34 52.412 0.124 7.18 3.41 10.44
10/21/2020 3:00:00 AM 11.33 52.394 0.124 7.18 3.2 10.45
10/21/2020 3:15:00 AM 11.33 52.394 0.123 7.18 3.06 10.45
10/21/2020 3:30:00 AM 11.32 52.376 0.123 7.18 3.15 10.45
10/21/2020 3:45:00 AM 11.31 52.358 0.123 7.19 3.28 10.45
10/21/2020 4:00:00 AM 11.3 52.34 0.123 7.19 3.12 10.46
10/21/2020 4:15:00 AM 11.3 52.34 0.123 7.19 3.11 10.46
10/21/2020 4:30:00 AM 11.29 52.322 0.123 7.19 2.94 10.45
10/21/2020 4:45:00 AM 11.29 52.322 0.122 7.19 2.94 10.45
10/21/2020 5:00:00 AM 11.28 52.304 0.122 7.18 2.84 10.46
10/21/2020 5:15:00 AM 11.28 52.304 0.122 7.18 2.65 10.46
10/21/2020 5:30:00 AM 11.27 52.286 0.122 7.18 2.83 10.46
10/21/2020 5:45:00 AM 11.26 52.268 0.122 7.18 2.72 10.46
10/21/2020 6:00:00 AM 11.25 52.25 0.122 7.17 2.87 10.46
10/21/2020 6:15:00 AM 11.24 52.232 0.122 7.17 2.67 10.47
10/21/2020 6:30:00 AM 11.22 52.196 0.121 7.17 2.64 10.47
10/21/2020 6:45:00 AM 11.2 52.16 0.121 7.17 2.64 10.47
10/21/2020 7:00:00 AM 11.19 52.142 0.121 7.17 2.67 10.48
10/21/2020 7:15:00 AM 11.19 52.142 0.121 7.17 2.57 10.48
10/21/2020 7:30:00 AM 11.19 52.142 0.121 7.18 2.52 10.48
10/21/2020 7:45:00 AM 11.19 52.142 0.121 7.18 2.44 10.49
10/21/2020 8:00:00 AM 11.2 52.16 0.121 7.19 2.49 10.5
10/21/2020 8:15:00 AM 11.21 52.178 0.121 7.2 2.29 10.52
10/21/2020 8:30:00 AM 11.23 52.214 0.121 7.2 2.34 10.53
10/21/2020 8:45:00 AM 11.24 52.232 0.121 7.2 2.34 10.55
10/21/2020 9:00:00 AM 11.26 52.268 0.121 7.2 2.31 10.55
10/21/2020 9:15:00 AM 11.3 52.34 0.121 7.21 2.28 10.58
10/21/2020 9:30:00 AM 11.35 52.43 0.121 7.21 2.2 10.6
10/21/2020 9:45:00 AM 11.4 52.52 0.121 7.22 2.28 10.62
10/21/2020 10:00:00 AM 11.45 52.61 0.121 7.22 2.23 10.62
10/21/2020 10:15:00 AM 11.5 52.7 0.121 7.23 2.21 10.62
10/21/2020 10:30:00 AM 11.57 52.826 0.121 7.23 2.19 10.63
10/21/2020 10:45:00 AM 11.64 52.952 0.121 7.24 2.19 10.63
10/21/2020 11:00:00 AM 11.74 53.132 0.12 7.24 2.37 10.63
10/21/2020 11:15:00 AM 11.85 53.33 0.12 7.25 2.19 10.62
10/21/2020 11:30:00 AM 11.96 53.528 0.12 7.25 2.25 10.62
10/21/2020 11:45:00 AM 12.06 53.708 0.12 7.26 2.23 10.59
10/21/2020 12:00:00 PM 12.18 53.924 0.12 7.26 2.21 10.59
10/21/2020 12:15:00 PM 12.25 54.05 0.12 7.27 2.22 10.57
10/21/2020 12:30:00 PM 12.37 54.266 0.12 7.27 2.19 10.56
10/21/2020 12:45:00 PM 12.51 54.518 0.12 7.28 2.26 10.54
10/21/2020 1:00:00 PM 12.63 54.734 0.12 7.28 2.21 10.52
10/21/2020 1:15:00 PM 12.82 55.076 0.12 7.28 2.21 10.48
10/21/2020 1:30:00 PM 13 55.4 0.12 7.29 2.19 10.44
10/21/2020 1:45:00 PM 13.14 55.652 0.12 7.29 2.18 10.42
10/21/2020 2:00:00 PM 13.28 55.904 0.12 7.29 2.19 10.38
10/21/2020 2:15:00 PM 13.51 56.318 0.12 7.29 2.25 10.35
10/21/2020 2:30:00 PM 13.64 56.552 0.12 7.29 2.25 10.3
10/21/2020 2:45:00 PM 13.69 56.642 0.12 7.29 2.17 10.25
10/21/2020 3:00:00 PM 13.69 56.642 0.12 7.29 2.21 10.21
10/21/2020 3:15:00 PM 13.75 56.75 0.119 7.28 2.27 10.17
10/21/2020 3:30:00 PM 13.83 56.894 0.119 7.28 2.24 10.14
10/21/2020 3:45:00 PM 13.92 57.056 0.119 7.28 2.18 10.11
10/21/2020 4:00:00 PM 13.96 57.128 0.119 7.27 2.25 10.1
10/21/2020 4:15:00 PM 14.01 57.218 0.119 7.27 2.14 10.07
10/21/2020 4:30:00 PM 14.06 57.308 0.119 7.27 2.15 10.03
10/21/2020 4:45:00 PM 14.09 57.362 0.119 7.26 2.17 9.99
10/21/2020 5:00:00 PM 14.1 57.38 0.119 7.26 2.14 9.94
10/21/2020 5:15:00 PM 14.11 57.398 0.119 7.25 2.08 9.9
10/21/2020 5:30:00 PM 14.13 57.434 0.119 7.24 2.21 9.87
10/21/2020 5:45:00 PM 14.14 57.452 0.119 7.23 2.32 9.84
10/21/2020 6:00:00 PM 14.15 57.47 0.119 7.23 2.11 9.81
10/21/2020 6:15:00 PM 14.16 57.488 0.119 7.22 2.23 9.8
10/21/2020 6:30:00 PM 14.15 57.47 0.119 7.21 2.2 9.77
10/21/2020 6:45:00 PM 14.13 57.434 0.118 7.21 2.19 9.75
10/21/2020 7:00:00 PM 14.1 57.38 0.118 7.2 2.39 9.74
10/21/2020 7:15:00 PM 14.07 57.326 0.118 7.19 2.4 9.73
10/21/2020 7:30:00 PM 14.04 57.272 0.118 7.18 2.38 9.73
10/21/2020 7:45:00 PM 14.03 57.254 0.118 7.18 2.45 9.72
10/21/2020 8:00:00 PM 14.02 57.236 0.118 7.18 2.39 9.72
10/21/2020 8:15:00 PM 14.02 57.236 0.118 7.17 2.22 9.72
10/21/2020 8:30:00 PM 14.01 57.218 0.118 7.17 2.31 9.72
10/21/2020 8:45:00 PM 13.99 57.182 0.118 7.16 2.31 9.71
10/21/2020 9:00:00 PM 13.97 57.146 0.118 7.16 2.31 9.71
10/21/2020 9:15:00 PM 13.95 57.11 0.117 7.15 2.34 9.72
10/21/2020 9:30:00 PM 13.9 57.02 0.117 7.15 2.42 9.73
10/21/2020 9:45:00 PM 13.85 56.93 0.117 7.14 2.26 9.73
10/21/2020 10:00:00 PM 13.81 56.858 0.117 7.14 2.24 9.74
10/21/2020 10:15:00 PM 13.78 56.804 0.117 7.13 2.43 9.74
10/21/2020 10:30:00 PM 13.76 56.768 0.117 7.13 2.23 9.75
10/21/2020 10:45:00 PM 13.74 56.732 0.117 7.13 2.28 9.76
10/21/2020 11:00:00 PM 13.72 56.696 0.117 7.13 2.24 9.76
10/21/2020 11:15:00 PM 13.69 56.642 0.117 7.13 2.21 9.77
10/21/2020 11:30:00 PM 13.66 56.588 0.117 7.13 2.25 9.77
10/21/2020 11:45:00 PM 13.65 56.57 0.117 7.13 2.29 9.78
10/22/2020 12:00:00 AM 13.64 56.552 0.117 7.13 2.3 9.78
10/22/2020 12:15:00 AM 13.63 56.534 0.117 7.13 2.24 9.79
10/22/2020 12:30:00 AM 13.62 56.516 0.116 7.14 2.3 9.79
10/22/2020 12:45:00 AM 13.61 56.498 0.116 7.13 2.27 9.79
10/22/2020 1:00:00 AM 13.6 56.48 0.116 7.13 2.36 9.8
10/22/2020 1:15:00 AM 13.6 56.48 0.116 7.13 2.27 9.8
10/22/2020 1:30:00 AM 13.59 56.462 0.116 7.13 2.15 9.8
10/22/2020 1:45:00 AM 13.58 56.444 0.116 7.13 2.3 9.8
10/22/2020 2:00:00 AM 13.57 56.426 0.116 7.13 2.21 9.81
10/22/2020 2:15:00 AM 13.56 56.408 0.116 7.12 2.31 9.8
10/22/2020 2:30:00 AM 13.56 56.408 0.116 7.12 2.31 9.8
10/22/2020 2:45:00 AM 13.55 56.39 0.116 7.12 2.32 9.81
10/22/2020 3:00:00 AM 13.55 56.39 0.116 7.12 2.4 9.81
10/22/2020 3:15:00 AM 13.54 56.372 0.117 7.12 2.62 9.81
10/22/2020 3:30:00 AM 13.54 56.372 0.117 7.11 2.25 9.81
10/22/2020 3:45:00 AM 13.53 56.354 0.117 7.11 2.2 9.81
10/22/2020 4:00:00 AM 13.53 56.354 0.117 7.11 2.17 9.81
10/22/2020 4:15:00 AM 13.52 56.336 0.117 7.11 2.28 9.81
10/22/2020 4:30:00 AM 13.52 56.336 0.117 7.1 2.19 9.81
10/22/2020 4:45:00 AM 13.51 56.318 0.117 7.1 2.2 9.82
10/22/2020 5:00:00 AM 13.51 56.318 0.117 7.1 2.17 9.82
10/22/2020 5:15:00 AM 13.5 56.3 0.117 7.1 2.2 9.82
10/22/2020 5:30:00 AM 13.5 56.3 0.117 7.1 2.3 9.81
10/22/2020 5:45:00 AM 13.49 56.282 0.117 7.1 2.21 9.83
10/22/2020 6:00:00 AM 13.48 56.264 0.117 7.1 2.27 9.83
10/22/2020 6:15:00 AM 13.48 56.264 0.118 7.09 2.2 9.83
10/22/2020 6:30:00 AM 13.47 56.246 0.118 7.09 2.19 9.83
10/22/2020 6:45:00 AM 13.46 56.228 0.118 7.09 2.2 9.83
10/22/2020 7:00:00 AM 13.46 56.228 0.118 7.09 2.21 9.84
10/22/2020 7:15:00 AM 13.45 56.21 0.118 7.09 2.15 9.84
10/22/2020 7:30:00 AM 13.45 56.21 0.118 7.09 2.19 9.83
10/22/2020 7:45:00 AM 13.44 56.192 0.118 7.09 2.07 9.84
10/22/2020 8:00:00 AM 13.44 56.192 0.118 7.1 2.13 9.84
10/22/2020 8:15:00 AM 13.45 56.21 0.119 7.1 1.99 9.86
10/22/2020 8:30:00 AM 13.46 56.228 0.119 7.11 2.01 9.88
10/22/2020 8:45:00 AM 13.47 56.246 0.119 7.11 2.11 9.91
10/22/2020 9:00:00 AM 13.5 56.3 0.119 7.12 2.2 9.95
10/22/2020 9:15:00 AM 13.56 56.408 0.119 7.14 2.14 9.99
10/22/2020 9:30:00 AM 13.63 56.534 0.119 7.16 2.01 10.03
10/22/2020 9:45:00 AM 13.71 56.678 0.119 7.17 2.02 10.05
10/22/2020 10:00:00 AM 13.82 56.876 0.119 7.18 2.01 10.07
10/22/2020 10:15:00 AM 13.94 57.092 0.119 7.2 2 10.09
10/22/2020 10:30:00 AM 14.04 57.272 0.119 7.2 1.96 10.08
10/22/2020 10:45:00 AM 14.1 57.38 0.119 7.21 1.99 10.08
10/22/2020 11:00:00 AM 14.16 57.488 0.119 7.22 2.03 10.07
10/22/2020 11:15:00 AM 14.24 57.632 0.12 7.22 1.99 10.06
10/22/2020 11:30:00 AM 14.33 57.794 0.12 7.23 1.91 10.05
10/22/2020 11:45:00 AM 14.43 57.974 0.12 7.23 1.94 10.05
10/22/2020 12:00:00 PM 14.55 58.19 0.12 7.24 1.92 10.04
10/22/2020 12:15:00 PM 14.57 58.226 0.12 7.24 1.95 10.02
10/22/2020 12:30:00 PM 14.64 58.352 0.12 7.25 1.95 10.01
10/22/2020 12:45:00 PM 14.74 58.532 0.12 7.25 1.94 10
10/22/2020 1:00:00 PM 14.86 58.748 0.12 7.26 1.95 9.98
10/22/2020 1:15:00 PM 15.07 59.126 0.12 7.27 1.9 9.97
10/22/2020 1:30:00 PM 15.25 59.45 0.12 7.27 1.92 9.95
10/22/2020 1:45:00 PM 15.38 59.684 0.12 7.28 1.87 9.93
10/22/2020 2:00:00 PM 15.54 59.972 0.12 7.28 1.94 9.89
10/22/2020 2:15:00 PM 15.66 60.188 0.12 7.28 2 9.87
10/22/2020 2:30:00 PM 15.79 60.422 0.12 7.28 1.89 9.84
10/22/2020 2:45:00 PM 15.85 60.53 0.12 7.28 1.92 9.8
10/22/2020 3:00:00 PM 15.93 60.674 0.121 7.29 1.94 9.77
10/22/2020 3:15:00 PM 16 60.8 0.121 7.28 1.9 9.74
10/22/2020 3:30:00 PM 16.02 60.836 0.121 7.28 1.86 9.71
10/22/2020 3:45:00 PM 16.11 60.998 0.121 7.28 1.87 9.69
10/22/2020 4:00:00 PM 16.1 60.98 0.121 7.28 1.89 9.65
10/22/2020 4:15:00 PM 16.11 60.998 0.121 7.27 1.88 9.62
10/22/2020 4:30:00 PM 16.09 60.962 0.121 7.26 1.94 9.58
10/22/2020 4:45:00 PM 16.09 60.962 0.121 7.26 1.86 9.55
10/22/2020 5:00:00 PM 16.05 60.89 0.121 7.25 1.91 9.51
10/22/2020 5:15:00 PM 16.04 60.872 0.121 7.25 1.92 9.48
10/22/2020 5:30:00 PM 16.04 60.872 0.122 7.24 1.9 9.45
10/22/2020 5:45:00 PM 16.01 60.818 0.122 7.23 1.97 9.42
10/22/2020 6:00:00 PM 15.99 60.782 0.122 7.23 1.85 9.4
10/22/2020 6:15:00 PM 15.96 60.728 0.122 7.22 1.85 9.37
10/22/2020 6:30:00 PM 15.93 60.674 0.122 7.21 1.87 9.33
10/22/2020 6:45:00 PM 15.88 60.584 0.122 7.2 1.99 9.29
10/22/2020 7:00:00 PM 15.83 60.494 0.122 7.2 2.04 9.27
10/22/2020 7:15:00 PM 15.76 60.368 0.123 7.19 1.99 9.25
10/22/2020 7:30:00 PM 15.7 60.26 0.123 7.18 2.02 9.25
10/22/2020 7:45:00 PM 15.63 60.134 0.123 7.18 2.07 9.25
10/22/2020 8:00:00 PM 15.56 60.008 0.123 7.17 2 9.25
10/22/2020 8:15:00 PM 15.49 59.882 0.123 7.17 1.95 9.25
10/22/2020 8:30:00 PM 15.43 59.774 0.123 7.17 2.02 9.26
10/22/2020 8:45:00 PM 15.36 59.648 0.123 7.17 1.96 9.27
10/22/2020 9:00:00 PM 15.3 59.54 0.123 7.17 1.95 9.28
10/22/2020 9:15:00 PM 15.24 59.432 0.123 7.16 1.96 9.29
10/22/2020 9:30:00 PM 15.18 59.324 0.124 7.16 2.01 9.3
10/22/2020 9:45:00 PM 15.12 59.216 0.124 7.15 2.02 9.31
10/22/2020 10:00:00 PM 15.06 59.108 0.124 7.15 1.94 9.32
10/22/2020 10:15:00 PM 14.99 58.982 0.124 7.15 1.96 9.33
10/22/2020 10:30:00 PM 14.93 58.874 0.124 7.15 2 9.34
10/22/2020 10:45:00 PM 14.87 58.766 0.124 7.16 1.99 9.35
10/22/2020 11:00:00 PM 14.81 58.658 0.124 7.15 1.9 9.36
10/22/2020 11:15:00 PM 14.75 58.55 0.125 7.15 2.01 9.37
10/22/2020 11:30:00 PM 14.69 58.442 0.125 7.16 2.01 9.39
10/22/2020 11:45:00 PM 14.63 58.334 0.125 7.16 1.94 9.39
10/23/2020 12:00:00 AM 14.58 58.244 0.125 7.16 2.01 9.41
10/23/2020 12:15:00 AM 14.51 58.118 0.125 7.16 1.99 9.42
10/23/2020 12:30:00 AM 14.45 58.01 0.125 7.16 1.94 9.44
10/23/2020 12:45:00 AM 14.39 57.902 0.125 7.16 1.98 9.46
10/23/2020 1:00:00 AM 14.32 57.776 0.125 7.16 1.97 9.47
10/23/2020 1:15:00 AM 14.26 57.668 0.126 7.16 1.9 9.49
10/23/2020 1:30:00 AM 14.19 57.542 0.126 7.16 1.94 9.5
10/23/2020 1:45:00 AM 14.13 57.434 0.126 7.16 1.97 9.52
10/23/2020 2:00:00 AM 14.06 57.308 0.126 7.16 1.99 9.54
10/23/2020 2:15:00 AM 13.99 57.182 0.126 7.16 1.94 9.55
10/23/2020 2:30:00 AM 13.92 57.056 0.126 7.16 1.89 9.57
10/23/2020 2:45:00 AM 13.85 56.93 0.126 7.16 1.88 9.59
10/23/2020 3:00:00 AM 13.8 56.84 0.126 7.17 1.92 9.6
10/23/2020 3:15:00 AM 13.74 56.732 0.127 7.17 1.95 9.62
10/23/2020 3:30:00 AM 13.69 56.642 0.127 7.17 1.87 9.63
10/23/2020 3:45:00 AM 13.65 56.57 0.127 7.17 1.92 9.65
10/23/2020 4:00:00 AM 13.61 56.498 0.127 7.18 1.87 9.66
10/23/2020 4:15:00 AM 13.57 56.426 0.127 7.18 1.9 9.68
10/23/2020 4:30:00 AM 13.54 56.372 0.127 7.18 1.88 9.69
10/23/2020 4:45:00 AM 13.51 56.318 0.127 7.18 1.96 9.69
10/23/2020 5:00:00 AM 13.48 56.264 0.127 7.18 1.86 9.71
10/23/2020 5:15:00 AM 13.45 56.21 0.127 7.18 1.85 9.72
10/23/2020 5:30:00 AM 13.43 56.174 0.128 7.18 1.84 9.72
10/23/2020 5:45:00 AM 13.39 56.102 0.128 7.18 1.8 9.74
10/23/2020 6:00:00 AM 13.33 55.994 0.128 7.18 1.8 9.76
10/23/2020 6:15:00 AM 13.27 55.886 0.128 7.18 1.81 9.77
10/23/2020 6:30:00 AM 13.21 55.778 0.128 7.18 1.92 9.78
10/23/2020 6:45:00 AM 13.13 55.634 0.128 7.18 1.87 9.8
10/23/2020 7:00:00 AM 13.06 55.508 0.128 7.17 1.91 9.81
10/23/2020 7:15:00 AM 12.99 55.382 0.128 7.17 1.75 9.83
10/23/2020 7:30:00 AM 12.92 55.256 0.128 7.17 1.7 9.85
10/23/2020 7:45:00 AM 12.86 55.148 0.128 7.17 1.83 9.87
10/23/2020 8:00:00 AM 12.8 55.04 0.128 7.18 1.68 9.89
10/23/2020 8:15:00 AM 12.75 54.95 0.128 7.18 1.72 9.92
10/23/2020 8:30:00 AM 12.71 54.878 0.129 7.19 1.64 9.96
10/23/2020 8:45:00 AM 12.68 54.824 0.129 7.19 1.68 9.99
10/23/2020 9:00:00 AM 12.69 54.842 0.129 7.21 1.65 10.04
10/23/2020 9:15:00 AM 12.73 54.914 0.129 7.21 1.66 10.08
10/23/2020 9:30:00 AM 12.79 55.022 0.129 7.23 1.68 10.13
10/23/2020 9:45:00 AM 12.85 55.13 0.129 7.24 1.68 10.16
10/23/2020 10:00:00 AM 12.92 55.256 0.129 7.24 1.61 10.19
10/23/2020 10:15:00 AM 12.98 55.364 0.129 7.25 1.63 10.19
10/23/2020 10:30:00 AM 13.12 55.616 0.129 7.26 1.68 10.21
10/23/2020 10:45:00 AM 13.29 55.922 0.129 7.27 1.65 10.22
10/23/2020 11:00:00 AM 13.42 56.156 0.129 7.27 1.63 10.22
10/23/2020 11:15:00 AM 13.57 56.426 0.129 7.28 1.64 10.22
10/23/2020 11:30:00 AM 13.64 56.552 0.129 7.28 1.65 10.2
10/23/2020 11:45:00 AM 13.78 56.804 0.129 7.28 1.62 10.19
10/23/2020 12:00:00 PM 13.89 57.002 0.13 7.29 1.64 10.18
10/23/2020 12:15:00 PM 14.1 57.38 0.13 7.29 1.63 10.16
10/23/2020 12:30:00 PM 14.31 57.758 0.13 7.3 1.58 10.15
10/23/2020 12:45:00 PM 14.45 58.01 0.13 7.3 1.56 10.12
10/23/2020 1:00:00 PM 14.58 58.244 0.13 7.31 1.6 10.09
10/23/2020 1:15:00 PM 14.75 58.55 0.13 7.31 1.6 10.08
10/23/2020 1:30:00 PM 14.94 58.892 0.13 7.32 1.57 10.06
10/23/2020 1:45:00 PM 15.09 59.162 0.13 7.32 1.6 10.02
10/23/2020 2:00:00 PM 15.28 59.504 0.13 7.33 1.64 10
10/23/2020 2:15:00 PM 15.38 59.684 0.13 7.33 1.91 9.95
10/23/2020 2:30:00 PM 15.6 60.08 0.13 7.33 1.64 9.93
10/23/2020 2:45:00 PM 15.71 60.278 0.13 7.33 1.59 9.89
10/23/2020 3:00:00 PM 15.75 60.35 0.13 7.32 1.59 9.85
10/23/2020 3:15:00 PM 15.79 60.422 0.13 7.32 1.54 9.82
10/23/2020 3:30:00 PM 15.78 60.404 0.131 7.32 1.65 9.78
10/23/2020 3:45:00 PM 15.72 60.296 0.131 7.32 1.58 9.74
10/23/2020 4:00:00 PM 15.73 60.314 0.131 7.31 1.64 9.72
10/23/2020 4:15:00 PM 15.71 60.278 0.131 7.31 1.64 9.67
10/23/2020 4:30:00 PM 15.77 60.386 0.131 7.31 1.64 9.66
10/23/2020 4:45:00 PM 15.81 60.458 0.131 7.31 1.66 9.62
10/23/2020 5:00:00 PM 15.82 60.476 0.131 7.31 1.66 9.58
10/23/2020 5:15:00 PM 15.84 60.512 0.131 7.3 1.67 9.56
10/23/2020 5:30:00 PM 15.83 60.494 0.131 7.3 1.67 9.53
10/23/2020 5:45:00 PM 15.82 60.476 0.131 7.29 1.7 9.48
10/23/2020 6:00:00 PM 15.8 60.44 0.131 7.28 1.65 9.44
10/23/2020 6:15:00 PM 15.77 60.386 0.131 7.28 1.71 9.39
10/23/2020 6:30:00 PM 15.73 60.314 0.131 7.27 1.71 9.34
10/23/2020 6:45:00 PM 15.67 60.206 0.132 7.26 1.79 9.3
10/23/2020 7:00:00 PM 15.61 60.098 0.132 7.24 1.79 9.26
10/23/2020 7:15:00 PM 15.54 59.972 0.132 7.23 1.84 9.24
10/23/2020 7:30:00 PM 15.47 59.846 0.132 7.23 1.83 9.23
10/23/2020 7:45:00 PM 15.41 59.738 0.132 7.22 1.77 9.22
10/23/2020 8:00:00 PM 15.35 59.63 0.132 7.21 1.75 9.22
10/23/2020 8:15:00 PM 15.28 59.504 0.132 7.21 1.74 9.22
10/23/2020 8:30:00 PM 15.23 59.414 0.132 7.21 1.77 9.23
10/23/2020 8:45:00 PM 15.17 59.306 0.132 7.2 1.74 9.23
10/23/2020 9:00:00 PM 15.11 59.198 0.132 7.2 1.7 9.24
10/23/2020 9:15:00 PM 15.06 59.108 0.132 7.2 1.72 9.25
10/23/2020 9:30:00 PM 15 59 0.132 7.2 1.73 9.26
10/23/2020 9:45:00 PM 14.95 58.91 0.133 7.2 1.71 9.27
10/23/2020 10:00:00 PM 14.9 58.82 0.133 7.2 1.71 9.28
10/23/2020 10:15:00 PM 14.86 58.748 0.133 7.2 1.68 9.28
10/23/2020 10:30:00 PM 14.82 58.676 0.133 7.2 1.76 9.29
10/23/2020 10:45:00 PM 14.78 58.604 0.133 7.2 1.67 9.3
10/23/2020 11:00:00 PM 14.73 58.514 0.133 7.19 1.74 9.31
10/23/2020 11:15:00 PM 14.7 58.46 0.133 7.19 1.7 9.32
10/23/2020 11:30:00 PM 14.65 58.37 0.133 7.19 1.68 9.32
10/23/2020 11:45:00 PM 14.62 58.316 0.133 7.19 1.72 9.33
10/24/2020 12:00:00 AM 14.58 58.244 0.133 7.19 1.71 9.34
10/24/2020 12:15:00 AM 14.55 58.19 0.133 7.19 1.71 9.34
10/24/2020 12:30:00 AM 14.54 58.172 0.133 7.19 1.7 9.35
10/24/2020 12:45:00 AM 14.53 58.154 0.134 7.19 1.72 9.36
10/24/2020 1:00:00 AM 14.53 58.154 0.133 7.19 1.8 9.38
10/24/2020 1:15:00 AM 14.53 58.154 0.133 7.19 1.88 9.38
10/24/2020 1:30:00 AM 14.53 58.154 0.133 7.19 1.86 9.38
10/24/2020 1:45:00 AM 14.53 58.154 0.132 7.19 1.84 9.37
10/24/2020 2:00:00 AM 14.53 58.154 0.132 7.18 1.8 9.36
10/24/2020 2:15:00 AM 14.53 58.154 0.132 7.18 1.71 9.36
10/24/2020 2:30:00 AM 14.52 58.136 0.133 7.18 1.75 9.36
10/24/2020 2:45:00 AM 14.52 58.136 0.133 7.17 1.7 9.37
10/24/2020 3:00:00 AM 14.52 58.136 0.133 7.18 1.66 9.36
10/24/2020 3:15:00 AM 14.51 58.118 0.133 7.17 1.83 9.37
10/24/2020 3:30:00 AM 14.5 58.1 0.133 7.17 1.69 9.37
10/24/2020 3:45:00 AM 14.5 58.1 0.133 7.17 1.65 9.37
10/24/2020 4:00:00 AM 14.49 58.082 0.133 7.17 1.63 9.37
10/24/2020 4:15:00 AM 14.49 58.082 0.133 7.17 1.65 9.38
10/24/2020 4:30:00 AM 14.48 58.064 0.133 7.16 1.65 9.38
10/24/2020 4:45:00 AM 14.47 58.046 0.133 7.16 1.68 9.39
10/24/2020 5:00:00 AM 14.47 58.046 0.133 7.16 1.62 9.39
10/24/2020 5:15:00 AM 14.44 57.992 0.134 7.17 1.74 9.39
10/24/2020 5:30:00 AM 14.42 57.956 0.133 7.17 1.74 9.39
10/24/2020 5:45:00 AM 14.37 57.866 0.133 7.18 1.76 9.38
10/24/2020 6:00:00 AM 14.32 57.776 0.133 7.18 1.71 9.39
10/24/2020 6:15:00 AM 14.27 57.686 0.133 7.19 1.76 9.41
10/24/2020 6:30:00 AM 14.2 57.56 0.133 7.19 1.64 9.42
10/24/2020 6:45:00 AM 14.13 57.434 0.133 7.19 1.69 9.44
10/24/2020 7:00:00 AM 14.06 57.308 0.133 7.2 1.65 9.46
10/24/2020 7:15:00 AM 14 57.2 0.133 7.21 1.81 9.48
10/24/2020 7:30:00 AM 13.94 57.092 0.133 7.2 1.58 9.49
10/24/2020 7:45:00 AM 13.87 56.966 0.133 7.21 1.7 9.51
10/24/2020 8:00:00 AM 13.81 56.858 0.133 7.21 1.57 9.54
10/24/2020 8:15:00 AM 13.77 56.786 0.133 7.21 1.68 9.57
10/24/2020 8:30:00 AM 13.72 56.696 0.133 7.22 1.57 9.6
10/24/2020 8:45:00 AM 13.69 56.642 0.133 7.22 1.6 9.64
10/24/2020 9:00:00 AM 13.66 56.588 0.133 7.23 1.51 9.68
10/24/2020 9:15:00 AM 13.63 56.534 0.133 7.24 1.59 9.73
10/24/2020 9:30:00 AM 13.59 56.462 0.133 7.25 1.58 9.77
10/24/2020 9:45:00 AM 13.58 56.444 0.133 7.26 1.53 9.82
10/24/2020 10:00:00 AM 13.55 56.39 0.133 7.26 1.6 9.85
10/24/2020 10:15:00 AM 13.52 56.336 0.133 7.27 1.53 9.9
10/24/2020 10:30:00 AM 13.5 56.3 0.133 7.28 1.53 9.93
10/24/2020 10:45:00 AM 13.46 56.228 0.133 7.28 1.53 9.97
10/24/2020 11:00:00 AM 13.43 56.174 0.133 7.29 1.5 9.99
10/24/2020 11:15:00 AM 13.41 56.138 0.133 7.29 1.55 10.01
10/24/2020 11:30:00 AM 13.38 56.084 0.133 7.3 1.58 10.03
10/24/2020 11:45:00 AM 13.35 56.03 0.133 7.3 1.5 10.05
10/24/2020 12:00:00 PM 13.32 55.976 0.133 7.31 1.54 10.09
10/24/2020 12:15:00 PM 13.3 55.94 0.133 7.32 1.55 10.11
10/24/2020 12:30:00 PM 13.3 55.94 0.133 7.32 1.46 10.15
10/24/2020 12:45:00 PM 13.39 56.102 0.133 7.33 1.52 10.18
10/24/2020 1:00:00 PM 13.47 56.246 0.133 7.34 1.52 10.21
10/24/2020 1:15:00 PM 13.57 56.426 0.133 7.35 1.51 10.22
10/24/2020 1:30:00 PM 13.61 56.498 0.133 7.35 1.51 10.22
10/24/2020 1:45:00 PM 13.63 56.534 0.133 7.35 1.44 10.23
10/24/2020 2:00:00 PM 13.66 56.588 0.133 7.36 1.5 10.24
10/24/2020 2:15:00 PM 13.7 56.66 0.133 7.36 1.46 10.24
10/24/2020 2:30:00 PM 13.72 56.696 0.133 7.36 1.48 10.24
10/24/2020 2:45:00 PM 13.8 56.84 0.133 7.37 1.49 10.24
10/24/2020 3:00:00 PM 13.85 56.93 0.133 7.37 1.45 10.23
10/24/2020 3:15:00 PM 13.88 56.984 0.133 7.37 1.56 10.21
10/24/2020 3:30:00 PM 13.91 57.038 0.133 7.37 1.5 10.18
10/24/2020 3:45:00 PM 13.94 57.092 0.133 7.37 1.49 10.17
10/24/2020 4:00:00 PM 13.86 56.948 0.133 7.37 1.56 10.16
10/24/2020 4:15:00 PM 13.78 56.804 0.133 7.36 1.59 10.16
10/24/2020 4:30:00 PM 13.73 56.714 0.133 7.36 1.58 10.16
10/24/2020 4:45:00 PM 13.69 56.642 0.133 7.36 1.59 10.14
10/24/2020 5:00:00 PM 13.6 56.48 0.133 7.36 1.64 10.13
10/24/2020 5:15:00 PM 13.44 56.192 0.134 7.35 1.62 10.12
10/24/2020 5:30:00 PM 13.23 55.814 0.134 7.35 1.7 10.12
10/24/2020 5:45:00 PM 13.01 55.418 0.134 7.34 1.68 10.11
10/24/2020 6:00:00 PM 12.83 55.094 0.134 7.33 1.75 10.1
10/24/2020 6:15:00 PM 12.67 54.806 0.134 7.32 1.74 10.09
10/24/2020 6:30:00 PM 12.52 54.536 0.134 7.31 1.78 10.08
10/24/2020 6:45:00 PM 12.4 54.32 0.134 7.3 1.73 10.06
10/24/2020 7:00:00 PM 12.3 54.14 0.134 7.3 1.9 10.05
10/24/2020 7:15:00 PM 12.24 54.032 0.134 7.29 1.74 10.05
10/24/2020 7:30:00 PM 12.18 53.924 0.134 7.29 1.77 10.04
10/24/2020 7:45:00 PM 12.12 53.816 0.134 7.29 1.7 10.05
10/24/2020 8:00:00 PM 12.08 53.744 0.134 7.29 1.74 10.05
10/24/2020 8:15:00 PM 12.04 53.672 0.134 7.28 1.69 10.06
10/24/2020 8:30:00 PM 12.01 53.618 0.134 7.28 1.6 10.06
10/24/2020 8:45:00 PM 11.97 53.546 0.134 7.28 1.62 10.07
10/24/2020 9:00:00 PM 11.93 53.474 0.134 7.28 1.63 10.08
10/24/2020 9:15:00 PM 11.9 53.42 0.135 7.28 1.61 10.09
10/24/2020 9:30:00 PM 11.85 53.33 0.134 7.28 1.54 10.1
10/24/2020 9:45:00 PM 11.81 53.258 0.135 7.28 1.58 10.11
10/24/2020 10:00:00 PM 11.75 53.15 0.135 7.28 1.57 10.13
10/24/2020 10:15:00 PM 11.69 53.042 0.135 7.28 1.54 10.14
10/24/2020 10:30:00 PM 11.62 52.916 0.135 7.28 1.54 10.16
10/24/2020 10:45:00 PM 11.55 52.79 0.135 7.28 1.54 10.18
10/24/2020 11:00:00 PM 11.47 52.646 0.135 7.28 1.66 10.2
10/24/2020 11:15:00 PM 11.41 52.538 0.135 7.28 1.52 10.22
10/24/2020 11:30:00 PM 11.35 52.43 0.135 7.28 1.47 10.24
10/24/2020 11:45:00 PM 11.28 52.304 0.135 7.28 1.51 10.26
10/25/2020 12:00:00 AM 11.23 52.214 0.135 7.29 1.49 10.27
10/25/2020 12:15:00 AM 11.18 52.124 0.135 7.29 1.57 10.29
10/25/2020 12:30:00 AM 11.13 52.034 0.135 7.29 1.53 10.3
10/25/2020 12:45:00 AM 11.08 51.944 0.136 7.29 1.47 10.31
10/25/2020 1:00:00 AM 11.03 51.854 0.136 7.29 1.46 10.33
10/25/2020 1:15:00 AM 10.97 51.746 0.136 7.29 1.46 10.35
10/25/2020 1:30:00 AM 10.91 51.638 0.136 7.3 1.51 10.37
10/25/2020 1:45:00 AM 10.85 51.53 0.136 7.3 1.49 10.38
10/25/2020 2:00:00 AM 10.79 51.422 0.136 7.3 1.52 10.4
10/25/2020 2:15:00 AM 10.73 51.314 0.136 7.3 1.49 10.41
10/25/2020 2:30:00 AM 10.67 51.206 0.136 7.3 1.46 10.43
10/25/2020 2:45:00 AM 10.58 51.044 0.136 7.3 1.46 10.45
10/25/2020 3:00:00 AM 10.49 50.882 0.136 7.3 1.45 10.48
10/25/2020 3:15:00 AM 10.39 50.702 0.136 7.3 1.42 10.5
10/25/2020 3:30:00 AM 10.29 50.522 0.136 7.3 1.41 10.53
10/25/2020 3:45:00 AM 10.19 50.342 0.136 7.3 1.5 10.56
10/25/2020 4:00:00 AM 10.1 50.18 0.136 7.3 1.46 10.58
10/25/2020 4:15:00 AM 10 50 0.136 7.3 1.45 10.61
10/25/2020 4:30:00 AM 9.91 49.838 0.136 7.3 1.45 10.64
10/25/2020 4:45:00 AM 9.82 49.676 0.136 7.3 1.4 10.66
10/25/2020 5:00:00 AM 9.71 49.478 0.136 7.3 1.52 10.69
10/25/2020 5:15:00 AM 9.61 49.298 0.136 7.3 1.46 10.71
10/25/2020 5:30:00 AM 9.51 49.118 0.136 7.3 1.45 10.74
10/25/2020 5:45:00 AM 9.41 48.938 0.136 7.3 1.41 10.77
10/25/2020 6:00:00 AM 9.31 48.758 0.136 7.3 1.51 10.8
10/25/2020 6:15:00 AM 9.21 48.578 0.136 7.3 1.44 10.83
10/25/2020 6:30:00 AM 9.11 48.398 0.136 7.3 1.45 10.86
10/25/2020 6:45:00 AM 9.01 48.218 0.136 7.3 1.5 10.89
10/25/2020 7:00:00 AM 8.92 48.056 0.136 7.3 1.4 10.92
10/25/2020 7:15:00 AM 8.83 47.894 0.136 7.3 1.55 10.95
10/25/2020 7:30:00 AM 8.75 47.75 0.136 7.3 1.38 10.97
10/25/2020 7:45:00 AM 8.68 47.624 0.136 7.3 1.42 11.01
10/25/2020 8:00:00 AM 8.62 47.516 0.136 7.3 1.35 11.04
10/25/2020 8:15:00 AM 8.58 47.444 0.136 7.3 1.36 11.07
10/25/2020 8:30:00 AM 8.55 47.39 0.136 7.3 1.37 11.11
10/25/2020 8:45:00 AM 8.54 47.372 0.136 7.31 1.39 11.15
10/25/2020 9:00:00 AM 8.56 47.408 0.136 7.32 1.35 11.21
10/25/2020 9:15:00 AM 8.58 47.444 0.136 7.32 1.32 11.26
10/25/2020 9:30:00 AM 8.61 47.498 0.136 7.33 1.32 11.31
10/25/2020 9:45:00 AM 8.66 47.588 0.136 7.34 1.41 11.34
10/25/2020 10:00:00 AM 8.69 47.642 0.136 7.34 1.37 11.37
10/25/2020 10:15:00 AM 8.73 47.714 0.136 7.35 1.32 11.39
10/25/2020 10:30:00 AM 8.78 47.804 0.136 7.35 1.44 11.4
10/25/2020 10:45:00 AM 8.83 47.894 0.136 7.36 1.32 11.42
10/25/2020 11:00:00 AM 8.9 48.02 0.136 7.36 1.36 11.43
10/25/2020 11:15:00 AM 8.93 48.074 0.136 7.36 1.36 11.44
10/25/2020 11:30:00 AM 9.05 48.29 0.136 7.36 1.38 11.44
10/25/2020 11:45:00 AM 9.14 48.452 0.136 7.36 1.37 11.44
10/25/2020 12:00:00 PM 9.26 48.668 0.136 7.37 1.3 11.43
10/25/2020 12:15:00 PM 9.37 48.866 0.136 7.37 1.32 11.42
10/25/2020 12:30:00 PM 9.49 49.082 0.136 7.38 1.34 11.41
10/25/2020 12:45:00 PM 9.56 49.208 0.136 7.37 1.29 11.41
10/25/2020 1:00:00 PM 9.64 49.352 0.136 7.38 1.34 11.39
10/25/2020 1:15:00 PM 9.69 49.442 0.136 7.38 1.31 11.39
10/25/2020 1:30:00 PM 9.8 49.64 0.135 7.38 1.33 11.38
10/25/2020 1:45:00 PM 9.88 49.784 0.135 7.38 1.32 11.37
10/25/2020 2:00:00 PM 10.03 50.054 0.135 7.38 1.28 11.35
10/25/2020 2:15:00 PM 10.13 50.234 0.135 7.39 1.28 11.32
10/25/2020 2:30:00 PM 10.23 50.414 0.135 7.39 1.47 11.3
10/25/2020 2:45:00 PM 10.28 50.504 0.135 7.39 1.32 11.27
10/25/2020 3:00:00 PM 10.34 50.612 0.135 7.39 1.31 11.25
10/25/2020 3:15:00 PM 10.37 50.666 0.135 7.39 1.38 11.23
10/25/2020 3:30:00 PM 10.38 50.684 0.135 7.39 1.32 11.21
10/25/2020 3:45:00 PM 10.38 50.684 0.135 7.39 1.3 11.19
10/25/2020 4:00:00 PM 10.36 50.648 0.135 7.39 1.35 11.17
10/25/2020 4:15:00 PM 10.36 50.648 0.135 7.39 1.37 11.15
10/25/2020 4:30:00 PM 10.35 50.63 0.135 7.39 1.34 11.14
10/25/2020 4:45:00 PM 10.34 50.612 0.135 7.38 1.33 11.11
10/25/2020 5:00:00 PM 10.33 50.594 0.135 7.38 1.34 11.08
10/25/2020 5:15:00 PM 10.3 50.54 0.135 7.38 1.36 11.05
10/25/2020 5:30:00 PM 10.27 50.486 0.135 7.37 1.39 11.02
10/25/2020 5:45:00 PM 10.24 50.432 0.135 7.37 1.4 10.98
10/25/2020 6:00:00 PM 10.2 50.36 0.136 7.36 1.42 10.94
10/25/2020 6:15:00 PM 10.17 50.306 0.136 7.35 1.43 10.9
10/25/2020 6:30:00 PM 10.14 50.252 0.136 7.34 1.41 10.87
10/25/2020 6:45:00 PM 10.13 50.234 0.136 7.33 1.43 10.82
10/25/2020 7:00:00 PM 10.11 50.198 0.136 7.33 2.19 10.8
10/25/2020 7:15:00 PM 10.09 50.162 0.136 7.32 1.48 10.77
10/25/2020 7:30:00 PM 10.08 50.144 0.136 7.32 1.58 10.75
10/25/2020 7:45:00 PM 10.07 50.126 0.136 7.32 1.62 10.74
10/25/2020 8:00:00 PM 10.05 50.09 0.136 7.31 1.59 10.73
10/25/2020 8:15:00 PM 10.05 50.09 0.136 7.31 1.54 10.72
10/25/2020 8:30:00 PM 10.04 50.072 0.136 7.3 1.47 10.71
10/25/2020 8:45:00 PM 10.04 50.072 0.136 7.3 1.48 10.71
10/25/2020 9:00:00 PM 10.03 50.054 0.136 7.3 1.58 10.7
10/25/2020 9:15:00 PM 10.01 50.018 0.136 7.3 1.48 10.7
10/25/2020 9:30:00 PM 9.99 49.982 0.136 7.3 1.48 10.7
10/25/2020 9:45:00 PM 9.95 49.91 0.136 7.29 1.46 10.71
10/25/2020 10:00:00 PM 9.92 49.856 0.136 7.29 1.47 10.71
10/25/2020 10:15:00 PM 9.87 49.766 0.136 7.29 1.49 10.72
10/25/2020 10:30:00 PM 9.85 49.73 0.136 7.29 1.43 10.72
10/25/2020 10:45:00 PM 9.83 49.694 0.136 7.29 1.44 10.73
10/25/2020 11:00:00 PM 9.82 49.676 0.136 7.29 1.41 10.73
10/25/2020 11:15:00 PM 9.8 49.64 0.136 7.29 1.45 10.73
10/25/2020 11:30:00 PM 9.78 49.604 0.136 7.29 1.46 10.74
10/25/2020 11:45:00 PM 9.76 49.568 0.137 7.29 1.39 10.75
10/26/2020 12:00:00 AM 9.73 49.514 0.137 7.28 1.4 10.75
10/26/2020 12:15:00 AM 9.71 49.478 0.137 7.29 1.4 10.76
10/26/2020 12:30:00 AM 9.68 49.424 0.137 7.28 1.36 10.77
10/26/2020 12:45:00 AM 9.64 49.352 0.137 7.28 1.48 10.78
10/26/2020 1:00:00 AM 9.61 49.298 0.137 7.28 1.41 10.78
10/26/2020 1:15:00 AM 9.59 49.262 0.137 7.28 1.39 10.79
10/26/2020 1:30:00 AM 9.56 49.208 0.137 7.28 1.38 10.79
10/26/2020 1:45:00 AM 9.55 49.19 0.137 7.28 1.45 10.8
10/26/2020 2:00:00 AM 9.53 49.154 0.137 7.28 1.44 10.8
10/26/2020 2:15:00 AM 9.53 49.154 0.137 7.28 1.39 10.81
10/26/2020 2:30:00 AM 9.51 49.118 0.137 7.28 1.38 10.81
10/26/2020 2:45:00 AM 9.5 49.1 0.137 7.28 1.42 10.81
10/26/2020 3:00:00 AM 9.49 49.082 0.137 7.28 1.38 10.82
10/26/2020 3:15:00 AM 9.47 49.046 0.137 7.28 1.34 10.82
10/26/2020 3:30:00 AM 9.47 49.046 0.137 7.28 1.29 10.83
10/26/2020 3:45:00 AM 9.46 49.028 0.137 7.28 1.33 10.83
10/26/2020 4:00:00 AM 9.46 49.028 0.137 7.28 1.36 10.84
10/26/2020 4:15:00 AM 9.45 49.01 0.137 7.28 1.31 10.84
10/26/2020 4:30:00 AM 9.44 48.992 0.137 7.28 1.31 10.84
10/26/2020 4:45:00 AM 9.44 48.992 0.137 7.28 1.37 10.85
10/26/2020 5:00:00 AM 9.42 48.956 0.137 7.28 1.39 10.86
10/26/2020 5:15:00 AM 9.42 48.956 0.136 7.28 1.44 10.85
10/26/2020 5:30:00 AM 9.41 48.938 0.136 7.28 1.42 10.87
10/26/2020 5:45:00 AM 9.4 48.92 0.136 7.27 1.43 10.86
10/26/2020 6:00:00 AM 9.39 48.902 0.135 7.27 1.41 10.87
10/26/2020 6:15:00 AM 9.38 48.884 0.135 7.27 1.7 10.86
10/26/2020 6:30:00 AM 9.38 48.884 0.135 7.27 1.48 10.87
10/26/2020 6:45:00 AM 9.37 48.866 0.136 7.27 1.49 10.86
10/26/2020 7:00:00 AM 9.37 48.866 0.136 7.26 1.63 10.86
10/26/2020 7:15:00 AM 9.36 48.848 0.136 7.27 1.59 10.87
10/26/2020 7:30:00 AM 9.36 48.848 0.136 7.27 1.57 10.87
10/26/2020 7:45:00 AM 9.36 48.848 0.136 7.27 1.38 10.88
10/26/2020 8:00:00 AM 9.35 48.83 0.136 7.27 1.89 10.88
10/26/2020 8:15:00 AM 9.36 48.848 0.136 7.27 1.36 10.89
10/26/2020 8:30:00 AM 9.36 48.848 0.136 7.27 1.37 10.9
10/26/2020 8:45:00 AM 9.36 48.848 0.136 7.27 1.39 10.91
10/26/2020 9:00:00 AM 9.37 48.866 0.136 7.27 1.33 10.92
10/26/2020 9:15:00 AM 9.39 48.902 0.136 7.28 1.29 10.94
10/26/2020 9:30:00 AM 9.41 48.938 0.136 7.28 1.31 10.96
10/26/2020 9:45:00 AM 9.43 48.974 0.136 7.28 1.35 10.98
10/26/2020 10:00:00 AM 9.47 49.046 0.135 7.28 1.36 10.99
10/26/2020 10:15:00 AM 9.5 49.1 0.135 7.29 1.34 11.02
10/26/2020 10:30:00 AM 9.54 49.172 0.135 7.29 1.33 11.03
10/26/2020 10:45:00 AM 9.61 49.298 0.135 7.3 1.35 11.05
10/26/2020 11:00:00 AM 9.66 49.388 0.135 7.31 1.34 11.06
10/26/2020 11:15:00 AM 9.73 49.514 0.135 7.31 1.38 11.08
10/26/2020 11:30:00 AM 9.81 49.658 0.135 7.32 1.44 11.09
10/26/2020 11:45:00 AM 9.87 49.766 0.135 7.32 1.4 11.09
10/26/2020 12:00:00 PM 9.94 49.892 0.135 7.33 1.37 11.09
10/26/2020 12:15:00 PM 10.01 50.018 0.135 7.33 1.36 11.08
10/26/2020 12:30:00 PM 10.06 50.108 0.135 7.33 1.37 11.07
10/26/2020 12:45:00 PM 10.1 50.18 0.135 7.33 1.35 11.05
10/26/2020 1:00:00 PM 10.14 50.252 0.135 7.33 1.3 11.03
10/26/2020 1:15:00 PM 10.17 50.306 0.135 7.33 1.35 11.01
10/26/2020 1:30:00 PM 10.2 50.36 0.135 7.33 1.37 11
10/26/2020 1:45:00 PM 10.24 50.432 0.135 7.33 1.32 11
10/26/2020 2:00:00 PM 10.28 50.504 0.135 7.33 1.36 10.99
10/26/2020 2:15:00 PM 10.32 50.576 0.135 7.33 1.32 10.98
10/26/2020 2:30:00 PM 10.36 50.648 0.135 7.33 1.38 10.96
10/26/2020 2:45:00 PM 10.39 50.702 0.135 7.33 1.35 10.95
10/26/2020 3:00:00 PM 10.41 50.738 0.135 7.33 1.37 10.92
10/26/2020 3:15:00 PM 10.43 50.774 0.135 7.32 1.39 10.9
10/26/2020 3:30:00 PM 10.45 50.81 0.135 7.32 1.42 10.87
10/26/2020 3:45:00 PM 10.46 50.828 0.135 7.31 1.36 10.84
10/26/2020 4:00:00 PM 10.47 50.846 0.135 7.31 1.36 10.82
10/26/2020 4:15:00 PM 10.49 50.882 0.135 7.31 1.4 10.81
10/26/2020 4:30:00 PM 10.5 50.9 0.135 7.3 1.35 10.79
10/26/2020 4:45:00 PM 10.52 50.936 0.135 7.3 1.4 10.77
10/26/2020 5:00:00 PM 10.54 50.972 0.135 7.3 1.46 10.75
10/26/2020 5:15:00 PM 10.56 51.008 0.135 7.29 1.43 10.73
10/26/2020 5:30:00 PM 10.57 51.026 0.135 7.29 1.44 10.73
10/26/2020 5:45:00 PM 10.59 51.062 0.135 7.29 1.48 10.7
10/26/2020 6:00:00 PM 10.6 51.08 0.135 7.28 1.52 10.68
10/26/2020 6:15:00 PM 10.61 51.098 0.135 7.28 1.6 10.66
10/26/2020 6:30:00 PM 10.61 51.098 0.135 7.27 1.59 10.64
10/26/2020 6:45:00 PM 10.62 51.116 0.135 7.27 1.69 10.6
10/26/2020 7:00:00 PM 10.63 51.134 0.135 7.26 1.65 10.58
10/26/2020 7:15:00 PM 10.63 51.134 0.136 7.26 1.65 10.58
10/26/2020 7:30:00 PM 10.64 51.152 0.136 7.25 1.61 10.56
10/26/2020 7:45:00 PM 10.65 51.17 0.136 7.25 1.59 10.55
10/26/2020 8:00:00 PM 10.66 51.188 0.136 7.25 1.59 10.55
10/26/2020 8:15:00 PM 10.66 51.188 0.136 7.25 1.52 10.54
10/26/2020 8:30:00 PM 10.67 51.206 0.136 7.25 1.6 10.54
10/26/2020 8:45:00 PM 10.67 51.206 0.136 7.25 1.52 10.54
10/26/2020 9:00:00 PM 10.68 51.224 0.136 7.25 1.46 10.52
10/26/2020 9:15:00 PM 10.68 51.224 0.136 7.25 1.57 10.53
10/26/2020 9:30:00 PM 10.68 51.224 0.136 7.25 1.49 10.53
10/26/2020 9:45:00 PM 10.67 51.206 0.136 7.24 1.48 10.53
10/26/2020 10:00:00 PM 10.67 51.206 0.136 7.24 1.51 10.53
10/26/2020 10:15:00 PM 10.66 51.188 0.136 7.24 1.42 10.53
10/26/2020 10:30:00 PM 10.65 51.17 0.136 7.25 1.42 10.52
10/26/2020 10:45:00 PM 10.64 51.152 0.136 7.25 1.42 10.53
10/26/2020 11:00:00 PM 10.63 51.134 0.136 7.25 1.45 10.54
10/26/2020 11:15:00 PM 10.61 51.098 0.136 7.25 1.42 10.53
10/26/2020 11:30:00 PM 10.58 51.044 0.136 7.25 1.47 10.55
10/26/2020 11:45:00 PM 10.55 50.99 0.137 7.25 1.4 10.55
10/27/2020 12:00:00 AM 10.51 50.918 0.136 7.25 1.42 10.55
10/27/2020 12:15:00 AM 10.47 50.846 0.137 7.25 1.46 10.56
10/27/2020 12:30:00 AM 10.43 50.774 0.137 7.25 1.36 10.58
10/27/2020 12:45:00 AM 10.39 50.702 0.137 7.25 1.44 10.59
10/27/2020 1:00:00 AM 10.36 50.648 0.137 7.25 1.36 10.6
10/27/2020 1:15:00 AM 10.33 50.594 0.137 7.25 1.36 10.61
10/27/2020 1:30:00 AM 10.31 50.558 0.137 7.25 1.42 10.62
10/27/2020 1:45:00 AM 10.28 50.504 0.137 7.25 1.4 10.62
10/27/2020 2:00:00 AM 10.26 50.468 0.137 7.25 1.37 10.63
10/27/2020 2:15:00 AM 10.24 50.432 0.137 7.25 1.36 10.64
10/27/2020 2:30:00 AM 10.22 50.396 0.137 7.25 1.41 10.64
10/27/2020 2:45:00 AM 10.2 50.36 0.137 7.26 1.39 10.65
10/27/2020 3:00:00 AM 10.18 50.324 0.137 7.25 1.36 10.66
10/27/2020 3:15:00 AM 10.16 50.288 0.137 7.25 1.46 10.66
10/27/2020 3:30:00 AM 10.14 50.252 0.137 7.25 1.38 10.66
10/27/2020 3:45:00 AM 10.12 50.216 0.137 7.26 1.42 10.67
10/27/2020 4:00:00 AM 10.1 50.18 0.137 7.25 1.45 10.68
10/27/2020 4:15:00 AM 10.08 50.144 0.137 7.25 1.42 10.69
10/27/2020 4:30:00 AM 10.06 50.108 0.137 7.25 1.44 10.7
10/27/2020 4:45:00 AM 10.04 50.072 0.137 7.25 1.36 10.7
10/27/2020 5:00:00 AM 10.01 50.018 0.137 7.25 1.42 10.71
10/27/2020 5:15:00 AM 9.99 49.982 0.137 7.25 1.41 10.71
10/27/2020 5:30:00 AM 9.97 49.946 0.137 7.25 1.41 10.72
10/27/2020 5:45:00 AM 9.95 49.91 0.137 7.25 1.38 10.73
10/27/2020 6:00:00 AM 9.93 49.874 0.137 7.25 1.48 10.74
10/27/2020 6:15:00 AM 9.9 49.82 0.137 7.25 1.4 10.75
10/27/2020 6:30:00 AM 9.88 49.784 0.137 7.25 1.39 10.76
10/27/2020 6:45:00 AM 9.86 49.748 0.137 7.25 1.39 10.77
10/27/2020 7:00:00 AM 9.84 49.712 0.137 7.26 1.35 10.77
10/27/2020 7:15:00 AM 9.82 49.676 0.137 7.26 1.32 10.78
10/27/2020 7:30:00 AM 9.8 49.64 0.137 7.26 1.36 10.79
10/27/2020 7:45:00 AM 9.77 49.586 0.137 7.26 1.36 10.8
10/27/2020 8:00:00 AM 9.75 49.55 0.137 7.26 1.37 10.81
10/27/2020 8:15:00 AM 9.74 49.532 0.137 7.26 1.29 10.84
10/27/2020 8:30:00 AM 9.74 49.532 0.137 7.27 1.32 10.88
10/27/2020 8:45:00 AM 9.74 49.532 0.137 7.27 1.34 10.91
10/27/2020 9:00:00 AM 9.76 49.568 0.137 7.28 1.34 10.95
10/27/2020 9:15:00 AM 9.78 49.604 0.137 7.29 1.29 10.99
10/27/2020 9:30:00 AM 9.8 49.64 0.137 7.3 1.31 11.02
10/27/2020 9:45:00 AM 9.83 49.694 0.137 7.3 1.32 11.05
10/27/2020 10:00:00 AM 9.87 49.766 0.137 7.31 1.29 11.07
10/27/2020 10:15:00 AM 9.93 49.874 0.137 7.32 1.31 11.1
10/27/2020 10:30:00 AM 10.01 50.018 0.137 7.32 1.33 11.12
10/27/2020 10:45:00 AM 10.11 50.198 0.137 7.33 1.32 11.15
10/27/2020 11:00:00 AM 10.19 50.342 0.136 7.34 1.32 11.15
10/27/2020 11:15:00 AM 10.29 50.522 0.136 7.35 1.26 11.16
10/27/2020 11:30:00 AM 10.36 50.648 0.136 7.35 1.32 11.16
10/27/2020 11:45:00 AM 10.42 50.756 0.137 7.35 1.31 11.14
10/27/2020 12:00:00 PM 10.46 50.828 0.136 7.36 1.31 11.13
10/27/2020 12:15:00 PM 10.49 50.882 0.136 7.36 1.32 11.12
10/27/2020 12:30:00 PM 10.5 50.9 0.136 7.36 1.29 11.11
10/27/2020 12:45:00 PM 10.55 50.99 0.136 7.36 1.37 11.11
10/27/2020 1:00:00 PM 10.58 51.044 0.136 7.36 1.27 11.1
10/27/2020 1:15:00 PM 10.61 51.098 0.136 7.36 1.34 11.1
10/27/2020 1:30:00 PM 10.64 51.152 0.136 7.37 1.36 11.08
10/27/2020 1:45:00 PM 10.67 51.206 0.136 7.37 1.29 11.08
10/27/2020 2:00:00 PM 10.69 51.242 0.136 7.37 1.32 11.07
10/27/2020 2:15:00 PM 10.7 51.26 0.137 7.37 1.34 11.04
10/27/2020 2:30:00 PM 10.7 51.26 0.136 7.37 1.36 11.03
10/27/2020 2:45:00 PM 10.71 51.278 0.136 7.37 1.32 11.04
10/27/2020 3:00:00 PM 10.71 51.278 0.136 7.36 1.34 11
10/27/2020 3:15:00 PM 10.72 51.296 0.136 7.37 1.32 11
10/27/2020 3:30:00 PM 10.72 51.296 0.136 7.36 1.29 10.98
10/27/2020 3:45:00 PM 10.73 51.314 0.136 7.36 1.37 10.97
10/27/2020 4:00:00 PM 10.73 51.314 0.137 7.36 1.36 10.94
10/27/2020 4:15:00 PM 10.74 51.332 0.136 7.36 1.39 10.93
10/27/2020 4:30:00 PM 10.72 51.296 0.137 7.35 1.36 10.89
10/27/2020 4:45:00 PM 10.7 51.26 0.137 7.35 1.39 10.87
10/27/2020 5:00:00 PM 10.67 51.206 0.137 7.34 1.37 10.83
10/27/2020 5:15:00 PM 10.63 51.134 0.137 7.34 1.32 10.8
10/27/2020 5:30:00 PM 10.6 51.08 0.137 7.33 1.38 10.77
10/27/2020 5:45:00 PM 10.57 51.026 0.137 7.33 1.43 10.75
10/27/2020 6:00:00 PM 10.53 50.954 0.137 7.32 1.43 10.73
10/27/2020 6:15:00 PM 10.5 50.9 0.137 7.31 1.49 10.72
10/27/2020 6:30:00 PM 10.47 50.846 0.137 7.31 1.44 10.7
10/27/2020 6:45:00 PM 10.44 50.792 0.137 7.3 1.51 10.68
10/27/2020 7:00:00 PM 10.42 50.756 0.137 7.3 1.5 10.67
10/27/2020 7:15:00 PM 10.38 50.684 0.137 7.29 1.48 10.66
10/27/2020 7:30:00 PM 10.35 50.63 0.137 7.29 1.53 10.66
10/27/2020 7:45:00 PM 10.32 50.576 0.137 7.29 1.56 10.63
10/27/2020 8:00:00 PM 10.29 50.522 0.137 7.29 1.74 10.66
10/27/2020 8:15:00 PM 10.27 50.486 0.137 7.28 1.58 10.66
10/27/2020 8:30:00 PM 10.25 50.45 0.137 7.28 1.56 10.67
10/27/2020 8:45:00 PM 10.23 50.414 0.137 7.28 1.52 10.67
10/27/2020 9:00:00 PM 10.21 50.378 0.137 7.28 1.49 10.67
10/27/2020 9:15:00 PM 10.18 50.324 0.137 7.28 1.47 10.68
10/27/2020 9:30:00 PM 10.15 50.27 0.137 7.28 1.47 10.67
10/27/2020 9:45:00 PM 10.11 50.198 0.137 7.28 1.5 10.68
10/27/2020 10:00:00 PM 10.08 50.144 0.137 7.27 1.42 10.69
10/27/2020 10:15:00 PM 10.05 50.09 0.137 7.28 1.42 10.69
10/27/2020 10:30:00 PM 10.02 50.036 0.137 7.28 1.38 10.7
10/27/2020 10:45:00 PM 9.98 49.964 0.138 7.28 1.46 10.71
10/27/2020 11:00:00 PM 9.95 49.91 0.138 7.27 1.42 10.72
10/27/2020 11:15:00 PM 9.93 49.874 0.138 7.27 1.41 10.72
10/27/2020 11:30:00 PM 9.9 49.82 0.138 7.27 1.44 10.72
10/27/2020 11:45:00 PM 9.88 49.784 0.138 7.27 1.42 10.73
10/28/2020 12:00:00 AM 9.86 49.748 0.138 7.27 1.41 10.74
10/28/2020 12:15:00 AM 9.83 49.694 0.138 7.27 1.4 10.74
10/28/2020 12:30:00 AM 9.82 49.676 0.138 7.27 1.4 10.75
10/28/2020 12:45:00 AM 9.8 49.64 0.138 7.27 1.37 10.75
10/28/2020 1:00:00 AM 9.78 49.604 0.138 7.27 1.43 10.76
10/28/2020 1:15:00 AM 9.77 49.586 0.138 7.27 1.4 10.76
10/28/2020 1:30:00 AM 9.75 49.55 0.138 7.27 1.37 10.77
10/28/2020 1:45:00 AM 9.73 49.514 0.138 7.27 1.36 10.77
10/28/2020 2:00:00 AM 9.72 49.496 0.138 7.27 1.4 10.78
10/28/2020 2:15:00 AM 9.7 49.46 0.138 7.27 1.41 10.78
10/28/2020 2:30:00 AM 9.68 49.424 0.138 7.27 1.41 10.79
10/28/2020 2:45:00 AM 9.66 49.388 0.138 7.27 1.38 10.8
10/28/2020 3:00:00 AM 9.64 49.352 0.138 7.27 1.37 10.8
10/28/2020 3:15:00 AM 9.62 49.316 0.138 7.27 1.36 10.8
10/28/2020 3:30:00 AM 9.61 49.298 0.138 7.27 1.38 10.81
10/28/2020 3:45:00 AM 9.59 49.262 0.138 7.26 1.52 10.81
10/28/2020 4:00:00 AM 9.57 49.226 0.138 7.26 1.29 10.82
10/28/2020 4:15:00 AM 9.55 49.19 0.138 7.26 1.38 10.82
10/28/2020 4:30:00 AM 9.54 49.172 0.137 7.26 1.34 10.82
10/28/2020 4:45:00 AM 9.52 49.136 0.137 7.26 1.35 10.83
10/28/2020 5:00:00 AM 9.5 49.1 0.137 7.26 1.43 10.83
10/28/2020 5:15:00 AM 9.49 49.082 0.137 7.26 1.46 10.83
10/28/2020 5:30:00 AM 9.47 49.046 0.137 7.26 1.36 10.84
10/28/2020 5:45:00 AM 9.46 49.028 0.136 7.26 1.38 10.84
10/28/2020 6:00:00 AM 9.44 48.992 0.136 7.25 1.41 10.84
10/28/2020 6:15:00 AM 9.43 48.974 0.136 7.25 1.37 10.84
10/28/2020 6:30:00 AM 9.42 48.956 0.136 7.25 1.49 10.84
10/28/2020 6:45:00 AM 9.41 48.938 0.136 7.25 1.4 10.85
10/28/2020 7:00:00 AM 9.4 48.92 0.136 7.25 1.36 10.85
10/28/2020 7:15:00 AM 9.39 48.902 0.137 7.25 1.37 10.85
10/28/2020 7:30:00 AM 9.38 48.884 0.137 7.25 1.39 10.86
10/28/2020 7:45:00 AM 9.37 48.866 0.137 7.26 1.42 10.86
10/28/2020 8:00:00 AM 9.37 48.866 0.136 7.25 1.39 10.87
10/28/2020 8:15:00 AM 9.36 48.848 0.136 7.25 1.4 10.87
10/28/2020 8:30:00 AM 9.36 48.848 0.136 7.26 1.35 10.88
10/28/2020 8:45:00 AM 9.36 48.848 0.136 7.26 1.35 10.9
10/28/2020 9:00:00 AM 9.37 48.866 0.136 7.26 1.4 10.92
10/28/2020 9:15:00 AM 9.39 48.902 0.136 7.27 1.43 10.96
10/28/2020 9:30:00 AM 9.42 48.956 0.136 7.27 1.36 10.99
10/28/2020 9:45:00 AM 9.46 49.028 0.136 7.28 1.36 11.03
10/28/2020 10:00:00 AM 9.53 49.154 0.136 7.29 1.42 11.07
10/28/2020 10:15:00 AM 9.58 49.244 0.136 7.3 1.37 11.09
10/28/2020 10:30:00 AM 9.65 49.37 0.136 7.3 1.41 11.11
10/28/2020 10:45:00 AM 9.71 49.478 0.135 7.31 1.34 11.12
10/28/2020 11:00:00 AM 9.78 49.604 0.135 7.32 1.4 11.13
10/28/2020 11:15:00 AM 9.83 49.694 0.135 7.32 1.39 11.12
10/28/2020 11:30:00 AM 9.88 49.784 0.135 7.33 1.38 11.13
10/28/2020 11:45:00 AM 9.93 49.874 0.135 7.33 1.5 11.13
10/28/2020 12:00:00 PM 10.04 50.072 0.135 7.34 1.38 11.13
10/28/2020 12:15:00 PM 10.11 50.198 0.135 7.34 1.35 11.13
10/28/2020 12:30:00 PM 10.16 50.288 0.135 7.34 1.33 11.12
10/28/2020 12:45:00 PM 10.22 50.396 0.135 7.34 1.38 11.11
10/28/2020 1:00:00 PM 10.28 50.504 0.135 7.35 1.41 11.1
10/28/2020 1:15:00 PM 10.3 50.54 0.135 7.35 1.37 11.08
10/28/2020 1:30:00 PM 10.36 50.648 0.135 7.35 1.37 11.08
10/28/2020 1:45:00 PM 10.45 50.81 0.135 7.36 1.39 11.09
10/28/2020 2:00:00 PM 10.54 50.972 0.135 7.36 1.43 11.09
10/28/2020 2:15:00 PM 10.62 51.116 0.135 7.36 1.34 11.07
10/28/2020 2:30:00 PM 10.68 51.224 0.135 7.36 1.37 11.05
10/28/2020 2:45:00 PM 10.73 51.314 0.135 7.37 1.4 11.02
10/28/2020 3:00:00 PM 10.74 51.332 0.135 7.36 1.38 11
10/28/2020 3:15:00 PM 10.73 51.314 0.135 7.36 1.35 10.98
10/28/2020 3:30:00 PM 10.71 51.278 0.135 7.36 1.39 10.96
10/28/2020 3:45:00 PM 10.72 51.296 0.135 7.36 1.37 10.95
10/28/2020 4:00:00 PM 10.71 51.278 0.135 7.36 1.36 10.94
10/28/2020 4:15:00 PM 10.74 51.332 0.135 7.36 1.41 10.94
10/28/2020 4:30:00 PM 10.74 51.332 0.135 7.36 1.4 10.93
10/28/2020 4:45:00 PM 10.75 51.35 0.135 7.36 1.4 10.92
10/28/2020 5:00:00 PM 10.74 51.332 0.135 7.36 1.39 10.91
10/28/2020 5:15:00 PM 10.72 51.296 0.135 7.36 1.41 10.91
10/28/2020 5:30:00 PM 10.68 51.224 0.135 7.35 1.42 10.87
10/28/2020 5:45:00 PM 10.64 51.152 0.135 7.35 1.39 10.86
10/28/2020 6:00:00 PM 10.59 51.062 0.135 7.34 1.43 10.81
10/28/2020 6:15:00 PM 10.53 50.954 0.135 7.33 1.47 10.78
10/28/2020 6:30:00 PM 10.46 50.828 0.135 7.32 1.52 10.74
10/28/2020 6:45:00 PM 10.39 50.702 0.135 7.31 1.47 10.7
10/28/2020 7:00:00 PM 10.32 50.576 0.135 7.3 1.56 10.68
10/28/2020 7:15:00 PM 10.25 50.45 0.136 7.29 1.76 10.66
10/28/2020 7:30:00 PM 10.19 50.342 0.136 7.29 1.62 10.66
10/28/2020 7:45:00 PM 10.12 50.216 0.136 7.28 1.68 10.66
10/28/2020 8:00:00 PM 10.06 50.108 0.136 7.27 1.58 10.67
10/28/2020 8:15:00 PM 10 50 0.136 7.27 1.56 10.68
10/28/2020 8:30:00 PM 9.94 49.892 0.136 7.27 1.58 10.69
10/28/2020 8:45:00 PM 9.88 49.784 0.136 7.26 1.5 10.7
10/28/2020 9:00:00 PM 9.83 49.694 0.136 7.26 1.49 10.7
10/28/2020 9:15:00 PM 9.79 49.622 0.136 7.26 1.52 10.72
10/28/2020 9:30:00 PM 9.74 49.532 0.136 7.26 1.51 10.72
10/28/2020 9:45:00 PM 9.68 49.424 0.136 7.26 1.46 10.73
10/28/2020 10:00:00 PM 9.63 49.334 0.136 7.25 1.47 10.75
10/28/2020 10:15:00 PM 9.58 49.244 0.136 7.25 1.45 10.75
10/28/2020 10:30:00 PM 9.53 49.154 0.136 7.25 1.45 10.77
10/28/2020 10:45:00 PM 9.47 49.046 0.136 7.25 1.46 10.78
10/28/2020 11:00:00 PM 9.42 48.956 0.136 7.25 1.45 10.8
10/28/2020 11:15:00 PM 9.38 48.884 0.136 7.26 1.46 10.81
10/28/2020 11:30:00 PM 9.33 48.794 0.136 7.26 1.39 10.82
10/28/2020 11:45:00 PM 9.29 48.722 0.136 7.25 1.47 10.84
10/29/2020 12:00:00 AM 9.25 48.65 0.137 7.25 1.48 10.84
10/29/2020 12:15:00 AM 9.21 48.578 0.136 7.25 1.45 10.86
10/29/2020 12:30:00 AM 9.18 48.524 0.137 7.25 1.37 10.87
10/29/2020 12:45:00 AM 9.15 48.47 0.137 7.25 1.4 10.88
10/29/2020 1:00:00 AM 9.13 48.434 0.137 7.25 1.39 10.89
10/29/2020 1:15:00 AM 9.11 48.398 0.137 7.25 1.39 10.89
10/29/2020 1:30:00 AM 9.09 48.362 0.137 7.26 1.4 10.9
10/29/2020 1:45:00 AM 9.08 48.344 0.137 7.26 1.37 10.91
10/29/2020 2:00:00 AM 9.06 48.308 0.137 7.26 1.41 10.91
10/29/2020 2:15:00 AM 9.05 48.29 0.137 7.26 1.4 10.92
10/29/2020 2:30:00 AM 9.03 48.254 0.137 7.26 1.37 10.93
10/29/2020 2:45:00 AM 9.01 48.218 0.137 7.26 1.36 10.93
10/29/2020 3:00:00 AM 8.99 48.182 0.137 7.26 3 10.94
10/29/2020 3:15:00 AM 8.98 48.164 0.137 7.26 1.44 10.95
10/29/2020 3:30:00 AM 8.96 48.128 0.137 7.26 1.58 10.95
10/29/2020 3:45:00 AM 8.94 48.092 0.137 7.26 1.55 10.95
10/29/2020 4:00:00 AM 8.92 48.056 0.137 7.26 1.48 10.96
10/29/2020 4:15:00 AM 8.9 48.02 0.137 7.26 1.41 10.96
10/29/2020 4:30:00 AM 8.88 47.984 0.137 7.26 1.42 10.96
10/29/2020 4:45:00 AM 8.86 47.948 0.137 7.26 1.35 10.98
10/29/2020 5:00:00 AM 8.84 47.912 0.137 7.26 1.45 10.98
10/29/2020 5:15:00 AM 8.83 47.894 0.137 7.26 1.34 10.99
10/29/2020 5:30:00 AM 8.8 47.84 0.137 7.26 1.41 11
10/29/2020 5:45:00 AM 8.78 47.804 0.137 7.26 1.49 11.01
10/29/2020 6:00:00 AM 8.76 47.768 0.136 7.26 1.58 11.01
10/29/2020 6:15:00 AM 8.74 47.732 0.136 7.25 1.58 11.02
10/29/2020 6:30:00 AM 8.72 47.696 0.136 7.25 1.5 11.03
10/29/2020 6:45:00 AM 8.69 47.642 0.135 7.25 1.73 11.04
10/29/2020 7:00:00 AM 8.67 47.606 0.135 7.25 1.59 11.03
10/29/2020 7:15:00 AM 8.65 47.57 0.134 7.25 1.51 11.04
10/29/2020 7:30:00 AM 8.64 47.552 0.134 7.24 1.46 11.05
10/29/2020 7:45:00 AM 8.62 47.516 0.134 7.24 1.48 11.05
10/29/2020 8:00:00 AM 8.6 47.48 0.133 7.23 1.46 11.06
10/29/2020 8:15:00 AM 8.59 47.462 0.133 7.24 1.48 11.07
10/29/2020 8:30:00 AM 8.57 47.426 0.132 7.24 1.51 11.08
10/29/2020 8:45:00 AM 8.55 47.39 0.131 7.23 1.59 11.1
10/29/2020 9:00:00 AM 8.53 47.354 0.131 7.23 1.6 11.12
10/29/2020 9:15:00 AM 8.52 47.336 0.13 7.23 1.74 11.12
10/29/2020 9:30:00 AM 8.51 47.318 0.129 7.23 1.76 11.14
10/29/2020 9:45:00 AM 8.51 47.318 0.129 7.23 1.88 11.14
10/29/2020 10:00:00 AM 8.52 47.336 0.128 7.23 3.37 11.16
10/29/2020 10:15:00 AM 8.52 47.336 0.128 7.24 2.01 11.16
10/29/2020 10:30:00 AM 8.53 47.354 0.127 7.24 2.28 11.17
10/29/2020 10:45:00 AM 8.54 47.372 0.127 7.25 2.66 11.17
10/29/2020 11:00:00 AM 8.55 47.39 0.126 7.25 2.46 11.19
10/29/2020 11:15:00 AM 8.56 47.408 0.126 7.25 2.58 11.2
10/29/2020 11:30:00 AM 8.58 47.444 0.125 7.26 2.79 11.21
10/29/2020 11:45:00 AM 8.59 47.462 0.124 7.26 2.96 11.22
10/29/2020 12:00:00 PM 8.6 47.48 0.123 7.26 3.2 11.23
10/29/2020 12:15:00 PM 8.61 47.498 0.122 7.25 3.2 11.24
10/29/2020 12:30:00 PM 8.63 47.534 0.122 7.25 3.33 11.23
10/29/2020 12:45:00 PM 8.65 47.57 0.121 7.24 3.16 11.23
10/29/2020 1:00:00 PM 8.67 47.606 0.121 7.25 3.28 11.23
10/29/2020 1:15:00 PM 8.69 47.642 0.12 7.25 3.2 11.23
10/29/2020 1:30:00 PM 8.74 47.732 0.12 7.25 3.4 11.24
10/29/2020 1:45:00 PM 8.79 47.822 0.12 7.26 3.59 11.24
10/29/2020 2:00:00 PM 8.83 47.894 0.12 7.26 3.88 11.21
10/29/2020 2:15:00 PM 8.83 47.894 0.119 7.26 4.11 11.19
10/29/2020 2:30:00 PM 8.83 47.894 0.119 7.25 4.21 11.15
10/29/2020 2:45:00 PM 8.84 47.912 0.118 7.24 4.33 11.13
10/29/2020 3:00:00 PM 8.84 47.912 0.118 7.24 4.82 11.11
10/29/2020 3:15:00 PM 8.84 47.912 0.118 7.23 4.65 11.08
10/29/2020 3:30:00 PM 8.84 47.912 0.117 7.23 5.39 11.08
10/29/2020 3:45:00 PM 8.85 47.93 0.115 7.22 5.79 11.07
10/29/2020 4:00:00 PM 8.86 47.948 0.115 7.22 6.25 11.06
10/29/2020 4:15:00 PM 8.9 48.02 0.115 7.21 6.82 11.06
10/29/2020 4:30:00 PM 8.96 48.128 0.115 7.21 7.19 11.06
10/29/2020 4:45:00 PM 9.03 48.254 0.116 7.21 7.37 11.06
10/29/2020 5:00:00 PM 9.06 48.308 0.116 7.2 7.56 11.04
10/29/2020 5:15:00 PM 9.06 48.308 0.116 7.2 8.2 11.01
10/29/2020 5:30:00 PM 9.06 48.308 0.115 7.2 9.4 10.99
10/29/2020 5:45:00 PM 9.05 48.29 0.115 7.19 10.86 10.97
10/29/2020 6:00:00 PM 9.05 48.29 0.115 7.18 13.62 10.95
10/29/2020 6:15:00 PM 9.05 48.29 0.116 7.18 15.26 10.93
10/29/2020 6:30:00 PM 9.05 48.29 0.116 7.18 17.04 10.91
10/29/2020 6:45:00 PM 9.05 48.29 0.117 7.17 18.2 10.9
10/29/2020 7:00:00 PM 9.05 48.29 0.116 7.18 22.59 10.91
10/29/2020 7:15:00 PM 9.04 48.272 0.117 7.18 21.61 10.9
10/29/2020 7:30:00 PM 9.04 48.272 0.117 7.17 32.59 10.89
10/29/2020 7:45:00 PM 9.03 48.254 0.117 7.15 50.33 10.89
10/29/2020 8:00:00 PM 9.03 48.254 0.118 7.13 79.63 10.86
10/29/2020 8:15:00 PM 9.03 48.254 0.119 7.11 85.02 10.84
10/29/2020 8:30:00 PM 9.01 48.218 0.121 7.13 65.83 10.88
10/29/2020 8:45:00 PM 8.99 48.182 0.124 7.15 54.67 10.91
10/29/2020 9:00:00 PM 8.96 48.128 0.126 7.15 50.17 10.92
10/29/2020 9:15:00 PM 8.94 48.092 0.126 7.17 48.06 10.92
10/29/2020 9:30:00 PM 8.93 48.074 0.126 7.18 41.12 10.94
10/29/2020 9:45:00 PM 8.92 48.056 0.124 7.17 44.51 10.95
10/29/2020 10:00:00 PM 8.91 48.038 0.107 7.17 300.61 10.96
10/29/2020 10:15:00 PM 8.89 48.002 0.12 7.15 33.7 10.97
10/29/2020 10:30:00 PM 8.88 47.984 0.118 7.16 149.27 10.98
10/29/2020 10:45:00 PM 8.86 47.948 0.097 7.09 60.98 10.99
10/29/2020 11:00:00 PM 8.83 47.894 0.076 7.14 35.13 11
10/29/2020 11:15:00 PM 8.81 47.858 0.112 7.14 34.49 11.01
10/29/2020 11:30:00 PM 8.78 47.804 0.109 7.15 43.44 11.02
10/29/2020 11:45:00 PM 8.75 47.75 0.109 7.17 43.95 11.03
10/30/2020 12:00:00 AM 8.72 47.696 0.109 7.16 135.94 11.04
10/30/2020 12:15:00 AM 8.7 47.66 0.108 7.14 42.53 11.05
10/30/2020 12:30:00 AM 8.67 47.606 0.107 7.14 35.31 11.06
10/30/2020 12:45:00 AM 8.64 47.552 0.107 7.13 36.87 11.07
10/30/2020 1:00:00 AM 8.62 47.516 0.057 7.14 74.23 11.07
10/30/2020 1:15:00 AM 8.59 47.462 0.067 7.14 202.43 11.08
10/30/2020 1:30:00 AM 8.57 47.426 0.107 7.13 32.01 11.09
10/30/2020 1:45:00 AM 8.54 47.372 0.107 7.14 30.61 11.1
10/30/2020 2:00:00 AM 8.52 47.336 0.108 7.14 31.1 11.11
10/30/2020 2:15:00 AM 8.5 47.3 0.106 7.13 26.14 11.11
10/30/2020 2:30:00 AM 8.47 47.246 0.109 7.14 27.41 11.11
10/30/2020 2:45:00 AM 8.46 47.228 0.11 7.16 25.65 11.12
10/30/2020 3:00:00 AM 8.43 47.174 0.11 7.16 24.02 11.13
10/30/2020 3:15:00 AM 8.42 47.156 0.111 7.17 24.09 11.14
10/30/2020 3:30:00 AM 8.39 47.102 0.111 7.17 23.72 11.15
10/30/2020 3:45:00 AM 8.37 47.066 0.112 7.17 22.95 11.15
10/30/2020 4:00:00 AM 8.33 46.994 0.112 7.17 22.35 11.17
10/30/2020 4:15:00 AM 8.31 46.958 0.112 7.16 22.09 11.18
10/30/2020 4:30:00 AM 8.29 46.922 0.112 7.17 22.3 11.19
10/30/2020 4:45:00 AM 8.27 46.886 0.106 7.17 21.49 11.19
10/30/2020 5:00:00 AM 8.25 46.85 0.113 7.17 21.28 11.2
10/30/2020 5:15:00 AM 8.24 46.832 0.113 7.17 22.2 11.21
10/30/2020 5:30:00 AM 8.23 46.814 0.114 7.16 20.75 11.2
10/30/2020 5:45:00 AM 8.21 46.778 0.114 7.17 20.13 11.22
10/30/2020 6:00:00 AM 8.19 46.742 0.115 7.16 20.58 11.22
10/30/2020 6:15:00 AM 8.18 46.724 0.115 7.16 20.16 11.22
10/30/2020 6:30:00 AM 8.17 46.706 0.115 7.15 21.47 11.24
10/30/2020 6:45:00 AM 8.16 46.688 0.116 7.15 2209.11 11.24
10/30/2020 7:00:00 AM 8.15 46.67 0.116 7.15 7244.64 11.24
10/30/2020 7:15:00 AM 8.14 46.652 0.117 7.15 589.68 11.25
10/30/2020 7:30:00 AM 8.13 46.634 0.117 7.13 1195.75 11.25
10/30/2020 7:45:00 AM 8.12 46.616 0.117 7.13 3988.75 11.27
10/30/2020 8:00:00 AM 8.12 46.616 0.118 7.12 4673.8 11.28
10/30/2020 8:15:00 AM 8.11 46.598 0.118 7.13 2341.3 11.28
10/30/2020 8:30:00 AM 8.1 46.58 0.118 7.14 1254.44 11.28
10/30/2020 8:45:00 AM 8.09 46.562 0.118 7.15 4386.54 11.29
10/30/2020 9:00:00 AM 8.09 46.562 0.119 7.14 3766.05 11.29
10/30/2020 9:15:00 AM 8.08 46.544 0.119 7.14 6820.95 11.3
10/30/2020 9:30:00 AM 8.08 46.544 0.119 7.13 6594.42 11.33
10/30/2020 9:45:00 AM 8.09 46.562 0.119 7.15 12098.95 11.34
10/30/2020 10:00:00 AM 8.08 46.544 0.119 7.15 14140.12 11.35
10/30/2020 10:15:00 AM 8.07 46.526 0.119 7.15 10189.44 11.36
10/30/2020 10:30:00 AM 8.08 46.544 0.066 7.15 2727.2 11.38
10/30/2020 10:45:00 AM 8.08 46.544 0.119 7.15 521.04 11.39
10/30/2020 11:00:00 AM 8.09 46.562 0.119 7.16 63.69 11.39
10/30/2020 11:15:00 AM 8.1 46.58 0.042 7.16 292.04 11.41
10/30/2020 11:30:00 AM 8.11 46.598 0.102 7.17 4651.8 11.42
10/30/2020 11:45:00 AM 8.11 46.598 0.119 7.17 67.22 11.43
10/30/2020 12:00:00 PM 8.14 46.652 0.119 7.18 57.47 11.44
10/30/2020 12:15:00 PM 8.16 46.688 0.119 7.18 113.46 11.44
10/30/2020 12:30:00 PM 8.18 46.724 0.119 7.18 50.07 11.46
10/30/2020 12:45:00 PM 8.2 46.76 0.119 7.19 57.1 11.47
10/30/2020 1:00:00 PM 8.22 46.796 0.119 7.19 136.91 11.46
10/30/2020 1:15:00 PM 8.24 46.832 0.119 7.18 182.39 11.47
10/30/2020 1:30:00 PM 8.27 46.886 0.119 7.18 2988.23 11.47
10/30/2020 1:45:00 PM 8.32 46.976 0.103 7.18 16484.43 11.47
10/30/2020 2:00:00 PM 8.33 46.994 0.096 7.17 6147.4 11.48
10/30/2020 2:15:00 PM 8.34 47.012 0.119 7.17 3157.03 11.48
10/30/2020 2:30:00 PM 8.33 46.994 0.12 7.17 2704.87 11.48
10/30/2020 2:45:00 PM 8.35 47.03 0.12 7.17 7494.38 11.47
10/30/2020 3:00:00 PM 8.36 47.048 0.12 7.17 3970.04 11.48
10/30/2020 3:15:00 PM 8.36 47.048 0.12 7.18 301.16 11.48
10/30/2020 3:30:00 PM 8.35 47.03 0.12 7.18 362.77 11.47
10/30/2020 3:45:00 PM 8.37 47.066 0.12 7.19 649.02 11.48
10/30/2020 4:00:00 PM 8.38 47.084 0.121 7.18 644.73 11.48
10/30/2020 4:15:00 PM 8.37 47.066 0.059 7.19 1348.04 11.48
10/30/2020 4:30:00 PM 8.37 47.066 0.093 7.19 720.96 11.48
10/30/2020 4:45:00 PM 8.37 47.066 0.119 7.2 56.7 11.47
10/30/2020 5:00:00 PM 8.38 47.084 0.045 7.2 92.72 11.48
10/30/2020 5:15:00 PM 8.37 47.066 0.121 7.2 16.17 11.47
10/30/2020 5:30:00 PM 8.34 47.012 0.121 7.2 19.71 11.46
10/30/2020 5:45:00 PM 8.32 46.976 0.07 7.19 3201.95 11.46
10/30/2020 6:00:00 PM 8.29 46.922 0.12 7.18 719.96 11.45
10/30/2020 6:15:00 PM 8.25 46.85 0.12 7.19 1710.96 11.44
10/30/2020 6:30:00 PM 8.22 46.796 0.12 7.19 422.53 11.45
10/30/2020 6:45:00 PM 8.19 46.742 0.095 7.19 147.69 11.45
10/30/2020 7:00:00 PM 8.16 46.688 0.12 7.18 286.82 11.44
10/30/2020 7:15:00 PM 8.14 46.652 0.12 7.17 5141.36 11.46
10/30/2020 7:30:00 PM 8.11 46.598 0.12 7.18 20.97 11.45
10/30/2020 7:45:00 PM 8.06 46.508 0.12 7.17 14.05 11.46
10/30/2020 8:00:00 PM 8.01 46.418 0.12 7.17 13.43 11.46
10/30/2020 8:15:00 PM 7.98 46.364 0.12 7.17 12.69 11.48
10/30/2020 8:30:00 PM 7.95 46.31 0.12 7.17 12.39 11.48
10/30/2020 8:45:00 PM 7.91 46.238 0.12 7.17 11.48 11.5
10/30/2020 9:00:00 PM 7.87 46.166 0.12 7.17 10.73 11.51
10/30/2020 9:15:00 PM 7.84 46.112 0.12 7.17 9.94 11.52
10/30/2020 9:30:00 PM 7.81 46.058 0.12 7.17 32.88 11.54
10/30/2020 9:45:00 PM 7.78 46.004 0.12 7.17 580.78 11.54
10/30/2020 10:00:00 PM 7.75 45.95 0.12 7.17 172.37 11.55
10/30/2020 10:15:00 PM 7.72 45.896 0.12 7.17 86.61 11.57
10/30/2020 10:30:00 PM 7.7 45.86 0.12 7.17 27.49 11.57
10/30/2020 10:45:00 PM 7.67 45.806 0.12 7.17 8.28 11.59
10/30/2020 11:00:00 PM 7.65 45.77 0.12 7.17 8.03 11.59
10/30/2020 11:15:00 PM 7.62 45.716 0.12 7.16 7.7 11.6
10/30/2020 11:30:00 PM 7.6 45.68 0.12 7.16 7.54 11.62
10/30/2020 11:45:00 PM 7.58 45.644 0.12 7.16 7.64 11.62
10/31/2020 12:00:00 AM 7.55 45.59 0.12 7.16 7.44 11.64
10/31/2020 12:15:00 AM 7.53 45.554 0.12 7.16 7.71 11.64
10/31/2020 12:30:00 AM 7.51 45.518 0.12 7.15 7.59 11.66
10/31/2020 12:45:00 AM 7.48 45.464 0.12 7.16 7.59 11.67
10/31/2020 1:00:00 AM 7.46 45.428 0.12 7.15 7.87 11.67
10/31/2020 1:15:00 AM 7.43 45.374 0.12 7.15 7.26 11.69
10/31/2020 1:30:00 AM 7.4 45.32 0.121 7.15 7.2 11.69
10/31/2020 1:45:00 AM 7.37 45.266 0.12 7.15 17.95 11.71
10/31/2020 2:00:00 AM 7.34 45.212 0.121 7.15 7.24 11.72
10/31/2020 2:15:00 AM 7.3 45.14 0.121 7.15 7.2 11.73
10/31/2020 2:30:00 AM 7.26 45.068 0.121 7.16 7 11.74
10/31/2020 2:45:00 AM 7.23 45.014 0.121 7.16 7.88 11.76
10/31/2020 3:00:00 AM 7.2 44.96 0.121 7.16 7.33 11.77
10/31/2020 3:15:00 AM 7.17 44.906 0.121 7.16 6.53 11.78
10/31/2020 3:30:00 AM 7.13 44.834 0.121 7.17 6.58 11.79
10/31/2020 3:45:00 AM 7.1 44.78 0.121 7.17 8.05 11.8
10/31/2020 4:00:00 AM 7.07 44.726 0.121 7.17 6.92 11.81
10/31/2020 4:15:00 AM 7.04 44.672 0.121 7.17 7.08 11.82
10/31/2020 4:30:00 AM 7.01 44.618 0.121 7.16 6.79 11.83
10/31/2020 4:45:00 AM 6.97 44.546 0.121 7.16 7.55 11.84
10/31/2020 5:00:00 AM 6.92 44.456 0.121 7.17 6.84 11.86
10/31/2020 5:15:00 AM 6.86 44.348 0.074 7.16 7.24 11.87
10/31/2020 5:30:00 AM 6.81 44.258 0.121 7.17 23.37 11.89
10/31/2020 5:45:00 AM 6.75 44.15 0.119 7.17 8.78 11.91
10/31/2020 6:00:00 AM 6.7 44.06 0.12 7.17 8.5 11.92
10/31/2020 6:15:00 AM 6.63 43.934 0.12 7.17 8.31 11.94
10/31/2020 6:30:00 AM 6.58 43.844 0.12 7.17 8.53 11.95
10/31/2020 6:45:00 AM 6.52 43.736 0.12 7.17 8.27 11.97
10/31/2020 7:00:00 AM 6.47 43.646 0.118 7.17 8.67 12
10/31/2020 7:15:00 AM 6.44 43.592 0.12 7.17 8.21 12.01
10/31/2020 7:30:00 AM 6.41 43.538 0.12 7.17 8.03 12.03
10/31/2020 7:45:00 AM 6.37 43.466 0.12 7.17 7.75 12.05
10/31/2020 8:00:00 AM 6.34 43.412 0.12 7.17 7.65 12.07
10/31/2020 8:15:00 AM 6.32 43.376 0.12 7.16 7.5 12.09
10/31/2020 8:30:00 AM 6.3 43.34 0.12 7.17 7.47 12.12
10/31/2020 8:45:00 AM 6.3 43.34 0.12 7.17 7.57 12.14
10/31/2020 9:00:00 AM 6.3 43.34 0.119 7.17 7.63 12.16
10/31/2020 9:15:00 AM 6.31 43.358 0.119 7.17 7.54 12.19
10/31/2020 9:30:00 AM 6.3 43.34 0.119 7.17 7.28 12.22
10/31/2020 9:45:00 AM 6.29 43.322 0.116 7.17 9.35 12.23
10/31/2020 10:00:00 AM 6.29 43.322 0.098 7.18 17.46 12.26
10/31/2020 10:15:00 AM 6.31 43.358 0.092 7.19 13.92 12.27
10/31/2020 10:30:00 AM 6.38 43.484 0.118 7.2 5472.05 12.28
10/31/2020 10:45:00 AM 6.43 43.574 0.121 7.2 5060.71 12.29
10/31/2020 11:00:00 AM 6.48 43.664 0.12 7.21 6015.77 12.3
10/31/2020 11:15:00 AM 6.53 43.754 0.11 7.21 10.22 12.3
10/31/2020 11:30:00 AM 6.58 43.844 0.121 7.22 6.45 12.3
10/31/2020 11:45:00 AM 6.66 43.988 0.121 7.23 6.66 12.29
10/31/2020 12:00:00 PM 6.75 44.15 0.121 7.24 110.26 12.28
10/31/2020 12:15:00 PM 6.81 44.258 0.121 7.24 6.74 12.27
10/31/2020 12:30:00 PM 6.87 44.366 0.105 7.25 138.03 12.26
10/31/2020 12:45:00 PM 6.93 44.474 0.121 7.25 6.5 12.25
10/31/2020 1:00:00 PM 6.98 44.564 0.121 7.25 6.19 12.24
10/31/2020 1:15:00 PM 7.02 44.636 0.121 7.26 7.59 12.23
10/31/2020 1:30:00 PM 7.08 44.744 0.121 7.26 6.31 12.2
10/31/2020 1:45:00 PM 7.13 44.834 0.115 7.26 10.97 12.19
10/31/2020 2:00:00 PM 7.2 44.96 0.121 7.27 8.44 12.17
10/31/2020 2:15:00 PM 7.3 45.14 0.119 7.27 11.23 12.15
10/31/2020 2:30:00 PM 7.38 45.284 0.119 7.26 13.26 12.13
10/31/2020 2:45:00 PM 7.46 45.428 0.102 7.27 23.27 12.11
10/31/2020 3:00:00 PM 7.51 45.518 0.106 7.26 21.79 12.09
10/31/2020 3:15:00 PM 7.57 45.626 0.1 7.27 12.61 12.07
10/31/2020 3:30:00 PM 7.63 45.734 0.104 7.27 18.52 12.05
10/31/2020 3:45:00 PM 7.64 45.752 0.106 7.27 47.1 12.02
10/31/2020 4:00:00 PM 7.63 45.734 0.105 7.26 18.82 12
10/31/2020 4:15:00 PM 7.61 45.698 0.112 7.26 78.6 11.98
10/31/2020 4:30:00 PM 7.58 45.644 0.115 7.26 16.12 11.96
10/31/2020 4:45:00 PM 7.56 45.608 0.102 7.26 18.46 11.94
10/31/2020 5:00:00 PM 7.51 45.518 0.099 7.26 14.81 11.93
10/31/2020 5:15:00 PM 7.48 45.464 0.105 7.26 37.04 11.91
10/31/2020 5:30:00 PM 7.45 45.41 0.104 7.25 219.85 11.89
10/31/2020 5:45:00 PM 7.42 45.356 0.101 7.24 184.17 11.87
10/31/2020 6:00:00 PM 7.38 45.284 0.108 7.24 11.76 11.85
10/31/2020 6:15:00 PM 7.36 45.248 0.1 7.24 18.64 11.82
10/31/2020 6:30:00 PM 7.34 45.212 0.1 7.23 19.77 11.8
10/31/2020 6:45:00 PM 7.31 45.158 0.108 7.23 416.53 11.78
10/31/2020 7:00:00 PM 7.28 45.104 0.108 7.22 78.74 11.78
10/31/2020 7:15:00 PM 7.24 45.032 0.101 7.22 21.42 11.78
10/31/2020 7:30:00 PM 7.19 44.942 0.102 7.22 22.96 11.78
10/31/2020 7:45:00 PM 7.13 44.834 0.101 7.21 20.77 11.78
10/31/2020 8:00:00 PM 7.07 44.726 0.108 7.21 32.79 11.79
10/31/2020 8:15:00 PM 7 44.6 0.105 7.21 74 11.8
10/31/2020 8:30:00 PM 6.94 44.492 0.101 7.21 23.36 11.82
10/31/2020 8:45:00 PM 6.87 44.366 0.099 7.19 31.09 11.83
10/31/2020 9:00:00 PM 6.79 44.222 0.099 7.19 26.39 11.85
10/31/2020 9:15:00 PM 6.72 44.096 0.099 7.2 25.6 11.86
10/31/2020 9:30:00 PM 6.65 43.97 0.097 7.19 27.96 11.88
10/31/2020 9:45:00 PM 6.57 43.826 0.098 7.19 40.15 11.9
10/31/2020 10:00:00 PM 6.5 43.7 0.098 7.19 26.17 11.92
10/31/2020 10:15:00 PM 6.43 43.574 0.102 7.19 33.98 11.95
10/31/2020 10:30:00 PM 6.35 43.43 0.098 7.19 28.61 11.97
10/31/2020 10:45:00 PM 6.27 43.286 0.099 7.19 28.66 12
10/31/2020 11:00:00 PM 6.19 43.142 0.101 7.18 80.12 12.02
10/31/2020 11:15:00 PM 6.12 43.016 0.098 7.18 25.23 12.04
10/31/2020 11:30:00 PM 6.04 42.872 0.1 7.18 153.2 12.07
10/31/2020 11:45:00 PM 5.97 42.746 0.106 7.18 79.9 12.1
11/1/2020 12:00:00 AM 5.9 42.62 0.103 7.18 66.34 12.12
11/1/2020 12:15:00 AM 5.83 42.494 0.103 7.18 26.97 12.14
11/1/2020 12:30:00 AM 5.76 42.368 0.106 7.18 35.76 12.16
11/1/2020 12:45:00 AM 5.69 42.242 0.102 7.18 58.75 12.18
11/1/2020 1:00:00 AM 5.63 42.134 0.104 7.18 14.81 12.2
11/1/2020 1:15:00 AM 5.57 42.026 0.109 7.18 48.9 12.22
11/1/2020 1:30:00 AM 5.51 41.918 0.101 7.18 47.3 12.24
11/1/2020 1:45:00 AM 5.45 41.81 0.105 7.18 25.33 12.26
11/1/2020 2:00:00 AM 5.4 41.72 0.105 7.18 19.8 12.27
11/1/2020 2:15:00 AM 5.35 41.63 0.104 7.18 25.99 12.29
11/1/2020 2:30:00 AM 5.3 41.54 0.103 7.18 34.89 12.3
11/1/2020 2:45:00 AM 5.25 41.45 0.103 7.18 97.56 12.32
11/1/2020 3:00:00 AM 5.22 41.396 0.105 7.18 23.09 12.33
11/1/2020 3:15:00 AM 5.18 41.324 0.103 7.18 21.49 12.34
11/1/2020 3:30:00 AM 5.14 41.252 0.107 7.18 25.28 12.36
11/1/2020 3:45:00 AM 5.1 41.18 0.111 7.19 226.41 12.36
11/1/2020 4:00:00 AM 5.06 41.108 0.103 7.19 40.67 12.38
11/1/2020 4:15:00 AM 5.02 41.036 0.11 7.19 377.91 12.39
11/1/2020 4:30:00 AM 4.98 40.964 0.111 7.19 93.27 12.4
11/1/2020 4:45:00 AM 4.95 40.91 0.114 7.19 8.48 12.41
11/1/2020 5:00:00 AM 4.92 40.856 0.121 7.19 12.03 12.42
11/1/2020 5:15:00 AM 4.76 40.568 0.122 7.18 3.76 12.46
11/1/2020 5:30:00 AM 4.73 40.514 0.122 7.17 3.94 12.47
11/1/2020 5:45:00 AM 4.69 40.442 0.122 7.17 3.85 12.48
11/1/2020 6:00:00 AM 4.66 40.388 0.122 7.18 3.76 12.49
11/1/2020 6:15:00 AM 4.63 40.334 0.123 7.18 3.71 12.49
11/1/2020 6:30:00 AM 4.59 40.262 0.123 7.18 3.67 12.5
11/1/2020 6:45:00 AM 4.56 40.208 0.123 7.18 3.81 12.52
11/1/2020 7:00:00 AM 4.54 40.172 0.123 7.18 3.53 12.52
11/1/2020 7:15:00 AM 4.54 40.172 0.123 7.18 3.59 12.54
11/1/2020 7:30:00 AM 4.56 40.208 0.123 7.18 3.51 12.54
11/1/2020 7:45:00 AM 4.58 40.244 0.123 7.18 3.51 12.55
11/1/2020 8:00:00 AM 4.59 40.262 0.123 7.19 3.59 12.56
11/1/2020 8:15:00 AM 4.61 40.298 0.122 7.19 3.49 12.57
11/1/2020 8:30:00 AM 4.62 40.316 0.122 7.19 3.43 12.57
11/1/2020 8:45:00 AM 4.64 40.352 0.122 7.19 3.41 12.58
11/1/2020 9:00:00 AM 4.66 40.388 0.122 7.2 3.36 12.58
11/1/2020 9:15:00 AM 4.69 40.442 0.122 7.2 3.33 12.58
11/1/2020 9:30:00 AM 4.72 40.496 0.122 7.19 3.39 12.58
11/1/2020 9:45:00 AM 4.76 40.568 0.122 7.19 3.35 12.58
11/1/2020 10:00:00 AM 4.82 40.676 0.122 7.19 3.37 12.58
11/1/2020 10:15:00 AM 4.89 40.802 0.122 7.2 2.73 12.58
11/1/2020 10:30:00 AM 4.96 40.928 0.122 7.21 2.63 12.57
11/1/2020 10:45:00 AM 5.01 41.018 0.122 7.21 2.74 12.55
11/1/2020 11:00:00 AM 5.08 41.144 0.122 7.22 2.72 12.54
11/1/2020 11:15:00 AM 5.17 41.306 0.122 7.22 2.7 12.53
11/1/2020 11:30:00 AM 5.23 41.414 0.122 7.22 2.7 12.51
11/1/2020 11:45:00 AM 5.29 41.522 0.121 7.22 2.7 12.49
11/1/2020 12:00:00 PM 5.35 41.63 0.121 7.21 2.58 12.47
11/1/2020 12:15:00 PM 5.44 41.792 0.121 7.21 2.61 12.46
11/1/2020 12:30:00 PM 5.51 41.918 0.121 7.2 2.54 12.43
11/1/2020 12:45:00 PM 5.56 42.008 0.12 7.19 2.56 12.38
11/1/2020 1:00:00 PM 5.61 42.098 0.12 7.19 2.87 12.35
11/1/2020 1:15:00 PM 5.7 42.26 0.12 7.21 2.64 12.35
11/1/2020 1:30:00 PM 5.82 42.476 0.12 7.21 2.72 12.34
11/1/2020 1:45:00 PM 5.94 42.692 0.12 7.21 2.76 12.32
11/1/2020 2:00:00 PM 5.94 42.692 0.12 7.21 2.59 12.28
11/1/2020 2:15:00 PM 5.92 42.656 0.12 7.2 2.59 12.26
11/1/2020 2:30:00 PM 5.92 42.656 0.119 7.2 2.61 12.25
11/1/2020 2:45:00 PM 5.93 42.674 0.119 7.21 2.61 12.24
11/1/2020 3:00:00 PM 6.01 42.818 0.119 7.21 2.56 12.24
11/1/2020 3:15:00 PM 6.07 42.926 0.119 7.22 2.52 12.23
11/1/2020 3:30:00 PM 6.08 42.944 0.119 7.23 2.52 12.21
11/1/2020 3:45:00 PM 6.1 42.98 0.119 7.23 2.53 12.19
11/1/2020 4:00:00 PM 6.12 43.016 0.119 7.22 2.66 12.17
11/1/2020 4:15:00 PM 6.13 43.034 0.119 7.23 2.57 12.15
11/1/2020 4:30:00 PM 6.12 43.016 0.119 7.22 2.96 12.14
11/1/2020 4:45:00 PM 6.09 42.962 0.119 7.22 3.1 12.13
11/1/2020 5:00:00 PM 6.06 42.908 0.119 7.22 3.05 12.11
11/1/2020 5:15:00 PM 6 42.8 0.119 7.21 2.99 12.09
11/1/2020 5:30:00 PM 5.97 42.746 0.119 7.2 2.94 12.08
11/1/2020 5:45:00 PM 5.94 42.692 0.119 7.22 2.52 12.07
11/1/2020 6:00:00 PM 5.92 42.656 0.119 7.22 2.53 12.07
11/1/2020 6:15:00 PM 5.87 42.566 0.119 7.21 2.48 12.06
11/1/2020 6:30:00 PM 5.79 42.422 0.119 7.21 2.49 12.07
11/1/2020 6:45:00 PM 5.74 42.332 0.119 7.21 2.45 12.07
11/1/2020 7:00:00 PM 5.72 42.296 0.119 7.21 2.46 12.08
11/1/2020 7:15:00 PM 5.7 42.26 0.119 7.21 2.49 12.08
11/1/2020 7:30:00 PM 5.65 42.17 0.119 7.21 2.43 12.09
11/1/2020 7:45:00 PM 5.59 42.062 0.119 7.2 2.43 12.11
11/1/2020 8:00:00 PM 5.54 41.972 0.119 7.2 2.45 12.12
11/1/2020 8:15:00 PM 5.5 41.9 0.119 7.2 2.43 12.13
11/1/2020 8:30:00 PM 5.45 41.81 0.119 7.2 2.43 12.15
11/1/2020 8:45:00 PM 5.4 41.72 0.119 7.2 2.5 12.17
11/1/2020 9:00:00 PM 5.34 41.612 0.12 7.2 2.4 12.19
11/1/2020 9:15:00 PM 5.31 41.558 0.119 7.21 2.39 12.2
11/1/2020 9:30:00 PM 5.26 41.468 0.12 7.2 2.39 12.22
11/1/2020 9:45:00 PM 5.21 41.378 0.12 7.2 2.41 12.23
11/1/2020 10:00:00 PM 5.16 41.288 0.12 7.2 2.35 12.25
11/1/2020 10:15:00 PM 5.12 41.216 0.12 7.2 2.4 12.27
11/1/2020 10:30:00 PM 5.06 41.108 0.12 7.2 2.37 12.28
11/1/2020 10:45:00 PM 5.01 41.018 0.12 7.2 2.33 12.3
11/1/2020 11:00:00 PM 4.97 40.946 0.12 7.19 2.39 12.32
11/1/2020 11:15:00 PM 4.92 40.856 0.119 7.2 2.33 12.33
11/1/2020 11:30:00 PM 4.88 40.784 0.119 7.19 2.34 12.35
11/1/2020 11:45:00 PM 4.83 40.694 0.119 7.19 2.26 12.36
11/2/2020 12:00:00 AM 4.79 40.622 0.119 7.19 2.3 12.38
11/2/2020 12:15:00 AM 4.75 40.55 0.119 7.19 3.33 12.39
11/2/2020 12:30:00 AM 4.7 40.46 0.119 7.19 2.33 12.41
11/2/2020 12:45:00 AM 4.67 40.406 0.119 7.19 2.32 12.42
11/2/2020 1:00:00 AM 4.64 40.352 0.119 7.19 2.29 12.43
11/2/2020 1:15:00 AM 4.6 40.28 0.119 7.19 2.32 12.44
11/2/2020 1:30:00 AM 4.56 40.208 0.119 7.19 2.29 12.45
11/2/2020 1:45:00 AM 4.47 40.046 0.119 7.19 2.36 12.47
11/2/2020 2:00:00 AM 4.4 39.92 0.119 7.19 2.63 12.49
11/2/2020 2:15:00 AM 4.35 39.83 0.119 7.19 2.38 12.51
11/2/2020 2:30:00 AM 4.33 39.794 0.119 7.19 2.34 12.52
11/2/2020 2:45:00 AM 4.31 39.758 0.119 7.2 2.35 12.54
11/2/2020 3:00:00 AM 4.28 39.704 0.119 7.2 2.36 12.55
11/2/2020 3:15:00 AM 4.25 39.65 0.119 7.2 2.36 12.57
11/2/2020 3:30:00 AM 4.23 39.614 0.119 7.2 2.34 12.59
11/2/2020 3:45:00 AM 4.2 39.56 0.119 7.2 2.43 12.6
11/2/2020 4:00:00 AM 4.17 39.506 0.119 7.2 2.36 12.62
11/2/2020 4:15:00 AM 4.13 39.434 0.119 7.21 2.29 12.63
11/2/2020 4:30:00 AM 4.1 39.38 0.119 7.2 2.27 12.65
11/2/2020 4:45:00 AM 4.08 39.344 0.119 7.21 2.31 12.66
11/2/2020 5:00:00 AM 4.06 39.308 0.119 7.21 2.28 12.67
11/2/2020 5:15:00 AM 4.03 39.254 0.119 7.21 2.29 12.68
11/2/2020 5:30:00 AM 4.01 39.218 0.119 7.2 2.28 12.7
11/2/2020 5:45:00 AM 3.99 39.182 0.119 7.2 2.31 12.71
11/2/2020 6:00:00 AM 3.97 39.146 0.119 7.21 2.23 12.72
11/2/2020 6:15:00 AM 3.95 39.11 0.119 7.21 2.29 12.74
11/2/2020 6:30:00 AM 3.93 39.074 0.119 7.2 2.33 12.75
11/2/2020 6:45:00 AM 3.91 39.038 0.119 7.19 2.29 12.76
11/2/2020 7:00:00 AM 3.86 38.948 0.119 7.21 2.51 12.78
11/2/2020 7:15:00 AM 3.77 38.786 0.119 7.22 2.48 12.8
11/2/2020 7:30:00 AM 3.75 38.75 0.119 7.22 2.46 12.83
11/2/2020 7:45:00 AM 3.75 38.75 0.119 7.22 2.43 12.86
11/2/2020 8:00:00 AM 3.74 38.732 0.119 7.22 2.39 12.89
11/2/2020 8:15:00 AM 3.73 38.714 0.119 7.22 2.41 12.92
11/2/2020 8:30:00 AM 3.73 38.714 0.119 7.22 2.38 12.96
11/2/2020 8:45:00 AM 3.74 38.732 0.118 7.22 2.65 12.98
11/2/2020 9:00:00 AM 3.75 38.75 0.118 7.23 2.77 13
11/2/2020 9:15:00 AM 3.77 38.786 0.118 7.23 2.69 13.02
11/2/2020 9:30:00 AM 3.83 38.894 0.118 7.23 2.92 13.04
11/2/2020 9:45:00 AM 3.88 38.984 0.118 7.24 2.75 13.05
11/2/2020 10:00:00 AM 3.93 39.074 0.118 7.24 2.63 13.05
11/2/2020 10:15:00 AM 3.99 39.182 0.117 7.25 2.62 13.06
11/2/2020 10:30:00 AM 4.06 39.308 0.117 7.25 2.61 13.05
11/2/2020 10:45:00 AM 4.17 39.506 0.117 7.25 2.53 13.04
11/2/2020 11:00:00 AM 4.22 39.596 0.117 7.25 2.6 13.03
11/2/2020 11:15:00 AM 4.24 39.632 0.117 7.25 2.57 13.02
11/2/2020 11:30:00 AM 4.29 39.722 0.117 7.25 2.56 13.01
11/2/2020 11:45:00 AM 4.31 39.758 0.117 7.25 2.54 12.99
11/2/2020 12:00:00 PM 4.34 39.812 0.117 7.26 2.54 12.98
11/2/2020 12:15:00 PM 4.37 39.866 0.116 7.26 2.51 12.96
11/2/2020 12:30:00 PM 4.42 39.956 0.116 7.26 2.55 12.95
11/2/2020 12:45:00 PM 4.49 40.082 0.116 7.26 2.48 12.95
11/2/2020 1:00:00 PM 4.53 40.154 0.116 7.26 2.48 12.92
11/2/2020 1:15:00 PM 4.54 40.172 0.116 7.26 2.48 12.91
11/2/2020 1:30:00 PM 4.55 40.19 0.116 7.26 2.46 12.89
11/2/2020 1:45:00 PM 4.58 40.244 0.116 7.26 2.5 12.89
11/2/2020 2:00:00 PM 4.59 40.262 0.115 7.26 2.48 12.88
11/2/2020 2:15:00 PM 4.6 40.28 0.115 7.26 2.43 12.88
11/2/2020 2:30:00 PM 4.65 40.37 0.115 7.26 2.43 12.88
11/2/2020 2:45:00 PM 4.69 40.442 0.115 7.26 2.42 12.87
11/2/2020 3:00:00 PM 4.71 40.478 0.115 7.26 2.41 12.86
11/2/2020 3:15:00 PM 4.74 40.532 0.115 7.26 2.4 12.84
11/2/2020 3:30:00 PM 4.73 40.514 0.115 7.26 2.44 12.83
11/2/2020 3:45:00 PM 4.73 40.514 0.114 7.27 2.48 12.82
11/2/2020 4:00:00 PM 4.74 40.532 0.114 7.26 2.44 12.81
11/2/2020 4:15:00 PM 4.74 40.532 0.114 7.27 2.4 12.8
11/2/2020 4:30:00 PM 4.72 40.496 0.114 7.26 2.47 12.78
11/2/2020 4:45:00 PM 4.7 40.46 0.114 7.26 2.39 12.75
11/2/2020 5:00:00 PM 4.67 40.406 0.114 7.25 2.48 12.73
11/2/2020 5:15:00 PM 4.64 40.352 0.114 7.25 2.44 12.7
11/2/2020 5:30:00 PM 4.61 40.298 0.114 7.24 2.43 12.69
11/2/2020 5:45:00 PM 4.57 40.226 0.114 7.24 2.48 12.67
11/2/2020 6:00:00 PM 4.54 40.172 0.114 7.23 2.45 12.66
11/2/2020 6:15:00 PM 4.52 40.136 0.114 7.23 2.42 12.65
11/2/2020 6:30:00 PM 4.49 40.082 0.114 7.22 2.48 12.65
11/2/2020 6:45:00 PM 4.47 40.046 0.114 7.22 2.41 12.64
11/2/2020 7:00:00 PM 4.44 39.992 0.114 7.22 2.47 12.65
11/2/2020 7:15:00 PM 4.42 39.956 0.114 7.22 2.45 12.65
11/2/2020 7:30:00 PM 4.39 39.902 0.114 7.21 2.47 12.64
11/2/2020 7:45:00 PM 4.36 39.848 0.114 7.21 2.43 12.65
11/2/2020 8:00:00 PM 4.33 39.794 0.114 7.21 2.39 12.65
11/2/2020 8:15:00 PM 4.29 39.722 0.114 7.21 2.42 12.66
11/2/2020 8:30:00 PM 4.23 39.614 0.114 7.21 2.4 12.67
11/2/2020 8:45:00 PM 4.17 39.506 0.114 7.21 2.45 12.68
11/2/2020 9:00:00 PM 4.13 39.434 0.114 7.2 2.44 12.7
11/2/2020 9:15:00 PM 4.07 39.326 0.114 7.2 2.46 12.71
11/2/2020 9:30:00 PM 4.03 39.254 0.114 7.2 2.51 12.72
11/2/2020 9:45:00 PM 4 39.2 0.114 7.2 2.42 12.73
11/2/2020 10:00:00 PM 3.97 39.146 0.114 7.2 2.54 12.73
11/2/2020 10:15:00 PM 3.95 39.11 0.114 7.2 2.48 12.74
11/2/2020 10:30:00 PM 3.92 39.056 0.114 7.2 2.47 12.76
11/2/2020 10:45:00 PM 3.89 39.002 0.114 7.2 2.47 12.77
11/2/2020 11:00:00 PM 3.86 38.948 0.114 7.2 2.52 12.78
11/2/2020 11:15:00 PM 3.83 38.894 0.113 7.2 2.43 12.8
11/2/2020 11:30:00 PM 3.8 38.84 0.113 7.2 2.5 12.81
11/2/2020 11:45:00 PM 3.78 38.804 0.113 7.19 2.4 12.82
11/3/2020 12:00:00 AM 3.76 38.768 0.113 7.19 2.46 12.83
11/3/2020 12:15:00 AM 3.72 38.696 0.113 7.19 2.49 12.84
11/3/2020 12:30:00 AM 3.67 38.606 0.113 7.19 2.49 12.85
11/3/2020 12:45:00 AM 3.63 38.534 0.113 7.19 2.43 12.86
11/3/2020 1:00:00 AM 3.6 38.48 0.113 7.19 2.47 12.87
11/3/2020 1:15:00 AM 3.57 38.426 0.113 7.19 2.48 12.89
11/3/2020 1:30:00 AM 3.54 38.372 0.113 7.19 2.48 12.9
11/3/2020 1:45:00 AM 3.5 38.3 0.113 7.19 2.52 12.91
11/3/2020 2:00:00 AM 3.47 38.246 0.113 7.19 2.49 12.92
11/3/2020 2:15:00 AM 3.44 38.192 0.113 7.19 2.48 12.93
11/3/2020 2:30:00 AM 3.4 38.12 0.113 7.19 2.43 12.94
11/3/2020 2:45:00 AM 3.37 38.066 0.113 7.19 2.46 12.96
11/3/2020 3:00:00 AM 3.34 38.012 0.113 7.19 2.4 12.97
11/3/2020 3:15:00 AM 3.3 37.94 0.113 7.19 2.4 12.99
11/3/2020 3:30:00 AM 3.27 37.886 0.113 7.19 2.41 13
11/3/2020 3:45:00 AM 3.24 37.832 0.113 7.19 2.44 13.01
11/3/2020 4:00:00 AM 3.21 37.778 0.113 7.19 2.35 13.03
11/3/2020 4:15:00 AM 3.19 37.742 0.113 7.19 2.4 13.03
11/3/2020 4:30:00 AM 3.16 37.688 0.114 7.19 2.38 13.04
11/3/2020 4:45:00 AM 3.13 37.634 0.114 7.19 2.4 13.05
11/3/2020 5:00:00 AM 3.1 37.58 0.114 7.19 2.31 13.06
11/3/2020 5:15:00 AM 3.07 37.526 0.114 7.19 2.38 13.08
11/3/2020 5:30:00 AM 3.05 37.49 0.114 7.19 2.34 13.09
11/3/2020 5:45:00 AM 3.02 37.436 0.114 7.18 2.36 13.1
11/3/2020 6:00:00 AM 2.98 37.364 0.114 7.18 2.35 13.12
11/3/2020 6:15:00 AM 2.95 37.31 0.114 7.18 2.29 13.13
11/3/2020 6:30:00 AM 2.92 37.256 0.114 7.18 2.26 13.15
11/3/2020 6:45:00 AM 2.89 37.202 0.114 7.18 2.26 13.16
11/3/2020 7:00:00 AM 2.86 37.148 0.115 7.18 2.25 13.18
11/3/2020 7:15:00 AM 2.84 37.112 0.115 7.18 2.26 13.21
11/3/2020 7:30:00 AM 2.83 37.094 0.115 7.19 2.26 13.24
11/3/2020 7:45:00 AM 2.81 37.058 0.115 7.19 2.25 13.26
11/3/2020 8:00:00 AM 2.81 37.058 0.115 7.19 2.25 13.29
11/3/2020 8:15:00 AM 2.82 37.076 0.115 7.19 2.19 13.31
11/3/2020 8:30:00 AM 2.85 37.13 0.115 7.2 2.19 13.34
11/3/2020 8:45:00 AM 2.89 37.202 0.116 7.2 2.2 13.35
11/3/2020 9:00:00 AM 2.93 37.274 0.116 7.21 2.21 13.37
11/3/2020 9:15:00 AM 2.98 37.364 0.116 7.21 2.21 13.36
11/3/2020 9:30:00 AM 3.04 37.472 0.116 7.22 2.16 13.37
11/3/2020 9:45:00 AM 3.11 37.598 0.116 7.22 2.18 13.38
11/3/2020 10:00:00 AM 3.18 37.724 0.116 7.22 2.18 13.37
11/3/2020 10:15:00 AM 3.26 37.868 0.117 7.22 2.19 13.36
11/3/2020 10:30:00 AM 3.35 38.03 0.117 7.23 2.16 13.36
11/3/2020 10:45:00 AM 3.43 38.174 0.117 7.23 2.16 13.34
11/3/2020 11:00:00 AM 3.55 38.39 0.117 7.23 2.15 13.33
11/3/2020 11:15:00 AM 3.67 38.606 0.117 7.23 2.2 13.3
11/3/2020 11:30:00 AM 3.78 38.804 0.117 7.23 2.14 13.27
11/3/2020 11:45:00 AM 3.9 39.02 0.117 7.24 2.1 13.24
11/3/2020 12:00:00 PM 4.02 39.236 0.117 7.24 2.12 13.2
11/3/2020 12:15:00 PM 4.15 39.47 0.118 7.24 2.11 13.17
11/3/2020 12:30:00 PM 4.27 39.686 0.118 7.24 2.13 13.13
11/3/2020 12:45:00 PM 4.34 39.812 0.118 7.24 2.18 13.1
11/3/2020 1:00:00 PM 4.48 40.064 0.118 7.24 2.2 13.06
11/3/2020 1:15:00 PM 4.63 40.334 0.118 7.25 2.19 13.02
11/3/2020 1:30:00 PM 4.77 40.586 0.118 7.25 2.15 12.99
11/3/2020 1:45:00 PM 4.86 40.748 0.118 7.25 2.18 12.96
11/3/2020 2:00:00 PM 4.94 40.892 0.118 7.25 2.16 12.92
11/3/2020 2:15:00 PM 5 41 0.118 7.25 2.18 12.88
11/3/2020 2:30:00 PM 5.02 41.036 0.118 7.25 2.19 12.84
11/3/2020 2:45:00 PM 5.07 41.126 0.118 7.25 2.19 12.79
11/3/2020 3:00:00 PM 5.19 41.342 0.118 7.25 2.22 12.77
11/3/2020 3:15:00 PM 5.29 41.522 0.118 7.25 2.27 12.72
11/3/2020 3:30:00 PM 5.32 41.576 0.118 7.25 2.22 12.68
11/3/2020 3:45:00 PM 5.36 41.648 0.118 7.25 2.21 12.65
11/3/2020 4:00:00 PM 5.42 41.756 0.118 7.25 2.28 12.62
11/3/2020 4:15:00 PM 5.46 41.828 0.118 7.25 2.26 12.59
11/3/2020 4:30:00 PM 5.46 41.828 0.118 7.24 2.18 12.54
11/3/2020 4:45:00 PM 5.46 41.828 0.118 7.24 2.2 12.51
11/3/2020 5:00:00 PM 5.46 41.828 0.119 7.23 2.27 12.47
11/3/2020 5:15:00 PM 5.45 41.81 0.119 7.22 2.19 12.44
11/3/2020 5:30:00 PM 5.45 41.81 0.119 7.22 2.24 12.41
11/3/2020 5:45:00 PM 5.44 41.792 0.119 7.21 2.27 12.39
11/3/2020 6:00:00 PM 5.43 41.774 0.119 7.2 2.32 12.37
11/3/2020 6:15:00 PM 5.41 41.738 0.119 7.2 2.26 12.36
11/3/2020 6:30:00 PM 5.4 41.72 0.119 7.19 2.32 12.35
11/3/2020 6:45:00 PM 5.37 41.666 0.119 7.19 2.28 12.35
11/3/2020 7:00:00 PM 5.35 41.63 0.119 7.19 2.3 12.35
11/3/2020 7:15:00 PM 5.31 41.558 0.119 7.18 2.31 12.36
11/3/2020 7:30:00 PM 5.28 41.504 0.119 7.18 2.32 12.36
11/3/2020 7:45:00 PM 5.23 41.414 0.119 7.18 2.29 12.37
11/3/2020 8:00:00 PM 5.19 41.342 0.119 7.18 2.31 12.38
11/3/2020 8:15:00 PM 5.15 41.27 0.119 7.18 2.27 12.39
11/3/2020 8:30:00 PM 5.1 41.18 0.119 7.18 2.31 12.41
11/3/2020 8:45:00 PM 5.06 41.108 0.119 7.18 2.17 12.42
11/3/2020 9:00:00 PM 5.01 41.018 0.119 7.17 2.11 12.44
11/3/2020 9:15:00 PM 4.97 40.946 0.119 7.17 2.3 12.45
11/3/2020 9:30:00 PM 4.92 40.856 0.119 7.17 2.3 12.47
11/3/2020 9:45:00 PM 4.87 40.766 0.119 7.17 2.31 12.48
11/3/2020 10:00:00 PM 4.82 40.676 0.119 7.17 2.33 12.5
11/3/2020 10:15:00 PM 4.77 40.586 0.119 7.17 2.31 12.52
11/3/2020 10:30:00 PM 4.72 40.496 0.119 7.17 2.26 12.54
11/3/2020 10:45:00 PM 4.67 40.406 0.119 7.17 2.27 12.56
11/3/2020 11:00:00 PM 4.62 40.316 0.119 7.17 2.28 12.57
11/3/2020 11:15:00 PM 4.56 40.208 0.119 7.17 2.33 12.6
11/3/2020 11:30:00 PM 4.51 40.118 0.119 7.17 1.94 12.62
11/3/2020 11:45:00 PM 4.46 40.028 0.119 7.17 1.89 12.64
11/4/2020 12:00:00 AM 4.4 39.92 0.119 7.17 1.88 12.67
11/4/2020 12:15:00 AM 4.35 39.83 0.119 7.17 1.91 12.68
11/4/2020 12:30:00 AM 4.29 39.722 0.119 7.17 1.86 12.71
11/4/2020 12:45:00 AM 4.24 39.632 0.119 7.17 1.93 12.73
11/4/2020 1:00:00 AM 4.18 39.524 0.119 7.17 1.87 12.75
11/4/2020 1:15:00 AM 4.13 39.434 0.119 7.17 1.91 12.78
11/4/2020 1:30:00 AM 4.08 39.344 0.119 7.17 1.84 12.79
11/4/2020 1:45:00 AM 4.03 39.254 0.119 7.17 1.85 12.81
11/4/2020 2:00:00 AM 3.98 39.164 0.119 7.17 1.88 12.83
11/4/2020 2:15:00 AM 3.93 39.074 0.119 7.17 1.91 12.85
11/4/2020 2:30:00 AM 3.88 38.984 0.119 7.17 1.87 12.87
11/4/2020 2:45:00 AM 3.83 38.894 0.119 7.17 1.87 12.89
11/4/2020 3:00:00 AM 3.78 38.804 0.119 7.17 2.38 12.91
11/4/2020 3:15:00 AM 3.74 38.732 0.12 7.17 1.82 12.93
11/4/2020 3:30:00 AM 3.69 38.642 0.12 7.17 1.91 12.95
11/4/2020 3:45:00 AM 3.64 38.552 0.12 7.17 1.86 12.97
11/4/2020 4:00:00 AM 3.6 38.48 0.12 7.17 1.78 12.99
11/4/2020 4:15:00 AM 3.55 38.39 0.12 7.17 1.78 13.01
11/4/2020 4:30:00 AM 3.52 38.336 0.12 7.17 1.83 13.02
11/4/2020 4:45:00 AM 3.5 38.3 0.12 7.17 1.79 13.04
11/4/2020 5:00:00 AM 3.49 38.282 0.12 7.17 1.8 13.05
11/4/2020 5:15:00 AM 3.47 38.246 0.12 7.17 1.81 13.06
11/4/2020 5:30:00 AM 3.44 38.192 0.12 7.17 1.81 13.08
11/4/2020 5:45:00 AM 3.43 38.174 0.12 7.17 1.82 13.09
11/4/2020 6:00:00 AM 3.4 38.12 0.121 7.18 1.81 13.1
11/4/2020 6:15:00 AM 3.38 38.084 0.121 7.18 1.83 13.12
11/4/2020 6:30:00 AM 3.34 38.012 0.121 7.17 1.83 13.13
11/4/2020 6:45:00 AM 3.29 37.922 0.121 7.17 1.82 13.14
11/4/2020 7:00:00 AM 3.24 37.832 0.121 7.17 1.81 13.16
11/4/2020 7:15:00 AM 3.2 37.76 0.121 7.17 1.81 13.18
11/4/2020 7:30:00 AM 3.17 37.706 0.121 7.18 1.78 13.22
11/4/2020 7:45:00 AM 3.15 37.67 0.121 7.18 1.88 13.24
11/4/2020 8:00:00 AM 3.13 37.634 0.121 7.19 1.74 13.28
11/4/2020 8:15:00 AM 3.12 37.616 0.121 7.19 1.77 13.31
11/4/2020 8:30:00 AM 3.14 37.652 0.121 7.19 1.78 13.33
11/4/2020 8:45:00 AM 3.16 37.688 0.121 7.2 1.7 13.36
11/4/2020 9:00:00 AM 3.19 37.742 0.121 7.2 1.77 13.38
11/4/2020 9:15:00 AM 3.22 37.796 0.121 7.21 1.76 13.39
11/4/2020 9:30:00 AM 3.26 37.868 0.122 7.21 1.7 13.39
11/4/2020 9:45:00 AM 3.32 37.976 0.122 7.21 1.74 13.4
11/4/2020 10:00:00 AM 3.39 38.102 0.122 7.22 1.71 13.4
11/4/2020 10:15:00 AM 3.46 38.228 0.122 7.22 1.71 13.4
11/4/2020 10:30:00 AM 3.55 38.39 0.122 7.23 1.73 13.39
11/4/2020 10:45:00 AM 3.65 38.57 0.122 7.23 1.73 13.38
11/4/2020 11:00:00 AM 3.75 38.75 0.122 7.23 1.69 13.36
11/4/2020 11:15:00 AM 3.86 38.948 0.122 7.23 1.72 13.35
11/4/2020 11:30:00 AM 3.98 39.164 0.122 7.24 1.71 13.32
11/4/2020 11:45:00 AM 4.11 39.398 0.122 7.24 1.68 13.29
11/4/2020 12:00:00 PM 4.25 39.65 0.122 7.24 1.73 13.26
11/4/2020 12:15:00 PM 4.41 39.938 0.122 7.25 1.71 13.21
11/4/2020 12:30:00 PM 4.56 40.208 0.122 7.25 1.68 13.17
11/4/2020 12:45:00 PM 4.7 40.46 0.122 7.26 1.69 13.12
11/4/2020 1:00:00 PM 4.84 40.712 0.122 7.26 1.67 13.07
11/4/2020 1:15:00 PM 4.99 40.982 0.122 7.26 1.69 13.02
11/4/2020 1:30:00 PM 5.13 41.234 0.122 7.26 1.68 12.98
11/4/2020 1:45:00 PM 5.25 41.45 0.122 7.26 1.67 12.94
11/4/2020 2:00:00 PM 5.35 41.63 0.122 7.26 1.68 12.89
11/4/2020 2:15:00 PM 5.44 41.792 0.122 7.27 1.7 12.84
11/4/2020 2:30:00 PM 5.52 41.936 0.122 7.27 1.7 12.8
11/4/2020 2:45:00 PM 5.58 42.044 0.122 7.27 1.7 12.76
11/4/2020 3:00:00 PM 5.66 42.188 0.122 7.27 1.74 12.72
11/4/2020 3:15:00 PM 5.73 42.314 0.122 7.27 1.65 12.67
11/4/2020 3:30:00 PM 5.8 42.44 0.122 7.27 1.69 12.63
11/4/2020 3:45:00 PM 5.86 42.548 0.122 7.26 1.72 12.58
11/4/2020 4:00:00 PM 5.91 42.638 0.122 7.26 1.65 12.54
11/4/2020 4:15:00 PM 5.95 42.71 0.122 7.26 1.71 12.49
11/4/2020 4:30:00 PM 5.98 42.764 0.122 7.25 1.7 12.44
11/4/2020 4:45:00 PM 6.01 42.818 0.122 7.25 1.72 12.4
11/4/2020 5:00:00 PM 6.03 42.854 0.122 7.24 1.74 12.35
11/4/2020 5:15:00 PM 6.05 42.89 0.122 7.23 1.72 12.31
11/4/2020 5:30:00 PM 6.06 42.908 0.122 7.23 1.72 12.27
11/4/2020 5:45:00 PM 6.07 42.926 0.122 7.22 1.75 12.24
11/4/2020 6:00:00 PM 6.08 42.944 0.122 7.21 1.86 12.21
11/4/2020 6:15:00 PM 6.08 42.944 0.122 7.2 1.78 12.2
11/4/2020 6:30:00 PM 6.09 42.962 0.122 7.2 1.77 12.17
11/4/2020 6:45:00 PM 6.09 42.962 0.122 7.2 1.77 12.16
11/4/2020 7:00:00 PM 6.09 42.962 0.122 7.19 1.79 12.15
11/4/2020 7:15:00 PM 6.08 42.944 0.122 7.19 1.8 12.15
11/4/2020 7:30:00 PM 6.07 42.926 0.122 7.19 1.83 12.14
11/4/2020 7:45:00 PM 6.05 42.89 0.122 7.18 1.85 12.14
11/4/2020 8:00:00 PM 6.03 42.854 0.122 7.18 1.92 12.15
11/4/2020 8:15:00 PM 6 42.8 0.122 7.18 1.84 12.15
11/4/2020 8:30:00 PM 5.96 42.728 0.122 7.18 1.85 12.16
11/4/2020 8:45:00 PM 5.92 42.656 0.123 7.18 1.91 12.17
11/4/2020 9:00:00 PM 5.88 42.584 0.123 7.17 1.84 12.19
11/4/2020 9:15:00 PM 5.83 42.494 0.123 7.17 1.83 12.2
11/4/2020 9:30:00 PM 5.78 42.404 0.123 7.17 1.81 12.21
11/4/2020 9:45:00 PM 5.74 42.332 0.123 7.17 1.9 12.23
11/4/2020 10:00:00 PM 5.69 42.242 0.123 7.17 1.77 12.24
11/4/2020 10:15:00 PM 5.65 42.17 0.123 7.17 1.82 12.26
11/4/2020 10:30:00 PM 5.6 42.08 0.123 7.17 1.78 12.28
11/4/2020 10:45:00 PM 5.55 41.99 0.123 7.17 1.79 12.29
11/4/2020 11:00:00 PM 5.5 41.9 0.123 7.17 1.79 12.31
11/4/2020 11:15:00 PM 5.45 41.81 0.123 7.17 1.76 12.32
11/4/2020 11:30:00 PM 5.4 41.72 0.123 7.17 1.73 12.34
11/4/2020 11:45:00 PM 5.35 41.63 0.123 7.17 1.72 12.36
11/5/2020 12:00:00 AM 5.3 41.54 0.123 7.17 1.78 12.38
11/5/2020 12:15:00 AM 5.24 41.432 0.123 7.17 1.75 12.4
11/5/2020 12:30:00 AM 5.18 41.324 0.123 7.18 1.73 12.42
11/5/2020 12:45:00 AM 5.12 41.216 0.123 7.17 1.72 12.44
11/5/2020 1:00:00 AM 5.06 41.108 0.123 7.17 1.77 12.46
11/5/2020 1:15:00 AM 5 41 0.123 7.18 1.85 12.49
11/5/2020 1:30:00 AM 4.94 40.892 0.123 7.18 1.71 12.51
11/5/2020 1:45:00 AM 4.88 40.784 0.123 7.17 1.77 12.54
11/5/2020 2:00:00 AM 4.82 40.676 0.123 7.18 1.74 12.56
11/5/2020 2:15:00 AM 4.76 40.568 0.123 7.18 1.83 12.58
11/5/2020 2:30:00 AM 4.7 40.46 0.124 7.17 1.91 12.59
11/5/2020 2:45:00 AM 4.64 40.352 0.124 7.18 1.73 12.62
11/5/2020 3:00:00 AM 4.58 40.244 0.124 7.18 1.73 12.63
11/5/2020 3:15:00 AM 4.53 40.154 0.124 7.18 1.75 12.66
11/5/2020 3:30:00 AM 4.47 40.046 0.124 7.17 60.18 12.68
11/5/2020 3:45:00 AM 4.42 39.956 0.124 7.18 54.37 12.69
11/5/2020 4:00:00 AM 4.37 39.866 0.124 7.18 91.38 12.72
11/5/2020 4:15:00 AM 4.31 39.758 0.124 7.18 49.04 12.75
11/5/2020 4:30:00 AM 4.26 39.668 0.124 7.18 16.58 12.77
11/5/2020 4:45:00 AM 4.21 39.578 0.124 7.18 1.73 12.78
11/5/2020 5:00:00 AM 4.16 39.488 0.124 7.17 1.82 12.8
11/5/2020 5:15:00 AM 4.12 39.416 0.124 7.17 1.83 12.82
11/5/2020 5:30:00 AM 4.09 39.362 0.124 7.17 1.83 12.84
11/5/2020 5:45:00 AM 4.04 39.272 0.124 7.17 1.85 12.85
11/5/2020 6:00:00 AM 3.99 39.182 0.124 7.17 1.8 12.87
11/5/2020 6:15:00 AM 3.95 39.11 0.124 7.17 1.84 12.89
11/5/2020 6:30:00 AM 3.91 39.038 0.124 7.17 1.83 12.9
11/5/2020 6:45:00 AM 3.87 38.966 0.124 7.17 1.82 12.92
11/5/2020 7:00:00 AM 3.83 38.894 0.124 7.17 1.82 12.94
11/5/2020 7:15:00 AM 3.8 38.84 0.124 7.17 1.78 12.97
11/5/2020 7:30:00 AM 3.77 38.786 0.124 7.17 1.75 13.01
11/5/2020 7:45:00 AM 3.76 38.768 0.124 7.18 1.81 13.05
11/5/2020 8:00:00 AM 3.75 38.75 0.124 7.19 1.81 13.08
11/5/2020 8:15:00 AM 3.76 38.768 0.124 7.19 1.77 13.12
11/5/2020 8:30:00 AM 3.78 38.804 0.124 7.2 1.75 13.15
11/5/2020 8:45:00 AM 3.83 38.894 0.124 7.2 1.75 13.17
11/5/2020 9:00:00 AM 3.84 38.912 0.124 7.21 1.77 13.19
11/5/2020 9:15:00 AM 3.86 38.948 0.124 7.22 1.76 13.21
11/5/2020 9:30:00 AM 3.89 39.002 0.124 7.22 1.73 13.22
11/5/2020 9:45:00 AM 3.93 39.074 0.124 7.23 1.71 13.23
11/5/2020 10:00:00 AM 3.98 39.164 0.124 7.23 1.73 13.23
11/5/2020 10:15:00 AM 4.05 39.29 0.124 7.24 1.67 13.24
11/5/2020 10:30:00 AM 4.18 39.524 0.124 7.24 1.65 13.24
11/5/2020 10:45:00 AM 4.32 39.776 0.124 7.25 1.72 13.22
11/5/2020 11:00:00 AM 4.41 39.938 0.124 7.25 1.71 13.21
11/5/2020 11:15:00 AM 4.49 40.082 0.123 7.25 1.71 13.19
11/5/2020 11:30:00 AM 4.61 40.298 0.123 7.26 1.69 13.17
11/5/2020 11:45:00 AM 4.75 40.55 0.123 7.26 1.72 13.14
11/5/2020 12:00:00 PM 4.85 40.73 0.123 7.26 1.7 13.11
11/5/2020 12:15:00 PM 4.97 40.946 0.123 7.26 1.69 13.08
11/5/2020 12:30:00 PM 5.08 41.144 0.123 7.27 1.73 13.05
11/5/2020 12:45:00 PM 5.21 41.378 0.123 7.27 1.69 13
11/5/2020 1:00:00 PM 5.34 41.612 0.123 7.27 1.67 12.97
11/5/2020 1:15:00 PM 5.48 41.864 0.123 7.27 1.72 12.93
11/5/2020 1:30:00 PM 5.62 42.116 0.123 7.28 1.71 12.89
11/5/2020 1:45:00 PM 5.75 42.35 0.123 7.28 1.72 12.85
11/5/2020 2:00:00 PM 5.92 42.656 0.122 7.28 1.69 12.8
11/5/2020 2:15:00 PM 6.06 42.908 0.122 7.29 1.71 12.74
11/5/2020 2:30:00 PM 6.15 43.07 0.122 7.29 1.7 12.69
11/5/2020 2:45:00 PM 6.21 43.178 0.122 7.29 1.73 12.64
11/5/2020 3:00:00 PM 6.25 43.25 0.122 7.29 1.69 12.6
11/5/2020 3:15:00 PM 6.31 43.358 0.122 7.29 1.72 12.56
11/5/2020 3:30:00 PM 6.37 43.466 0.122 7.29 1.73 12.51
11/5/2020 3:45:00 PM 6.39 43.502 0.122 7.28 1.69 12.47
11/5/2020 4:00:00 PM 6.39 43.502 0.122 7.28 1.73 12.42
11/5/2020 4:15:00 PM 6.4 43.52 0.122 7.27 1.74 12.38
11/5/2020 4:30:00 PM 6.42 43.556 0.122 7.27 1.78 12.34
11/5/2020 4:45:00 PM 6.43 43.574 0.122 7.26 1.75 12.32
11/5/2020 5:00:00 PM 6.43 43.574 0.122 7.26 1.77 12.27
11/5/2020 5:15:00 PM 6.41 43.538 0.122 7.25 1.77 12.22
11/5/2020 5:30:00 PM 6.38 43.484 0.122 7.24 1.91 12.19
11/5/2020 5:45:00 PM 6.36 43.448 0.122 7.23 1.82 12.16
11/5/2020 6:00:00 PM 6.35 43.43 0.122 7.22 1.84 12.14
11/5/2020 6:15:00 PM 6.34 43.412 0.122 7.21 1.83 12.12
11/5/2020 6:30:00 PM 6.34 43.412 0.122 7.2 1.8 12.11
11/5/2020 6:45:00 PM 6.35 43.43 0.122 7.2 1.85 12.1
11/5/2020 7:00:00 PM 6.34 43.412 0.122 7.19 1.92 12.08
11/5/2020 7:15:00 PM 6.34 43.412 0.122 7.19 1.8 12.08
11/5/2020 7:30:00 PM 6.34 43.412 0.122 7.18 1.89 12.07
11/5/2020 7:45:00 PM 6.33 43.394 0.122 7.18 1.86 12.07
11/5/2020 8:00:00 PM 6.32 43.376 0.122 7.17 1.8 12.06
11/5/2020 8:15:00 PM 6.31 43.358 0.122 7.17 1.81 12.06
11/5/2020 8:30:00 PM 6.3 43.34 0.122 7.17 1.82 12.06
11/5/2020 8:45:00 PM 6.28 43.304 0.122 7.17 1.81 12.06
11/5/2020 9:00:00 PM 6.27 43.286 0.122 7.17 1.83 12.07
11/5/2020 9:15:00 PM 6.24 43.232 0.122 7.16 1.8 12.07
11/5/2020 9:30:00 PM 6.22 43.196 0.122 7.16 1.83 12.07
11/5/2020 9:45:00 PM 6.2 43.16 0.122 7.16 1.84 12.08
11/5/2020 10:00:00 PM 6.18 43.124 0.122 7.16 1.84 12.09
11/5/2020 10:15:00 PM 6.17 43.106 0.122 7.16 1.88 12.09
11/5/2020 10:30:00 PM 6.16 43.088 0.122 7.15 1.79 12.1
11/5/2020 10:45:00 PM 6.14 43.052 0.122 7.15 1.82 12.1
11/5/2020 11:00:00 PM 6.13 43.034 0.122 7.15 1.85 12.11
11/5/2020 11:15:00 PM 6.1 42.98 0.122 7.15 1.84 12.11
11/5/2020 11:30:00 PM 6.08 42.944 0.122 7.15 1.81 12.12
11/5/2020 11:45:00 PM 6.05 42.89 0.122 7.15 1.81 12.13
11/6/2020 12:00:00 AM 6.04 42.872 0.122 7.15 1.75 12.13
11/6/2020 12:15:00 AM 6.03 42.854 0.122 7.15 1.75 12.14
11/6/2020 12:30:00 AM 6.03 42.854 0.122 7.15 1.8 12.14
11/6/2020 12:45:00 AM 6.02 42.836 0.122 7.15 1.76 12.14
11/6/2020 1:00:00 AM 6.02 42.836 0.122 7.15 1.78 12.15
11/6/2020 1:15:00 AM 6.01 42.818 0.122 7.15 1.59 12.15
11/6/2020 1:30:00 AM 5.99 42.782 0.122 7.15 1.57 12.15
11/6/2020 1:45:00 AM 5.97 42.746 0.122 7.15 15.82 12.16
11/6/2020 2:00:00 AM 5.95 42.71 0.122 7.16 1.88 12.17
11/6/2020 2:15:00 AM 5.92 42.656 0.122 7.16 1.94 12.18
11/6/2020 2:30:00 AM 5.88 42.584 0.122 7.16 1.97 12.19
11/6/2020 2:45:00 AM 5.84 42.512 0.122 7.16 1.98 12.2
11/6/2020 3:00:00 AM 5.79 42.422 0.122 7.16 1.87 12.21
11/6/2020 3:15:00 AM 5.75 42.35 0.122 7.16 1.85 12.21
11/6/2020 3:30:00 AM 5.69 42.242 0.123 7.16 1.94 12.24
11/6/2020 3:45:00 AM 5.63 42.134 0.122 7.16 1.88 12.25
11/6/2020 4:00:00 AM 5.58 42.044 0.122 7.16 1.9 12.27
11/6/2020 4:15:00 AM 5.52 41.936 0.122 7.16 1.82 12.28
11/6/2020 4:30:00 AM 5.47 41.846 0.123 7.16 1.84 12.3
11/6/2020 4:45:00 AM 5.41 41.738 0.123 7.16 1.81 12.31
11/6/2020 5:00:00 AM 5.36 41.648 0.123 7.17 1.8 12.33
11/6/2020 5:15:00 AM 5.31 41.558 0.123 7.17 1.86 12.35
11/6/2020 5:30:00 AM 5.27 41.486 0.123 7.16 1.85 12.37
11/6/2020 5:45:00 AM 5.23 41.414 0.122 7.17 15.74 12.39
11/6/2020 6:00:00 AM 5.2 41.36 0.088 7.17 1.71 12.4
11/6/2020 6:15:00 AM 5.18 41.324 0.123 7.17 3.31 12.41
11/6/2020 6:30:00 AM 5.16 41.288 0.123 7.17 1.64 12.42
11/6/2020 6:45:00 AM 5.13 41.234 0.123 7.17 1.56 12.43
11/6/2020 7:00:00 AM 5.1 41.18 0.123 7.17 1.51 12.45
11/6/2020 7:15:00 AM 5.08 41.144 0.123 7.17 1.48 12.47
11/6/2020 7:30:00 AM 5.07 41.126 0.122 7.17 1.55 12.51
11/6/2020 7:45:00 AM 5.06 41.108 0.122 7.18 1.5 12.56
11/6/2020 8:00:00 AM 5.06 41.108 0.122 7.19 1.49 12.6
11/6/2020 8:15:00 AM 5.07 41.126 0.122 7.19 1.54 12.64
11/6/2020 8:30:00 AM 5.07 41.126 0.122 7.2 1.44 12.68
11/6/2020 8:45:00 AM 5.1 41.18 0.122 7.21 1.5 12.72
11/6/2020 9:00:00 AM 5.13 41.234 0.122 7.22 1.48 12.75
11/6/2020 9:15:00 AM 5.15 41.27 0.122 7.22 1.45 12.76
11/6/2020 9:30:00 AM 5.17 41.306 0.122 7.23 1.44 12.78
11/6/2020 9:45:00 AM 5.22 41.396 0.122 7.23 1.44 12.79
11/6/2020 10:00:00 AM 5.29 41.522 0.122 7.23 1.43 12.8
11/6/2020 10:15:00 AM 5.37 41.666 0.122 7.24 1.46 12.8
11/6/2020 10:30:00 AM 5.46 41.828 0.122 7.24 1.42 12.79
11/6/2020 10:45:00 AM 5.55 41.99 0.122 7.25 1.44 12.79
11/6/2020 11:00:00 AM 5.65 42.17 0.122 7.25 1.41 12.78
11/6/2020 11:15:00 AM 5.76 42.368 0.122 7.26 1.42 12.76
11/6/2020 11:30:00 AM 5.87 42.566 0.121 7.26 1.45 12.75
11/6/2020 11:45:00 AM 5.97 42.746 0.121 7.27 1.46 12.72
11/6/2020 12:00:00 PM 6.09 42.962 0.121 7.26 1.38 12.7
11/6/2020 12:15:00 PM 6.23 43.214 0.121 7.26 1.44 12.66
11/6/2020 12:30:00 PM 6.36 43.448 0.121 7.28 1.41 12.63
11/6/2020 12:45:00 PM 6.51 43.718 0.121 7.28 1.41 12.59
11/6/2020 1:00:00 PM 6.64 43.952 0.121 7.29 1.34 12.55
11/6/2020 1:15:00 PM 6.78 44.204 0.121 7.29 1.39 12.51
11/6/2020 1:30:00 PM 6.91 44.438 0.121 7.29 1.41 12.47
11/6/2020 1:45:00 PM 7.02 44.636 0.121 7.3 1.36 12.42
11/6/2020 2:00:00 PM 7.11 44.798 0.121 7.3 1.37 12.39
11/6/2020 2:15:00 PM 7.17 44.906 0.121 7.3 1.36 12.35
11/6/2020 2:30:00 PM 7.23 45.014 0.121 7.31 1.43 12.31
11/6/2020 2:45:00 PM 7.29 45.122 0.121 7.31 1.41 12.27
11/6/2020 3:00:00 PM 7.35 45.23 0.121 7.31 1.39 12.23
11/6/2020 3:15:00 PM 7.4 45.32 0.121 7.31 1.41 12.19
11/6/2020 3:30:00 PM 7.44 45.392 0.121 7.31 1.35 12.15
11/6/2020 3:45:00 PM 7.47 45.446 0.121 7.31 1.46 12.12
11/6/2020 4:00:00 PM 7.48 45.464 0.121 7.31 1.44 12.08
11/6/2020 4:15:00 PM 7.49 45.482 0.121 7.3 1.41 12.03
11/6/2020 4:30:00 PM 7.49 45.482 0.121 7.29 1.44 11.98
11/6/2020 4:45:00 PM 7.48 45.464 0.121 7.28 1.48 11.94
11/6/2020 5:00:00 PM 7.47 45.446 0.121 7.27 1.5 11.89
11/6/2020 5:15:00 PM 7.47 45.446 0.121 7.26 1.42 11.85
11/6/2020 5:30:00 PM 7.47 45.446 0.121 7.24 1.46 11.8
11/6/2020 5:45:00 PM 7.46 45.428 0.121 7.24 1.48 11.77
11/6/2020 6:00:00 PM 7.46 45.428 0.121 7.22 1.52 11.75
11/6/2020 6:15:00 PM 7.46 45.428 0.121 7.22 1.5 11.72
11/6/2020 6:30:00 PM 7.45 45.41 0.121 7.21 1.46 11.71
11/6/2020 6:45:00 PM 7.44 45.392 0.121 7.21 1.52 11.7
11/6/2020 7:00:00 PM 7.42 45.356 0.121 7.2 1.5 11.69
11/6/2020 7:15:00 PM 7.41 45.338 0.121 7.2 1.53 11.69
11/6/2020 7:30:00 PM 7.39 45.302 0.121 7.19 1.5 11.68
11/6/2020 7:45:00 PM 7.37 45.266 0.121 7.19 1.53 11.68
11/6/2020 8:00:00 PM 7.35 45.23 0.121 7.19 1.5 11.67
11/6/2020 8:15:00 PM 7.33 45.194 0.121 7.18 1.46 11.68
11/6/2020 8:30:00 PM 7.31 45.158 0.121 7.18 1.48 11.68
11/6/2020 8:45:00 PM 7.28 45.104 0.121 7.18 1.5 11.68
11/6/2020 9:00:00 PM 7.25 45.05 0.121 7.18 1.48 11.69
11/6/2020 9:15:00 PM 7.21 44.978 0.121 7.18 1.46 11.7
11/6/2020 9:30:00 PM 7.17 44.906 0.121 7.18 1.52 11.72
11/6/2020 9:45:00 PM 7.12 44.816 0.121 7.18 1.54 11.73
11/6/2020 10:00:00 PM 7.08 44.744 0.121 7.18 1.53 11.74
11/6/2020 10:15:00 PM 7.02 44.636 0.121 7.18 1.53 11.76
11/6/2020 10:30:00 PM 6.97 44.546 0.121 7.18 1.58 11.77
11/6/2020 10:45:00 PM 6.92 44.456 0.121 7.18 1.54 11.79
11/6/2020 11:00:00 PM 6.87 44.366 0.121 7.17 1.55 11.8
11/6/2020 11:15:00 PM 6.81 44.258 0.121 7.16 1.54 11.83
11/6/2020 11:30:00 PM 6.75 44.15 0.121 7.16 1.55 11.85
11/6/2020 11:45:00 PM 6.7 44.06 0.121 7.15 1.52 11.87
11/7/2020 12:00:00 AM 6.64 43.952 0.121 7.15 1.58 11.89
11/7/2020 12:15:00 AM 6.59 43.862 0.121 7.15 1.66 11.9
11/7/2020 12:30:00 AM 6.53 43.754 0.121 7.15 1.56 11.92
11/7/2020 12:45:00 AM 6.48 43.664 0.121 7.15 1.59 11.94
11/7/2020 1:00:00 AM 6.42 43.556 0.121 7.15 1.56 11.96
11/7/2020 1:15:00 AM 6.37 43.466 0.121 7.16 1.54 11.97
11/7/2020 1:30:00 AM 6.31 43.358 0.121 7.16 1.53 12
11/7/2020 1:45:00 AM 6.26 43.268 0.121 7.17 1.53 12.02
11/7/2020 2:00:00 AM 6.2 43.16 0.121 7.17 1.57 12.03
11/7/2020 2:15:00 AM 6.14 43.052 0.121 7.17 1.56 12.05
11/7/2020 2:30:00 AM 6.09 42.962 0.122 7.17 1.54 12.07
11/7/2020 2:45:00 AM 6.04 42.872 0.122 7.17 1.55 12.09
11/7/2020 3:00:00 AM 5.98 42.764 0.122 7.17 1.56 12.11
11/7/2020 3:15:00 AM 5.92 42.656 0.122 7.17 1.54 12.14
11/7/2020 3:30:00 AM 5.86 42.548 0.122 7.17 1.52 12.16
11/7/2020 3:45:00 AM 5.8 42.44 0.122 7.16 1.53 12.18
11/7/2020 4:00:00 AM 5.74 42.332 0.122 7.16 1.57 12.2
11/7/2020 4:15:00 AM 5.68 42.224 0.122 7.16 1.52 12.22
11/7/2020 4:30:00 AM 5.62 42.116 0.122 7.16 1.5 12.25
11/7/2020 4:45:00 AM 5.56 42.008 0.122 7.16 1.51 12.26
11/7/2020 5:00:00 AM 5.5 41.9 0.122 7.17 1.53 12.28
11/7/2020 5:15:00 AM 5.44 41.792 0.122 7.17 1.48 12.31
11/7/2020 5:30:00 AM 5.38 41.684 0.122 7.17 1.46 12.33
11/7/2020 5:45:00 AM 5.32 41.576 0.122 7.17 1.44 12.35
11/7/2020 6:00:00 AM 5.26 41.468 0.122 7.17 1.41 12.37
11/7/2020 6:15:00 AM 5.21 41.378 0.122 7.17 1.42 12.39
11/7/2020 6:30:00 AM 5.14 41.252 0.122 7.17 1.44 12.42
11/7/2020 6:45:00 AM 5.09 41.162 0.122 7.18 1.43 12.44
11/7/2020 7:00:00 AM 5.05 41.09 0.122 7.18 1.39 12.46
11/7/2020 7:15:00 AM 5.03 41.054 0.122 7.18 1.42 12.49
11/7/2020 7:30:00 AM 5.01 41.018 0.122 7.17 1.38 12.53
11/7/2020 7:45:00 AM 5.01 41.018 0.122 7.17 1.41 12.58
11/7/2020 8:00:00 AM 5.01 41.018 0.122 7.17 1.37 12.63
11/7/2020 8:15:00 AM 5.03 41.054 0.122 7.18 1.39 12.68
11/7/2020 8:30:00 AM 5.05 41.09 0.122 7.19 1.35 12.73
11/7/2020 8:45:00 AM 5.06 41.108 0.122 7.2 1.32 12.78
11/7/2020 9:00:00 AM 5.08 41.144 0.122 7.22 1.36 12.81
11/7/2020 9:15:00 AM 5.13 41.234 0.122 7.23 1.35 12.84
11/7/2020 9:30:00 AM 5.14 41.252 0.122 7.23 1.37 12.85
11/7/2020 9:45:00 AM 5.17 41.306 0.122 7.23 1.34 12.86
11/7/2020 10:00:00 AM 5.23 41.414 0.121 7.24 1.33 12.87
11/7/2020 10:15:00 AM 5.31 41.558 0.121 7.25 1.34 12.88
11/7/2020 10:30:00 AM 5.4 41.72 0.121 7.25 1.33 12.87
11/7/2020 10:45:00 AM 5.49 41.882 0.121 7.26 1.37 12.87
11/7/2020 11:00:00 AM 5.6 42.08 0.121 7.26 1.34 12.85
11/7/2020 11:15:00 AM 5.71 42.278 0.121 7.27 1.33 12.84
11/7/2020 11:30:00 AM 5.81 42.458 0.121 7.27 1.37 12.82
11/7/2020 11:45:00 AM 5.91 42.638 0.121 7.27 1.34 12.8
11/7/2020 12:00:00 PM 6.01 42.818 0.121 7.28 1.32 12.78
11/7/2020 12:15:00 PM 6.11 42.998 0.121 7.28 1.36 12.76
11/7/2020 12:30:00 PM 6.21 43.178 0.121 7.28 1.34 12.73
11/7/2020 12:45:00 PM 6.32 43.376 0.121 7.29 1.31 12.7
11/7/2020 1:00:00 PM 6.48 43.664 0.121 7.3 1.31 12.66
11/7/2020 1:15:00 PM 6.64 43.952 0.12 7.3 1.36 12.62
11/7/2020 1:30:00 PM 6.78 44.204 0.12 7.31 1.39 12.58
11/7/2020 1:45:00 PM 6.87 44.366 0.12 7.31 1.36 12.53
11/7/2020 2:00:00 PM 6.93 44.474 0.12 7.32 1.32 12.5
11/7/2020 2:15:00 PM 6.98 44.564 0.12 7.31 1.35 12.45
11/7/2020 2:30:00 PM 7.02 44.636 0.12 7.31 1.33 12.42
11/7/2020 2:45:00 PM 7.05 44.69 0.12 7.31 1.36 12.39
11/7/2020 3:00:00 PM 7.09 44.762 0.12 7.31 1.34 12.36
11/7/2020 3:15:00 PM 7.15 44.87 0.12 7.32 1.33 12.34
11/7/2020 3:30:00 PM 7.26 45.068 0.12 7.32 1.37 12.31
11/7/2020 3:45:00 PM 7.38 45.284 0.12 7.32 1.4 12.27
11/7/2020 4:00:00 PM 7.43 45.374 0.12 7.32 1.45 12.22
11/7/2020 4:15:00 PM 7.44 45.392 0.12 7.32 1.35 12.18
11/7/2020 4:30:00 PM 7.45 45.41 0.12 7.31 1.38 12.12
11/7/2020 4:45:00 PM 7.44 45.392 0.12 7.3 1.39 12.06
11/7/2020 5:00:00 PM 7.42 45.356 0.12 7.29 1.36 12
11/7/2020 5:15:00 PM 7.39 45.302 0.12 7.27 1.42 11.95
11/7/2020 5:30:00 PM 7.37 45.266 0.12 7.26 1.44 11.89
11/7/2020 5:45:00 PM 7.36 45.248 0.12 7.24 1.38 11.85
11/7/2020 6:00:00 PM 7.34 45.212 0.12 7.24 1.43 11.82
11/7/2020 6:15:00 PM 7.33 45.194 0.12 7.23 1.42 11.8
11/7/2020 6:30:00 PM 7.31 45.158 0.12 7.22 1.43 11.79
11/7/2020 6:45:00 PM 7.29 45.122 0.12 7.21 1.44 11.77
11/7/2020 7:00:00 PM 7.27 45.086 0.12 7.21 1.42 11.77
11/7/2020 7:15:00 PM 7.24 45.032 0.12 7.2 1.43 11.76
11/7/2020 7:30:00 PM 7.21 44.978 0.12 7.19 1.43 11.76
11/7/2020 7:45:00 PM 7.19 44.942 0.12 7.19 1.42 11.75
11/7/2020 8:00:00 PM 7.16 44.888 0.12 7.19 1.44 11.75
11/7/2020 8:15:00 PM 7.13 44.834 0.12 7.19 1.42 11.75
11/7/2020 8:30:00 PM 7.1 44.78 0.12 7.19 1.43 11.75
11/7/2020 8:45:00 PM 7.06 44.708 0.12 7.18 1.51 11.76
11/7/2020 9:00:00 PM 7.03 44.654 0.121 7.18 1.57 11.77
11/7/2020 9:15:00 PM 6.99 44.582 0.121 7.18 1.58 11.78
11/7/2020 9:30:00 PM 6.95 44.51 0.121 7.18 1.6 11.79
11/7/2020 9:45:00 PM 6.91 44.438 0.121 7.18 1.54 11.8
11/7/2020 10:00:00 PM 6.86 44.348 0.121 7.17 1.51 11.82
11/7/2020 10:15:00 PM 6.81 44.258 0.121 7.17 1.5 11.83
11/7/2020 10:30:00 PM 6.76 44.168 0.121 7.17 1.5 11.85
11/7/2020 10:45:00 PM 6.7 44.06 0.121 7.17 1.49 11.87
11/7/2020 11:00:00 PM 6.64 43.952 0.121 7.17 1.45 11.88
11/7/2020 11:15:00 PM 6.58 43.844 0.121 7.17 1.44 11.9
11/7/2020 11:30:00 PM 6.52 43.736 0.121 7.17 1.46 11.92
11/7/2020 11:45:00 PM 6.46 43.628 0.121 7.16 1.46 11.95
11/8/2020 12:00:00 AM 6.4 43.52 0.121 7.16 1.42 11.96
11/8/2020 12:15:00 AM 6.34 43.412 0.121 7.16 1.43 11.98
11/8/2020 12:30:00 AM 6.28 43.304 0.121 7.16 1.4 12.01
11/8/2020 12:45:00 AM 6.22 43.196 0.121 7.17 1.44 12.03
11/8/2020 1:00:00 AM 6.15 43.07 0.121 7.17 1.43 12.05
11/8/2020 1:15:00 AM 6.1 42.98 0.121 7.17 1.43 12.07
11/8/2020 1:30:00 AM 6.04 42.872 0.121 7.17 1.39 12.09
11/8/2020 1:45:00 AM 5.97 42.746 0.121 7.16 1.41 12.11
11/8/2020 2:00:00 AM 5.91 42.638 0.121 7.16 1.37 12.13
11/8/2020 2:15:00 AM 5.85 42.53 0.121 7.16 1.41 12.15
11/8/2020 2:30:00 AM 5.79 42.422 0.121 7.16 1.43 12.18
11/8/2020 2:45:00 AM 5.73 42.314 0.121 7.16 1.39 12.2
11/8/2020 3:00:00 AM 5.67 42.206 0.121 7.17 1.41 12.22
11/8/2020 3:15:00 AM 5.61 42.098 0.121 7.17 1.37 12.24
11/8/2020 3:30:00 AM 5.55 41.99 0.121 7.17 1.39 12.27
11/8/2020 3:45:00 AM 5.49 41.882 0.121 7.16 1.39 12.29
11/8/2020 4:00:00 AM 5.43 41.774 0.121 7.17 1.35 12.31
11/8/2020 4:15:00 AM 5.37 41.666 0.121 7.17 1.37 12.33
11/8/2020 4:30:00 AM 5.31 41.558 0.121 7.17 1.4 12.35
11/8/2020 4:45:00 AM 5.25 41.45 0.121 7.17 1.38 12.37
11/8/2020 5:00:00 AM 5.19 41.342 0.121 7.17 1.43 12.39
11/8/2020 5:15:00 AM 5.13 41.234 0.121 7.17 1.41 12.42
11/8/2020 5:30:00 AM 5.07 41.126 0.121 7.17 1.4 12.44
11/8/2020 5:45:00 AM 5.01 41.018 0.121 7.17 1.41 12.47
11/8/2020 6:00:00 AM 4.95 40.91 0.122 7.17 1.39 12.5
11/8/2020 6:15:00 AM 4.89 40.802 0.122 7.17 1.34 12.52
11/8/2020 6:30:00 AM 4.84 40.712 0.122 7.17 1.42 12.54
11/8/2020 6:45:00 AM 4.78 40.604 0.122 7.17 1.41 12.56
11/8/2020 7:00:00 AM 4.72 40.496 0.122 7.17 1.36 12.59
11/8/2020 7:15:00 AM 4.67 40.406 0.122 7.17 1.41 12.63
11/8/2020 7:30:00 AM 4.62 40.316 0.122 7.17 1.37 12.69
11/8/2020 7:45:00 AM 4.58 40.244 0.122 7.18 1.4 12.74
11/8/2020 8:00:00 AM 4.55 40.19 0.122 7.19 1.33 12.8
11/8/2020 8:15:00 AM 4.53 40.154 0.122 7.2 1.39 12.85
11/8/2020 8:30:00 AM 4.54 40.172 0.122 7.21 1.34 12.9
11/8/2020 8:45:00 AM 4.56 40.208 0.121 7.22 1.39 12.95
11/8/2020 9:00:00 AM 4.6 40.28 0.121 7.23 1.33 12.99
11/8/2020 9:15:00 AM 4.64 40.352 0.121 7.23 1.31 13.02
11/8/2020 9:30:00 AM 4.69 40.442 0.121 7.24 1.36 13.04
11/8/2020 9:45:00 AM 4.75 40.55 0.121 7.25 1.35 13.05
11/8/2020 10:00:00 AM 4.82 40.676 0.121 7.26 1.31 13.07
11/8/2020 10:15:00 AM 4.91 40.838 0.121 7.27 1.32 13.07
11/8/2020 10:30:00 AM 5.02 41.036 0.121 7.28 1.3 13.06
11/8/2020 10:45:00 AM 5.13 41.234 0.121 7.28 1.3 13.06
11/8/2020 11:00:00 AM 5.25 41.45 0.121 7.28 1.31 13.05
11/8/2020 11:15:00 AM 5.36 41.648 0.121 7.28 1.29 13.03
11/8/2020 11:30:00 AM 5.48 41.864 0.121 7.29 1.33 13.01
11/8/2020 11:45:00 AM 5.59 42.062 0.121 7.29 1.28 12.99
11/8/2020 12:00:00 PM 5.7 42.26 0.121 7.3 1.31 12.97
11/8/2020 12:15:00 PM 5.82 42.476 0.121 7.3 1.28 12.94
11/8/2020 12:30:00 PM 5.92 42.656 0.12 7.3 1.26 12.92
11/8/2020 12:45:00 PM 6.02 42.836 0.12 7.31 1.3 12.89
11/8/2020 1:00:00 PM 6.13 43.034 0.12 7.31 1.29 12.85
11/8/2020 1:15:00 PM 6.25 43.25 0.12 7.31 1.35 12.82
11/8/2020 1:30:00 PM 6.36 43.448 0.12 7.32 1.28 12.78
11/8/2020 1:45:00 PM 6.47 43.646 0.12 7.32 1.28 12.74
11/8/2020 2:00:00 PM 6.56 43.808 0.12 7.32 1.29 12.71
11/8/2020 2:15:00 PM 6.64 43.952 0.12 7.32 1.29 12.67
11/8/2020 2:30:00 PM 6.68 44.024 0.12 7.32 1.26 12.63
11/8/2020 2:45:00 PM 6.74 44.132 0.12 7.32 1.28 12.59
11/8/2020 3:00:00 PM 6.8 44.24 0.12 7.32 1.29 12.55
11/8/2020 3:15:00 PM 6.85 44.33 0.12 7.32 1.28 12.51
11/8/2020 3:30:00 PM 6.9 44.42 0.12 7.33 1.3 12.46
11/8/2020 3:45:00 PM 6.95 44.51 0.12 7.32 1.31 12.41
11/8/2020 4:00:00 PM 6.97 44.546 0.12 7.31 1.39 12.37
11/8/2020 4:15:00 PM 6.97 44.546 0.12 7.3 1.36 12.32
11/8/2020 4:30:00 PM 6.97 44.546 0.12 7.3 1.32 12.27
11/8/2020 4:45:00 PM 6.95 44.51 0.12 7.29 1.31 12.22
11/8/2020 5:00:00 PM 6.93 44.474 0.12 7.27 1.32 12.16
11/8/2020 5:15:00 PM 6.91 44.438 0.12 7.26 1.35 12.1
11/8/2020 5:30:00 PM 6.89 44.402 0.12 7.25 1.36 12.05
11/8/2020 5:45:00 PM 6.88 44.384 0.12 7.24 1.4 12.01
11/8/2020 6:00:00 PM 6.86 44.348 0.12 7.23 1.47 11.99
11/8/2020 6:15:00 PM 6.85 44.33 0.12 7.22 1.4 11.96
11/8/2020 6:30:00 PM 6.83 44.294 0.12 7.21 1.39 11.96
11/8/2020 6:45:00 PM 6.81 44.258 0.12 7.21 1.37 11.95
11/8/2020 7:00:00 PM 6.8 44.24 0.12 7.2 1.38 11.94
11/8/2020 7:15:00 PM 6.78 44.204 0.12 7.2 1.43 11.93
11/8/2020 7:30:00 PM 6.76 44.168 0.12 7.19 1.42 11.93
11/8/2020 7:45:00 PM 6.74 44.132 0.12 7.19 1.41 11.93
11/8/2020 8:00:00 PM 6.72 44.096 0.12 7.19 1.42 11.92
11/8/2020 8:15:00 PM 6.7 44.06 0.12 7.18 1.44 11.92
11/8/2020 8:30:00 PM 6.68 44.024 0.12 7.18 1.39 11.92
11/8/2020 8:45:00 PM 6.67 44.006 0.121 7.18 1.42 11.92
11/8/2020 9:00:00 PM 6.65 43.97 0.121 7.18 1.42 11.92
11/8/2020 9:15:00 PM 6.63 43.934 0.121 7.18 1.44 11.92
11/8/2020 9:30:00 PM 6.6 43.88 0.121 7.18 1.4 11.93
11/8/2020 9:45:00 PM 6.58 43.844 0.121 7.17 1.41 11.93
11/8/2020 10:00:00 PM 6.55 43.79 0.121 7.17 1.37 11.94
11/8/2020 10:15:00 PM 6.52 43.736 0.121 7.17 1.39 11.95
11/8/2020 10:30:00 PM 6.48 43.664 0.121 7.17 1.46 11.96
11/8/2020 10:45:00 PM 6.45 43.61 0.121 7.17 1.43 11.97
11/8/2020 11:00:00 PM 6.4 43.52 0.121 7.17 1.37 11.99
11/8/2020 11:15:00 PM 6.35 43.43 0.121 7.17 1.4 12
11/8/2020 11:30:00 PM 6.31 43.358 0.121 7.17 1.44 12.02
11/8/2020 11:45:00 PM 6.26 43.268 0.121 7.17 1.42 12.04
11/9/2020 12:00:00 AM 6.2 43.16 0.121 7.17 1.39 12.05
11/9/2020 12:15:00 AM 6.15 43.07 0.121 7.17 1.38 12.07
11/9/2020 12:30:00 AM 6.1 42.98 0.121 7.17 1.37 12.09
11/9/2020 12:45:00 AM 6.04 42.872 0.121 7.17 1.38 12.11
11/9/2020 1:00:00 AM 5.99 42.782 0.121 7.17 1.38 12.13
11/9/2020 1:15:00 AM 5.93 42.674 0.121 7.17 1.38 12.15
11/9/2020 1:30:00 AM 5.88 42.584 0.121 7.17 1.37 12.16
11/9/2020 1:45:00 AM 5.82 42.476 0.121 7.17 1.38 12.18
11/9/2020 2:00:00 AM 5.77 42.386 0.121 7.17 1.37 12.2
11/9/2020 2:15:00 AM 5.71 42.278 0.121 7.17 1.4 12.22
11/9/2020 2:30:00 AM 5.66 42.188 0.121 7.17 1.36 12.24
11/9/2020 2:45:00 AM 5.6 42.08 0.121 7.17 1.34 12.26
11/9/2020 3:00:00 AM 5.55 41.99 0.121 7.17 1.39 12.28
11/9/2020 3:15:00 AM 5.49 41.882 0.121 7.17 1.35 12.3
11/9/2020 3:30:00 AM 5.44 41.792 0.121 7.17 1.34 12.32
11/9/2020 3:45:00 AM 5.38 41.684 0.121 7.17 1.36 12.33
11/9/2020 4:00:00 AM 5.33 41.594 0.121 7.17 1.45 12.35
11/9/2020 4:15:00 AM 5.27 41.486 0.122 7.17 1.36 12.37
11/9/2020 4:30:00 AM 5.21 41.378 0.122 7.17 1.37 12.4
11/9/2020 4:45:00 AM 5.16 41.288 0.122 7.17 1.38 12.42
11/9/2020 5:00:00 AM 5.1 41.18 0.122 7.17 1.36 12.44
11/9/2020 5:15:00 AM 5.04 41.072 0.122 7.17 1.37 12.46
11/9/2020 5:30:00 AM 4.98 40.964 0.122 7.17 1.37 12.48
11/9/2020 5:45:00 AM 4.93 40.874 0.122 7.17 1.38 12.5
11/9/2020 6:00:00 AM 4.87 40.766 0.122 7.17 1.4 12.52
11/9/2020 6:15:00 AM 4.82 40.676 0.122 7.17 1.33 12.54
11/9/2020 6:30:00 AM 4.76 40.568 0.122 7.17 1.31 12.56
11/9/2020 6:45:00 AM 4.7 40.46 0.122 7.17 1.28 12.58
11/9/2020 7:00:00 AM 4.65 40.37 0.122 7.17 1.3 12.61
11/9/2020 7:15:00 AM 4.6 40.28 0.122 7.17 1.34 12.65
11/9/2020 7:30:00 AM 4.55 40.19 0.122 7.18 1.33 12.7
11/9/2020 7:45:00 AM 4.51 40.118 0.122 7.18 1.31 12.75
11/9/2020 8:00:00 AM 4.48 40.064 0.122 7.19 1.29 12.81
11/9/2020 8:15:00 AM 4.46 40.028 0.122 7.2 1.27 12.87
11/9/2020 8:30:00 AM 4.46 40.028 0.122 7.21 1.3 12.93
11/9/2020 8:45:00 AM 4.49 40.082 0.122 7.22 1.32 12.98
11/9/2020 9:00:00 AM 4.53 40.154 0.122 7.23 1.31 13.02
11/9/2020 9:15:00 AM 4.57 40.226 0.122 7.24 1.27 13.06
11/9/2020 9:30:00 AM 4.63 40.334 0.122 7.25 1.24 13.08
11/9/2020 9:45:00 AM 4.69 40.442 0.122 7.26 1.33 13.09
11/9/2020 10:00:00 AM 4.76 40.568 0.122 7.27 1.31 13.1
11/9/2020 10:15:00 AM 4.85 40.73 0.122 7.28 1.26 13.11
11/9/2020 10:30:00 AM 4.96 40.928 0.122 7.28 1.29 13.11
11/9/2020 10:45:00 AM 5.07 41.126 0.122 7.29 1.25 13.1
11/9/2020 11:00:00 AM 5.19 41.342 0.122 7.3 1.27 13.09
11/9/2020 11:15:00 AM 5.31 41.558 0.122 7.3 1.22 13.07
11/9/2020 11:30:00 AM 5.43 41.774 0.121 7.3 1.25 13.05
11/9/2020 11:45:00 AM 5.53 41.954 0.121 7.31 1.22 13.03
11/9/2020 12:00:00 PM 5.64 42.152 0.121 7.31 1.26 13.01
11/9/2020 12:15:00 PM 5.74 42.332 0.121 7.31 1.25 12.98
11/9/2020 12:30:00 PM 5.84 42.512 0.121 7.32 1.28 12.95
11/9/2020 12:45:00 PM 5.94 42.692 0.121 7.32 1.27 12.93
11/9/2020 1:00:00 PM 6.04 42.872 0.121 7.32 1.28 12.9
11/9/2020 1:15:00 PM 6.18 43.124 0.121 7.33 1.24 12.86
11/9/2020 1:30:00 PM 6.31 43.358 0.121 7.33 1.27 12.81
11/9/2020 1:45:00 PM 6.4 43.52 0.121 7.33 1.23 12.77
11/9/2020 2:00:00 PM 6.49 43.682 0.121 7.34 1.25 12.74
11/9/2020 2:15:00 PM 6.56 43.808 0.121 7.34 1.22 12.7
11/9/2020 2:30:00 PM 6.63 43.934 0.121 7.34 1.27 12.65
11/9/2020 2:45:00 PM 6.68 44.024 0.12 7.34 1.27 12.61
11/9/2020 3:00:00 PM 6.74 44.132 0.12 7.34 1.26 12.57
11/9/2020 3:15:00 PM 6.78 44.204 0.12 7.34 1.23 12.52
11/9/2020 3:30:00 PM 6.83 44.294 0.12 7.34 1.32 12.48
11/9/2020 3:45:00 PM 6.88 44.384 0.12 7.34 1.24 12.43
11/9/2020 4:00:00 PM 6.92 44.456 0.12 7.33 1.28 12.38
11/9/2020 4:15:00 PM 6.94 44.492 0.12 7.33 1.28 12.33
11/9/2020 4:30:00 PM 6.94 44.492 0.121 7.32 1.31 12.27
11/9/2020 4:45:00 PM 6.94 44.492 0.121 7.31 1.33 12.21
11/9/2020 5:00:00 PM 6.92 44.456 0.121 7.29 1.31 12.15
11/9/2020 5:15:00 PM 6.91 44.438 0.121 7.28 1.25 12.08
11/9/2020 5:30:00 PM 6.9 44.42 0.121 7.26 1.32 12.02
11/9/2020 5:45:00 PM 6.9 44.42 0.121 7.25 1.32 11.98
11/9/2020 6:00:00 PM 6.89 44.402 0.121 7.24 1.35 11.94
11/9/2020 6:15:00 PM 6.89 44.402 0.121 7.23 1.33 11.92
11/9/2020 6:30:00 PM 6.88 44.384 0.121 7.22 1.36 11.9
11/9/2020 6:45:00 PM 6.87 44.366 0.121 7.22 1.34 11.89
11/9/2020 7:00:00 PM 6.86 44.348 0.121 7.21 1.36 11.88
11/9/2020 7:15:00 PM 6.85 44.33 0.121 7.2 1.31 11.87
11/9/2020 7:30:00 PM 6.84 44.312 0.121 7.2 1.33 11.87
11/9/2020 7:45:00 PM 6.83 44.294 0.121 7.2 1.37 11.85
11/9/2020 8:00:00 PM 6.81 44.258 0.121 7.19 1.36 11.85
11/9/2020 8:15:00 PM 6.8 44.24 0.121 7.19 1.36 11.84
11/9/2020 8:30:00 PM 6.79 44.222 0.121 7.19 1.38 11.84
11/9/2020 8:45:00 PM 6.77 44.186 0.121 7.18 1.32 11.84
11/9/2020 9:00:00 PM 6.76 44.168 0.121 7.18 1.34 11.84
11/9/2020 9:15:00 PM 6.75 44.15 0.121 7.18 1.34 11.84
11/9/2020 9:30:00 PM 6.74 44.132 0.121 7.17 1.39 11.84
11/9/2020 9:45:00 PM 6.72 44.096 0.121 7.17 1.33 11.84
11/9/2020 10:00:00 PM 6.7 44.06 0.121 7.17 1.33 11.84
11/9/2020 10:15:00 PM 6.68 44.024 0.121 7.17 1.3 11.84
11/9/2020 10:30:00 PM 6.66 43.988 0.121 7.17 1.34 11.85
11/9/2020 10:45:00 PM 6.64 43.952 0.121 7.17 1.34 11.85
11/9/2020 11:00:00 PM 6.62 43.916 0.122 7.17 1.34 11.86
11/9/2020 11:15:00 PM 6.59 43.862 0.122 7.17 1.32 11.87
11/9/2020 11:30:00 PM 6.56 43.808 0.122 7.17 1.34 11.88
11/9/2020 11:45:00 PM 6.53 43.754 0.122 7.17 1.31 11.89
11/10/2020 12:00:00 AM 6.49 43.682 0.122 7.16 1.36 11.9
11/10/2020 12:15:00 AM 6.46 43.628 0.122 7.17 1.33 11.91
11/10/2020 12:30:00 AM 6.41 43.538 0.122 7.16 1.35 11.92
11/10/2020 12:45:00 AM 6.37 43.466 0.122 7.17 1.36 11.94
11/10/2020 1:00:00 AM 6.33 43.394 0.122 7.17 1.32 11.95
11/10/2020 1:15:00 AM 6.29 43.322 0.122 7.17 1.34 11.97
11/10/2020 1:30:00 AM 6.25 43.25 0.122 7.16 1.3 11.98
11/10/2020 1:45:00 AM 6.2 43.16 0.122 7.17 1.32 11.99
11/10/2020 2:00:00 AM 6.16 43.088 0.122 7.17 1.3 12
11/10/2020 2:15:00 AM 6.12 43.016 0.122 7.17 1.35 12.02
11/10/2020 2:30:00 AM 6.08 42.944 0.122 7.17 1.34 12.03
11/10/2020 2:45:00 AM 6.05 42.89 0.122 7.17 1.37 12.04
11/10/2020 3:00:00 AM 6.02 42.836 0.122 7.17 1.3 12.05
11/10/2020 3:15:00 AM 6 42.8 0.122 7.17 1.3 12.07
11/10/2020 3:30:00 AM 5.98 42.764 0.122 7.17 1.32 12.07
11/10/2020 3:45:00 AM 5.95 42.71 0.122 7.17 1.31 12.09
11/10/2020 4:00:00 AM 5.93 42.674 0.122 7.17 1.29 12.1
11/10/2020 4:15:00 AM 5.91 42.638 0.122 7.17 1.29 12.11
11/10/2020 4:30:00 AM 5.88 42.584 0.122 7.17 1.3 12.11
11/10/2020 4:45:00 AM 5.86 42.548 0.122 7.17 1.29 12.13
11/10/2020 5:00:00 AM 5.83 42.494 0.122 7.17 1.3 12.14
11/10/2020 5:15:00 AM 5.8 42.44 0.122 7.17 1.32 12.15
11/10/2020 5:30:00 AM 5.77 42.386 0.122 7.17 1.32 12.16
11/10/2020 5:45:00 AM 5.74 42.332 0.122 7.17 1.29 12.17
11/10/2020 6:00:00 AM 5.71 42.278 0.122 7.17 1.3 12.18
11/10/2020 6:15:00 AM 5.69 42.242 0.122 7.17 1.3 12.2
11/10/2020 6:30:00 AM 5.66 42.188 0.122 7.17 1.25 12.2
11/10/2020 6:45:00 AM 5.64 42.152 0.122 7.17 1.25 12.22
11/10/2020 7:00:00 AM 5.62 42.116 0.122 7.17 1.31 12.23
11/10/2020 7:15:00 AM 5.6 42.08 0.122 7.18 1.24 12.26
11/10/2020 7:30:00 AM 5.58 42.044 0.122 7.18 1.24 12.3
11/10/2020 7:45:00 AM 5.56 42.008 0.122 7.19 1.29 12.36
11/10/2020 8:00:00 AM 5.56 42.008 0.122 7.2 1.26 12.43
11/10/2020 8:15:00 AM 5.57 42.026 0.122 7.22 1.28 12.5
11/10/2020 8:30:00 AM 5.57 42.026 0.122 7.23 1.25 12.57
11/10/2020 8:45:00 AM 5.59 42.062 0.122 7.24 1.25 12.62
11/10/2020 9:00:00 AM 5.63 42.134 0.122 7.25 1.26 12.66
11/10/2020 9:15:00 AM 5.68 42.224 0.122 7.26 1.24 12.68
11/10/2020 9:30:00 AM 5.73 42.314 0.122 7.27 1.25 12.7
11/10/2020 9:45:00 AM 5.79 42.422 0.121 7.28 1.25 12.7
11/10/2020 10:00:00 AM 5.86 42.548 0.121 7.29 1.26 12.72
11/10/2020 10:15:00 AM 5.95 42.71 0.121 7.29 1.25 12.72
11/10/2020 10:30:00 AM 6.05 42.89 0.121 7.3 1.25 12.72
11/10/2020 10:45:00 AM 6.16 43.088 0.121 7.31 1.26 12.72
11/10/2020 11:00:00 AM 6.28 43.304 0.121 7.32 1.22 12.71
11/10/2020 11:15:00 AM 6.41 43.538 0.121 7.33 1.23 12.69
11/10/2020 11:30:00 AM 6.52 43.736 0.121 7.33 1.25 12.67
11/10/2020 11:45:00 AM 6.64 43.952 0.121 7.34 1.23 12.65
11/10/2020 12:00:00 PM 6.75 44.15 0.121 7.34 1.28 12.62
11/10/2020 12:15:00 PM 6.86 44.348 0.121 7.35 1.22 12.6
11/10/2020 12:30:00 PM 6.97 44.546 0.121 7.36 1.23 12.58
11/10/2020 12:45:00 PM 7.09 44.762 0.12 7.36 1.22 12.54
11/10/2020 1:00:00 PM 7.24 45.032 0.12 7.37 1.29 12.51
11/10/2020 1:15:00 PM 7.4 45.32 0.12 7.38 1.23 12.47
11/10/2020 1:30:00 PM 7.56 45.608 0.12 7.38 1.22 12.43
11/10/2020 1:45:00 PM 7.69 45.842 0.12 7.39 1.24 12.38
11/10/2020 2:00:00 PM 7.8 46.04 0.12 7.39 1.26 12.34
11/10/2020 2:15:00 PM 7.87 46.166 0.12 7.39 1.23 12.3
11/10/2020 2:30:00 PM 7.93 46.274 0.12 7.4 1.25 12.25
11/10/2020 2:45:00 PM 8.03 46.454 0.12 7.4 1.24 12.2
11/10/2020 3:00:00 PM 8.09 46.562 0.12 7.4 1.32 12.15
11/10/2020 3:15:00 PM 8.12 46.616 0.12 7.4 1.29 12.12
11/10/2020 3:30:00 PM 8.18 46.724 0.12 7.4 1.28 12.07
11/10/2020 3:45:00 PM 8.23 46.814 0.12 7.4 1.32 12
11/10/2020 4:00:00 PM 8.26 46.868 0.12 7.39 1.31 11.94
11/10/2020 4:15:00 PM 8.22 46.796 0.12 7.38 1.34 11.89
11/10/2020 4:30:00 PM 8.21 46.778 0.12 7.36 1.29 11.84
11/10/2020 4:45:00 PM 8.21 46.778 0.12 7.35 1.28 11.77
11/10/2020 5:00:00 PM 8.21 46.778 0.12 7.33 1.31 11.69
11/10/2020 5:15:00 PM 8.21 46.778 0.12 7.32 1.31 11.61
11/10/2020 5:30:00 PM 8.22 46.796 0.12 7.3 1.42 11.55
11/10/2020 5:45:00 PM 8.23 46.814 0.12 7.28 1.49 11.5
11/10/2020 6:00:00 PM 8.24 46.832 0.12 7.27 1.35 11.46
11/10/2020 6:15:00 PM 8.24 46.832 0.12 7.26 1.47 11.43
11/10/2020 6:30:00 PM 8.24 46.832 0.12 7.25 1.4 11.41
11/10/2020 6:45:00 PM 8.24 46.832 0.12 7.24 1.37 11.4
11/10/2020 7:00:00 PM 8.24 46.832 0.12 7.23 1.33 11.38
11/10/2020 7:15:00 PM 8.23 46.814 0.12 7.23 1.33 11.37
11/10/2020 7:30:00 PM 8.22 46.796 0.12 7.22 1.32 11.36
11/10/2020 7:45:00 PM 8.22 46.796 0.12 7.22 1.33 11.35
11/10/2020 8:00:00 PM 8.22 46.796 0.12 7.21 1.41 11.33
11/10/2020 8:15:00 PM 8.22 46.796 0.12 7.21 1.34 11.33
11/10/2020 8:30:00 PM 8.22 46.796 0.12 7.21 1.39 11.33
11/10/2020 8:45:00 PM 8.21 46.778 0.12 7.21 1.38 11.31
11/10/2020 9:00:00 PM 8.21 46.778 0.12 7.2 1.37 11.31
11/10/2020 9:15:00 PM 8.2 46.76 0.12 7.2 1.35 11.32
11/10/2020 9:30:00 PM 8.2 46.76 0.12 7.2 1.38 11.32
11/10/2020 9:45:00 PM 8.19 46.742 0.12 7.2 1.38 11.3
11/10/2020 10:00:00 PM 8.18 46.724 0.12 7.2 1.37 11.31
11/10/2020 10:15:00 PM 8.18 46.724 0.12 7.2 1.37 11.31
11/10/2020 10:30:00 PM 8.17 46.706 0.12 7.2 1.35 11.31
11/10/2020 10:45:00 PM 8.16 46.688 0.121 7.19 1.32 11.3
11/10/2020 11:00:00 PM 8.15 46.67 0.121 7.19 1.36 11.31
11/10/2020 11:15:00 PM 8.14 46.652 0.121 7.19 1.34 11.31
11/10/2020 11:30:00 PM 8.13 46.634 0.121 7.19 1.36 11.31
11/10/2020 11:45:00 PM 8.11 46.598 0.121 7.19 1.38 11.31
11/11/2020 12:00:00 AM 8.1 46.58 0.121 7.19 1.32 11.31
11/11/2020 12:15:00 AM 8.08 46.544 0.121 7.19 1.36 11.32
11/11/2020 12:30:00 AM 8.06 46.508 0.121 7.19 1.38 11.33
11/11/2020 12:45:00 AM 8.03 46.454 0.121 7.19 1.34 11.33
11/11/2020 1:00:00 AM 8.01 46.418 0.121 7.19 1.36 11.34
11/11/2020 1:15:00 AM 7.99 46.382 0.121 7.19 1.32 11.35
11/11/2020 1:30:00 AM 7.97 46.346 0.121 7.19 1.38 11.35
11/11/2020 1:45:00 AM 7.94 46.292 0.121 7.19 1.37 11.35
11/11/2020 2:00:00 AM 7.92 46.256 0.121 7.19 1.34 11.36
11/11/2020 2:15:00 AM 7.9 46.22 0.121 7.19 1.38 11.37
11/11/2020 2:30:00 AM 7.88 46.184 0.121 7.19 1.45 11.37
11/11/2020 2:45:00 AM 7.86 46.148 0.121 7.19 1.42 11.38
11/11/2020 3:00:00 AM 7.84 46.112 0.121 7.19 1.34 11.39
11/11/2020 3:15:00 AM 7.82 46.076 0.121 7.19 1.33 11.39
11/11/2020 3:30:00 AM 7.81 46.058 0.121 7.19 1.34 11.4
11/11/2020 3:45:00 AM 7.82 46.076 0.121 7.19 1.37 11.4
11/11/2020 4:00:00 AM 7.84 46.112 0.121 7.19 1.35 11.4
11/11/2020 4:15:00 AM 7.87 46.166 0.121 7.19 1.3 11.4
11/11/2020 4:30:00 AM 7.9 46.22 0.121 7.19 1.34 11.39
11/11/2020 4:45:00 AM 7.92 46.256 0.121 7.19 1.38 11.39
11/11/2020 5:00:00 AM 7.95 46.31 0.121 7.19 1.32 11.39
11/11/2020 5:15:00 AM 7.97 46.346 0.121 7.19 1.36 11.38
11/11/2020 5:30:00 AM 7.98 46.364 0.121 7.19 1.35 11.38
11/11/2020 5:45:00 AM 8 46.4 0.121 7.19 1.35 11.38
11/11/2020 6:00:00 AM 8.02 46.436 0.12 7.18 1.42 11.38
11/11/2020 6:15:00 AM 8.03 46.454 0.12 7.18 1.49 11.38
11/11/2020 6:30:00 AM 8.06 46.508 0.119 7.18 1.46 11.37
11/11/2020 6:45:00 AM 8.09 46.562 0.118 7.17 1.75 11.37
11/11/2020 7:00:00 AM 8.12 46.616 0.117 7.16 1.6 11.37
11/11/2020 7:15:00 AM 8.15 46.67 0.116 7.16 1.71 11.36
11/11/2020 7:30:00 AM 8.18 46.724 0.116 7.15 1.63 11.35
11/11/2020 7:45:00 AM 8.22 46.796 0.115 7.15 1.63 11.35
11/11/2020 8:00:00 AM 8.25 46.85 0.114 7.15 1.76 11.35
11/11/2020 8:15:00 AM 8.28 46.904 0.114 7.15 1.76 11.37
11/11/2020 8:30:00 AM 8.31 46.958 0.114 7.15 1.97 11.39
11/11/2020 8:45:00 AM 8.34 47.012 0.113 7.16 2.27 11.4
11/11/2020 9:00:00 AM 8.38 47.084 0.113 7.17 2.85 11.42
11/11/2020 9:15:00 AM 8.41 47.138 0.112 7.17 2.97 11.43
11/11/2020 9:30:00 AM 8.45 47.21 0.112 7.17 3.02 11.45
11/11/2020 9:45:00 AM 8.5 47.3 0.111 7.17 3.12 11.45
11/11/2020 10:00:00 AM 8.54 47.372 0.11 7.17 2.94 11.46
11/11/2020 10:15:00 AM 8.58 47.444 0.109 7.17 2.84 11.46
11/11/2020 10:30:00 AM 8.63 47.534 0.108 7.17 2.79 11.47
11/11/2020 10:45:00 AM 8.66 47.588 0.108 7.17 2.81 11.46
11/11/2020 11:00:00 AM 8.71 47.678 0.108 7.17 2.64 11.46
11/11/2020 11:15:00 AM 8.76 47.768 0.108 7.17 2.8 11.45
11/11/2020 11:30:00 AM 8.81 47.858 0.108 7.17 3.34 11.46
11/11/2020 11:45:00 AM 8.85 47.93 0.108 7.18 3.46 11.46
11/11/2020 12:00:00 PM 8.91 48.038 0.108 7.18 3.74 11.48
11/11/2020 12:15:00 PM 8.98 48.164 0.108 7.18 3.97 11.51
11/11/2020 12:30:00 PM 9.04 48.272 0.108 7.19 4.67 11.51
11/11/2020 12:45:00 PM 9.09 48.362 0.107 7.18 4.91 11.48
11/11/2020 1:00:00 PM 9.12 48.416 0.107 7.18 5.26 11.42
11/11/2020 1:15:00 PM 9.17 48.506 0.107 7.17 5.26 11.4
11/11/2020 1:30:00 PM 9.23 48.614 0.106 7.17 5.67 11.41
11/11/2020 1:45:00 PM 9.28 48.704 0.106 7.17 5.57 11.42
11/11/2020 2:00:00 PM 9.35 48.83 0.107 7.17 5.94 11.44
11/11/2020 2:15:00 PM 9.41 48.938 0.106 7.17 5.36 11.43
11/11/2020 2:30:00 PM 9.45 49.01 0.106 7.16 5.34 11.41
11/11/2020 2:45:00 PM 9.48 49.064 0.106 7.15 5.83 11.38
11/11/2020 3:00:00 PM 9.53 49.154 0.106 7.15 5.54 11.38
11/11/2020 3:15:00 PM 9.57 49.226 0.106 7.15 5.73 11.36
11/11/2020 3:30:00 PM 9.58 49.244 0.106 7.15 5.93 11.29
11/11/2020 3:45:00 PM 9.59 49.262 0.106 7.13 6.2 11.22
11/11/2020 4:00:00 PM 9.61 49.298 0.106 7.11 7.2 11.17
11/11/2020 4:15:00 PM 9.63 49.334 0.106 7.08 9.89 11.13
11/11/2020 4:30:00 PM 9.67 49.406 0.109 7.08 19.53 11.04
11/11/2020 4:45:00 PM 9.7 49.46 0.109 7.03 36.3 11
11/11/2020 5:00:00 PM 9.64 49.352 0.108 7.02 34.92 10.91
11/11/2020 5:15:00 PM 9.58 49.244 0.11 7.04 32.95 10.94
11/11/2020 5:30:00 PM 9.54 49.172 0.111 7.06 32.42 10.96
11/11/2020 5:45:00 PM 9.53 49.154 0.112 7.07 33.6 10.96
11/11/2020 6:00:00 PM 9.53 49.154 0.112 7.07 29.92 10.96
11/11/2020 6:15:00 PM 9.51 49.118 0.11 7.07 34.98 10.96
11/11/2020 6:30:00 PM 9.5 49.1 0.108 7.06 27.79 10.97
11/11/2020 6:45:00 PM 9.48 49.064 0.106 7.06 26.06 10.97
11/11/2020 7:00:00 PM 9.47 49.046 0.104 7.05 26.24 10.98
11/11/2020 7:15:00 PM 9.46 49.028 0.103 7.01 24.92 10.97
11/11/2020 7:30:00 PM 9.47 49.046 0.102 6.99 24.19 10.97
11/11/2020 7:45:00 PM 9.49 49.082 0.1 6.99 23.52 10.97
11/11/2020 8:00:00 PM 9.51 49.118 0.099 7 22.61 10.96
11/11/2020 8:15:00 PM 9.54 49.172 0.097 6.99 25.93 10.95
11/11/2020 8:30:00 PM 9.58 49.244 0.096 6.99 26.14 10.94
11/11/2020 8:45:00 PM 9.61 49.298 0.096 7 25.36 10.94
11/11/2020 9:00:00 PM 9.63 49.334 0.096 7 24.95 10.93
11/11/2020 9:15:00 PM 9.66 49.388 0.096 7 23.68 10.92
11/11/2020 9:30:00 PM 9.68 49.424 0.097 7.01 24.13 10.93
11/11/2020 9:45:00 PM 9.69 49.442 0.098 7.02 23.62 10.92
11/11/2020 10:00:00 PM 9.7 49.46 0.099 7.02 22.14 10.92
11/11/2020 10:15:00 PM 9.7 49.46 0.1 7.04 21.79 10.92
11/11/2020 10:30:00 PM 9.7 49.46 0.101 7.03 21.53 10.92
11/11/2020 10:45:00 PM 9.71 49.478 0.102 7.04 21.73 10.92
11/11/2020 11:00:00 PM 9.71 49.478 0.102 7.04 21.48 10.91
11/11/2020 11:15:00 PM 9.71 49.478 0.103 7.05 23.72 10.91
11/11/2020 11:30:00 PM 9.71 49.478 0.104 7.06 21.69 10.91
11/11/2020 11:45:00 PM 9.71 49.478 0.105 7.07 21.42 10.9
11/12/2020 12:00:00 AM 9.7 49.46 0.105 7.06 21.41 10.91
11/12/2020 12:15:00 AM 9.69 49.442 0.106 7.06 20.97 10.91
11/12/2020 12:30:00 AM 9.67 49.406 0.107 7.06 20.89 10.91
11/12/2020 12:45:00 AM 9.66 49.388 0.107 7.07 21.88 10.91
11/12/2020 1:00:00 AM 9.65 49.37 0.108 7.08 21.22 10.92
11/12/2020 1:15:00 AM 9.63 49.334 0.108 7.1 20.89 10.92
11/12/2020 1:30:00 AM 9.62 49.316 0.108 7.1 20.84 10.93
11/12/2020 1:45:00 AM 9.61 49.298 0.108 7.06 20.57 10.93
11/12/2020 2:00:00 AM 9.6 49.28 0.108 7.06 20.33 10.93
11/12/2020 2:15:00 AM 9.58 49.244 0.108 7.06 19.85 10.94
11/12/2020 2:30:00 AM 9.58 49.244 0.107 7.06 18.93 10.94
11/12/2020 2:45:00 AM 9.57 49.226 0.107 7.06 19.28 10.94
11/12/2020 3:00:00 AM 9.55 49.19 0.107 7.07 18.78 10.95
11/12/2020 3:15:00 AM 9.53 49.154 0.107 7.04 18.59 10.96
11/12/2020 3:30:00 AM 9.51 49.118 0.107 7.05 18.09 10.97
11/12/2020 3:45:00 AM 9.49 49.082 0.106 7.07 17.8 10.96
11/12/2020 4:00:00 AM 9.47 49.046 0.106 7.07 17.41 10.97
11/12/2020 4:15:00 AM 9.44 48.992 0.106 7.06 16.79 10.98
11/12/2020 4:30:00 AM 9.41 48.938 0.106 7.06 16.67 10.99
11/12/2020 4:45:00 AM 9.37 48.866 0.106 7.07 16.53 11
11/12/2020 5:00:00 AM 9.34 48.812 0.106 7.08 15.52 11.02
11/12/2020 5:15:00 AM 9.31 48.758 0.106 7.09 15.59 11.03
11/12/2020 5:30:00 AM 9.28 48.704 0.106 7.09 14.69 11.04
11/12/2020 5:45:00 AM 9.25 48.65 0.106 7.09 14.85 11.05
11/12/2020 6:00:00 AM 9.22 48.596 0.106 7.09 14.51 11.06
11/12/2020 6:15:00 AM 9.19 48.542 0.106 7.08 14.34 11.07
11/12/2020 6:30:00 AM 9.15 48.47 0.106 7.07 14.28 11.08
11/12/2020 6:45:00 AM 9.12 48.416 0.106 7.07 13.93 11.09
11/12/2020 7:00:00 AM 9.1 48.38 0.106 7.07 13.66 11.1
11/12/2020 7:15:00 AM 9.08 48.344 0.106 7.07 13.52 11.11
11/12/2020 7:30:00 AM 9.06 48.308 0.106 7.07 13.14 11.12
11/12/2020 7:45:00 AM 9.03 48.254 0.106 7.08 12.53 11.14
11/12/2020 8:00:00 AM 9.01 48.218 0.106 7.09 12.44 11.17
11/12/2020 8:15:00 AM 8.97 48.146 0.106 7.09 12.13 11.2
11/12/2020 8:30:00 AM 8.94 48.092 0.106 7.1 11.88 11.23
11/12/2020 8:45:00 AM 8.94 48.092 0.106 7.1 11.55 11.26
11/12/2020 9:00:00 AM 8.94 48.092 0.106 7.11 11.28 11.3
11/12/2020 9:15:00 AM 8.94 48.092 0.106 7.12 10.95 11.34
11/12/2020 9:30:00 AM 8.96 48.128 0.106 7.13 10.63 11.39
11/12/2020 9:45:00 AM 8.98 48.164 0.106 7.14 10.55 11.42
11/12/2020 10:00:00 AM 9 48.2 0.106 7.15 10.57 11.46
11/12/2020 10:15:00 AM 9.02 48.236 0.106 7.16 10.28 11.5
11/12/2020 10:30:00 AM 9.03 48.254 0.106 7.17 10.36 11.52
11/12/2020 10:45:00 AM 9.03 48.254 0.106 7.18 10.28 11.53
11/12/2020 11:00:00 AM 9.05 48.29 0.106 7.18 10.37 11.56
11/12/2020 11:15:00 AM 9.07 48.326 0.106 7.19 10.26 11.58
11/12/2020 11:30:00 AM 9.09 48.362 0.105 7.2 9.98 11.59
11/12/2020 11:45:00 AM 9.1 48.38 0.105 7.2 9.52 11.59
11/12/2020 12:00:00 PM 9.13 48.434 0.105 7.21 9.87 11.61
11/12/2020 12:15:00 PM 9.16 48.488 0.105 7.22 9.44 11.62
11/12/2020 12:30:00 PM 9.22 48.596 0.105 7.22 9.33 11.62
11/12/2020 12:45:00 PM 9.25 48.65 0.105 7.23 9.1 11.63
11/12/2020 1:00:00 PM 9.28 48.704 0.105 7.24 9.05 11.64
11/12/2020 1:15:00 PM 9.32 48.776 0.105 7.25 8.73 11.63
11/12/2020 1:30:00 PM 9.33 48.794 0.105 7.25 8.67 11.63
11/12/2020 1:45:00 PM 9.36 48.848 0.105 7.26 8.18 11.62
11/12/2020 2:00:00 PM 9.41 48.938 0.105 7.26 8.22 11.61
11/12/2020 2:15:00 PM 9.43 48.974 0.105 7.26 8.11 11.61
11/12/2020 2:30:00 PM 9.39 48.902 0.105 7.26 7.99 11.58
11/12/2020 2:45:00 PM 9.39 48.902 0.105 7.25 8.04 11.56
11/12/2020 3:00:00 PM 9.37 48.866 0.105 7.25 7.94 11.54
11/12/2020 3:15:00 PM 9.34 48.812 0.105 7.23 7.99 11.51
11/12/2020 3:30:00 PM 9.32 48.776 0.105 7.22 7.95 11.5
11/12/2020 3:45:00 PM 9.29 48.722 0.105 7.22 7.67 11.46
11/12/2020 4:00:00 PM 9.26 48.668 0.105 7.2 7.6 11.43
11/12/2020 4:15:00 PM 9.23 48.614 0.105 7.2 7.55 11.42
11/12/2020 4:30:00 PM 9.21 48.578 0.105 7.2 7.3 11.39
11/12/2020 4:45:00 PM 9.17 48.506 0.105 7.19 7.35 11.36
11/12/2020 5:00:00 PM 9.12 48.416 0.105 7.18 7.16 11.33
11/12/2020 5:15:00 PM 9.07 48.326 0.105 7.17 7.11 11.3
11/12/2020 5:30:00 PM 9.02 48.236 0.105 7.16 7.22 11.27
11/12/2020 5:45:00 PM 8.97 48.146 0.105 7.15 6.86 11.27
11/12/2020 6:00:00 PM 8.9 48.02 0.105 7.14 7.07 11.26
11/12/2020 6:15:00 PM 8.83 47.894 0.105 7.14 6.79 11.26
11/12/2020 6:30:00 PM 8.75 47.75 0.105 7.13 6.76 11.26
11/12/2020 6:45:00 PM 8.67 47.606 0.105 7.13 6.53 11.27
11/12/2020 7:00:00 PM 8.58 47.444 0.105 7.13 6.42 11.28
11/12/2020 7:15:00 PM 8.49 47.282 0.105 7.13 6.36 11.3
11/12/2020 7:30:00 PM 8.4 47.12 0.105 7.12 6.29 11.32
11/12/2020 7:45:00 PM 8.31 46.958 0.105 7.12 6.36 11.34
11/12/2020 8:00:00 PM 8.22 46.796 0.105 7.12 6.27 11.36
11/12/2020 8:15:00 PM 8.13 46.634 0.105 7.11 6.17 11.39
11/12/2020 8:30:00 PM 8.04 46.472 0.105 7.11 6 11.4
11/12/2020 8:45:00 PM 7.94 46.292 0.105 7.12 6.13 11.43
11/12/2020 9:00:00 PM 7.85 46.13 0.105 7.11 5.95 11.45
11/12/2020 9:15:00 PM 7.76 45.968 0.105 7.11 5.88 11.47
11/12/2020 9:30:00 PM 7.67 45.806 0.105 7.11 5.87 11.5
11/12/2020 9:45:00 PM 7.59 45.662 0.105 7.11 5.79 11.52
11/12/2020 10:00:00 PM 7.5 45.5 0.105 7.1 5.65 11.55
11/12/2020 10:15:00 PM 7.42 45.356 0.105 7.1 5.55 11.58
11/12/2020 10:30:00 PM 7.33 45.194 0.105 7.11 5.56 11.6
11/12/2020 10:45:00 PM 7.26 45.068 0.105 7.11 5.49 11.63
11/12/2020 11:00:00 PM 7.18 44.924 0.105 7.11 5.36 11.65
11/12/2020 11:15:00 PM 7.12 44.816 0.105 7.11 5.31 11.67
11/12/2020 11:30:00 PM 7.07 44.726 0.105 7.11 5.32 11.69
11/12/2020 11:45:00 PM 7.02 44.636 0.105 7.11 5.24 11.71
11/13/2020 12:00:00 AM 6.98 44.564 0.105 7.11 5.07 11.73
11/13/2020 12:15:00 AM 6.93 44.474 0.104 7.11 5.1 11.74
11/13/2020 12:30:00 AM 6.88 44.384 0.104 7.11 5.04 11.76
11/13/2020 12:45:00 AM 6.84 44.312 0.104 7.11 4.86 11.78
11/13/2020 1:00:00 AM 6.79 44.222 0.104 7.11 4.98 11.79
11/13/2020 1:15:00 AM 6.74 44.132 0.104 7.11 4.9 11.81
11/13/2020 1:30:00 AM 6.7 44.06 0.104 7.11 4.79 11.82
11/13/2020 1:45:00 AM 6.66 43.988 0.104 7.11 4.63 11.83
11/13/2020 2:00:00 AM 6.62 43.916 0.104 7.11 4.57 11.85
11/13/2020 2:15:00 AM 6.58 43.844 0.104 7.11 4.63 11.86
11/13/2020 2:30:00 AM 6.54 43.772 0.104 7.11 4.62 11.88
11/13/2020 2:45:00 AM 6.49 43.682 0.104 7.11 4.56 11.89
11/13/2020 3:00:00 AM 6.44 43.592 0.104 7.11 4.5 11.91
11/13/2020 3:15:00 AM 6.4 43.52 0.104 7.1 4.52 11.92
11/13/2020 3:30:00 AM 6.36 43.448 0.104 7.09 4.66 11.93
11/13/2020 3:45:00 AM 6.32 43.376 0.103 7.09 4.36 11.95
11/13/2020 4:00:00 AM 6.28 43.304 0.103 7.09 4.3 11.96
11/13/2020 4:15:00 AM 6.24 43.232 0.103 7.09 4.36 11.97
11/13/2020 4:30:00 AM 6.2 43.16 0.103 7.09 4.19 11.99
11/13/2020 4:45:00 AM 6.16 43.088 0.103 7.1 4.21 12
11/13/2020 5:00:00 AM 6.12 43.016 0.103 7.1 4.25 12.01
11/13/2020 5:15:00 AM 6.08 42.944 0.103 7.11 4.19 12.02
11/13/2020 5:30:00 AM 6.04 42.872 0.103 7.11 4.15 12.04
11/13/2020 5:45:00 AM 6 42.8 0.103 7.11 4.03 12.05
11/13/2020 6:00:00 AM 5.96 42.728 0.103 7.11 4.03 12.06
11/13/2020 6:15:00 AM 5.93 42.674 0.103 7.11 4.07 12.07
11/13/2020 6:30:00 AM 5.89 42.602 0.103 7.11 3.95 12.08
11/13/2020 6:45:00 AM 5.86 42.548 0.103 7.11 3.95 12.1
11/13/2020 7:00:00 AM 5.81 42.458 0.103 7.11 3.93 12.11
11/13/2020 7:15:00 AM 5.78 42.404 0.103 7.11 3.77 12.13
11/13/2020 7:30:00 AM 5.75 42.35 0.102 7.11 3.81 12.16
11/13/2020 7:45:00 AM 5.72 42.296 0.102 7.11 3.72 12.19
11/13/2020 8:00:00 AM 5.7 42.26 0.102 7.12 3.63 12.23
11/13/2020 8:15:00 AM 5.68 42.224 0.102 7.12 3.58 12.27
11/13/2020 8:30:00 AM 5.66 42.188 0.102 7.13 3.66 12.33
11/13/2020 8:45:00 AM 5.66 42.188 0.102 7.14 3.61 12.39
11/13/2020 9:00:00 AM 5.67 42.206 0.102 7.15 3.6 12.43
11/13/2020 9:15:00 AM 5.67 42.206 0.102 7.16 3.34